<?xml version="1.0" encoding="UTF-8"?>
<gpx version="1.0" creator="GPSBabel - https://www.gpsbabel.org" xmlns="http://www.topografix.com/GPX/1/0">
  <time>2021-11-17T20:59:45.694Z</time>
  <bounds minlat="17.312166810" minlon="-96.447091050" maxlat="17.326464190" maxlon="-96.437975860"/>
  <trk>
    <name>Capulálpam Pueblo Mágico Hike.Pat.2019-01-19</name>
    <trkseg>
      <trkpt lat="17.316818120" lon="-96.445414670">
        <ele>2050.000</ele>
        <time>2019-01-19T16:56:42Z</time>
        <name>WPT</name>
      </trkpt>
      <trkpt lat="17.316859410" lon="-96.445413440">
        <ele>2055.000</ele>
        <time>2019-01-19T16:56:44Z</time>
        <name>WPT.1</name>
      </trkpt>
      <trkpt lat="17.316858000" lon="-96.445455260">
        <ele>2053.000</ele>
        <time>2019-01-19T16:56:47Z</time>
        <name>WPT.2</name>
      </trkpt>
      <trkpt lat="17.316820260" lon="-96.445452320">
        <ele>2052.000</ele>
        <time>2019-01-19T16:57:16Z</time>
        <name>WPT.3</name>
      </trkpt>
      <trkpt lat="17.316796400" lon="-96.445422100">
        <ele>2046.000</ele>
        <time>2019-01-19T16:57:50Z</time>
        <name>WPT.4</name>
      </trkpt>
      <trkpt lat="17.316768500" lon="-96.445387940">
        <ele>2041.000</ele>
        <time>2019-01-19T16:58:01Z</time>
        <name>WPT.5</name>
      </trkpt>
      <trkpt lat="17.316746810" lon="-96.445356470">
        <ele>2039.000</ele>
        <time>2019-01-19T16:59:05Z</time>
        <name>WPT.6</name>
      </trkpt>
      <trkpt lat="17.316706900" lon="-96.445334500">
        <ele>2038.000</ele>
        <time>2019-01-19T16:59:18Z</time>
        <name>WPT.7</name>
      </trkpt>
      <trkpt lat="17.316670180" lon="-96.445320110">
        <ele>2035.000</ele>
        <time>2019-01-19T16:59:22Z</time>
        <name>WPT.8</name>
      </trkpt>
      <trkpt lat="17.316628150" lon="-96.445300710">
        <ele>2034.000</ele>
        <time>2019-01-19T16:59:36Z</time>
        <name>WPT.9</name>
      </trkpt>
      <trkpt lat="17.316604750" lon="-96.445267610">
        <ele>2034.000</ele>
        <time>2019-01-19T16:59:45Z</time>
        <name>WPT.10</name>
      </trkpt>
      <trkpt lat="17.316574360" lon="-96.445243360">
        <ele>2033.000</ele>
        <time>2019-01-19T16:59:50Z</time>
        <name>WPT.11</name>
      </trkpt>
      <trkpt lat="17.316554120" lon="-96.445210520">
        <ele>2030.000</ele>
        <time>2019-01-19T17:00:03Z</time>
        <name>WPT.12</name>
      </trkpt>
      <trkpt lat="17.316514760" lon="-96.445198350">
        <ele>2027.000</ele>
        <time>2019-01-19T17:00:17Z</time>
        <name>WPT.13</name>
      </trkpt>
      <trkpt lat="17.316478370" lon="-96.445177720">
        <ele>2026.000</ele>
        <time>2019-01-19T17:00:23Z</time>
        <name>WPT.14</name>
      </trkpt>
      <trkpt lat="17.316442860" lon="-96.445163280">
        <ele>2026.000</ele>
        <time>2019-01-19T17:00:30Z</time>
        <name>WPT.15</name>
      </trkpt>
      <trkpt lat="17.316409540" lon="-96.445140800">
        <ele>2031.000</ele>
        <time>2019-01-19T17:00:58Z</time>
        <name>WPT.16</name>
      </trkpt>
      <trkpt lat="17.316395210" lon="-96.445100300">
        <ele>2030.000</ele>
        <time>2019-01-19T17:01:12Z</time>
        <name>WPT.17</name>
      </trkpt>
      <trkpt lat="17.316405630" lon="-96.445061340">
        <ele>2031.000</ele>
        <time>2019-01-19T17:01:18Z</time>
        <name>WPT.18</name>
      </trkpt>
      <trkpt lat="17.316395220" lon="-96.445018160">
        <ele>2033.000</ele>
        <time>2019-01-19T17:01:30Z</time>
        <name>WPT.19</name>
      </trkpt>
      <trkpt lat="17.316385660" lon="-96.444976820">
        <ele>2032.000</ele>
        <time>2019-01-19T17:01:38Z</time>
        <name>WPT.20</name>
      </trkpt>
      <trkpt lat="17.316388860" lon="-96.444936230">
        <ele>2033.000</ele>
        <time>2019-01-19T17:01:47Z</time>
        <name>WPT.21</name>
      </trkpt>
      <trkpt lat="17.316370160" lon="-96.444891640">
        <ele>2038.000</ele>
        <time>2019-01-19T17:01:53Z</time>
        <name>WPT.22</name>
      </trkpt>
      <trkpt lat="17.316339230" lon="-96.444863570">
        <ele>2036.000</ele>
        <time>2019-01-19T17:01:58Z</time>
        <name>WPT.23</name>
      </trkpt>
      <trkpt lat="17.316312240" lon="-96.444835540">
        <ele>2036.000</ele>
        <time>2019-01-19T17:02:08Z</time>
        <name>WPT.24</name>
      </trkpt>
      <trkpt lat="17.316298170" lon="-96.444797750">
        <ele>2038.000</ele>
        <time>2019-01-19T17:02:15Z</time>
        <name>WPT.25</name>
      </trkpt>
      <trkpt lat="17.316272360" lon="-96.444769410">
        <ele>2039.000</ele>
        <time>2019-01-19T17:02:24Z</time>
        <name>WPT.26</name>
      </trkpt>
      <trkpt lat="17.316247670" lon="-96.444734810">
        <ele>2040.000</ele>
        <time>2019-01-19T17:02:30Z</time>
        <name>WPT.27</name>
      </trkpt>
      <trkpt lat="17.316220270" lon="-96.444707300">
        <ele>2039.000</ele>
        <time>2019-01-19T17:02:37Z</time>
        <name>WPT.28</name>
      </trkpt>
      <trkpt lat="17.316187420" lon="-96.444683420">
        <ele>2038.000</ele>
        <time>2019-01-19T17:02:48Z</time>
        <name>WPT.29</name>
      </trkpt>
      <trkpt lat="17.316188150" lon="-96.444645720">
        <ele>2041.000</ele>
        <time>2019-01-19T17:03:03Z</time>
        <name>WPT.30</name>
      </trkpt>
      <trkpt lat="17.316162890" lon="-96.444614210">
        <ele>2043.000</ele>
        <time>2019-01-19T17:03:07Z</time>
        <name>WPT.31</name>
      </trkpt>
      <trkpt lat="17.316143690" lon="-96.444580640">
        <ele>2046.000</ele>
        <time>2019-01-19T17:03:13Z</time>
        <name>WPT.32</name>
      </trkpt>
      <trkpt lat="17.316112270" lon="-96.444554320">
        <ele>2046.000</ele>
        <time>2019-01-19T17:03:18Z</time>
        <name>WPT.33</name>
      </trkpt>
      <trkpt lat="17.316091010" lon="-96.444523680">
        <ele>2048.000</ele>
        <time>2019-01-19T17:03:49Z</time>
        <name>WPT.34</name>
      </trkpt>
      <trkpt lat="17.316057040" lon="-96.444508800">
        <ele>2047.000</ele>
        <time>2019-01-19T17:04:02Z</time>
        <name>WPT.35</name>
      </trkpt>
      <trkpt lat="17.316023280" lon="-96.444488490">
        <ele>2047.000</ele>
        <time>2019-01-19T17:04:07Z</time>
        <name>WPT.36</name>
      </trkpt>
      <trkpt lat="17.315997490" lon="-96.444456170">
        <ele>2046.000</ele>
        <time>2019-01-19T17:04:11Z</time>
        <name>WPT.37</name>
      </trkpt>
      <trkpt lat="17.315969220" lon="-96.444425660">
        <ele>2048.000</ele>
        <time>2019-01-19T17:04:20Z</time>
        <name>WPT.38</name>
      </trkpt>
      <trkpt lat="17.315971840" lon="-96.444380720">
        <ele>2055.000</ele>
        <time>2019-01-19T17:05:03Z</time>
        <name>WPT.39</name>
      </trkpt>
      <trkpt lat="17.315994660" lon="-96.444350270">
        <ele>2056.000</ele>
        <time>2019-01-19T17:05:07Z</time>
        <name>WPT.40</name>
      </trkpt>
      <trkpt lat="17.315998610" lon="-96.444308740">
        <ele>2059.000</ele>
        <time>2019-01-19T17:05:20Z</time>
        <name>WPT.41</name>
      </trkpt>
      <trkpt lat="17.316035620" lon="-96.444289070">
        <ele>2061.000</ele>
        <time>2019-01-19T17:05:25Z</time>
        <name>WPT.42</name>
      </trkpt>
      <trkpt lat="17.316042220" lon="-96.444251940">
        <ele>2059.000</ele>
        <time>2019-01-19T17:06:05Z</time>
        <name>WPT.43</name>
      </trkpt>
      <trkpt lat="17.316058270" lon="-96.444215970">
        <ele>2060.000</ele>
        <time>2019-01-19T17:06:10Z</time>
        <name>WPT.44</name>
      </trkpt>
      <trkpt lat="17.316086510" lon="-96.444177410">
        <ele>2062.000</ele>
        <time>2019-01-19T17:06:13Z</time>
        <name>WPT.45</name>
      </trkpt>
      <trkpt lat="17.316099290" lon="-96.444137390">
        <ele>2063.000</ele>
        <time>2019-01-19T17:06:17Z</time>
        <name>WPT.46</name>
      </trkpt>
      <trkpt lat="17.316102930" lon="-96.444097050">
        <ele>2060.000</ele>
        <time>2019-01-19T17:06:26Z</time>
        <name>WPT.47</name>
      </trkpt>
      <trkpt lat="17.316076340" lon="-96.444057530">
        <ele>2057.000</ele>
        <time>2019-01-19T17:06:47Z</time>
        <name>WPT.48</name>
      </trkpt>
      <trkpt lat="17.316076940" lon="-96.444019650">
        <ele>2058.000</ele>
        <time>2019-01-19T17:06:54Z</time>
        <name>WPT.49</name>
      </trkpt>
      <trkpt lat="17.316115500" lon="-96.444003030">
        <ele>2061.000</ele>
        <time>2019-01-19T17:07:03Z</time>
        <name>WPT.50</name>
      </trkpt>
      <trkpt lat="17.316146300" lon="-96.443982830">
        <ele>2062.000</ele>
        <time>2019-01-19T17:07:11Z</time>
        <name>WPT.51</name>
      </trkpt>
      <trkpt lat="17.316158990" lon="-96.443932240">
        <ele>2062.000</ele>
        <time>2019-01-19T17:08:09Z</time>
        <name>WPT.52</name>
      </trkpt>
      <trkpt lat="17.316197970" lon="-96.443921910">
        <ele>2063.000</ele>
        <time>2019-01-19T17:08:14Z</time>
        <name>WPT.53</name>
      </trkpt>
      <trkpt lat="17.316235770" lon="-96.443909960">
        <ele>2064.000</ele>
        <time>2019-01-19T17:08:19Z</time>
        <name>WPT.54</name>
      </trkpt>
      <trkpt lat="17.316269320" lon="-96.443889990">
        <ele>2064.000</ele>
        <time>2019-01-19T17:08:25Z</time>
        <name>WPT.55</name>
      </trkpt>
      <trkpt lat="17.316297640" lon="-96.443847630">
        <ele>2065.000</ele>
        <time>2019-01-19T17:08:34Z</time>
        <name>WPT.56</name>
      </trkpt>
      <trkpt lat="17.316280880" lon="-96.443813490">
        <ele>2063.000</ele>
        <time>2019-01-19T17:08:44Z</time>
        <name>WPT.57</name>
      </trkpt>
      <trkpt lat="17.316318440" lon="-96.443785750">
        <ele>2064.000</ele>
        <time>2019-01-19T17:08:55Z</time>
        <name>WPT.58</name>
      </trkpt>
      <trkpt lat="17.316366660" lon="-96.443747970">
        <ele>2065.000</ele>
        <time>2019-01-19T17:09:04Z</time>
        <name>WPT.59</name>
      </trkpt>
      <trkpt lat="17.316401510" lon="-96.443735480">
        <ele>2067.000</ele>
        <time>2019-01-19T17:09:11Z</time>
        <name>WPT.60</name>
      </trkpt>
      <trkpt lat="17.316444820" lon="-96.443725030">
        <ele>2071.000</ele>
        <time>2019-01-19T17:09:29Z</time>
        <name>WPT.61</name>
      </trkpt>
      <trkpt lat="17.316472760" lon="-96.443699040">
        <ele>2070.000</ele>
        <time>2019-01-19T17:09:35Z</time>
        <name>WPT.62</name>
      </trkpt>
      <trkpt lat="17.316504930" lon="-96.443671710">
        <ele>2071.000</ele>
        <time>2019-01-19T17:09:40Z</time>
        <name>WPT.63</name>
      </trkpt>
      <trkpt lat="17.316540690" lon="-96.443657930">
        <ele>2070.000</ele>
        <time>2019-01-19T17:09:45Z</time>
        <name>WPT.64</name>
      </trkpt>
      <trkpt lat="17.316572310" lon="-96.443636500">
        <ele>2070.000</ele>
        <time>2019-01-19T17:09:48Z</time>
        <name>WPT.65</name>
      </trkpt>
      <trkpt lat="17.316593440" lon="-96.443603390">
        <ele>2069.000</ele>
        <time>2019-01-19T17:09:53Z</time>
        <name>WPT.66</name>
      </trkpt>
      <trkpt lat="17.316621370" lon="-96.443570130">
        <ele>2070.000</ele>
        <time>2019-01-19T17:09:58Z</time>
        <name>WPT.67</name>
      </trkpt>
      <trkpt lat="17.316653970" lon="-96.443551760">
        <ele>2071.000</ele>
        <time>2019-01-19T17:10:04Z</time>
        <name>WPT.68</name>
      </trkpt>
      <trkpt lat="17.316630880" lon="-96.443506500">
        <ele>2067.000</ele>
        <time>2019-01-19T17:10:15Z</time>
        <name>WPT.69</name>
      </trkpt>
      <trkpt lat="17.316594970" lon="-96.443497980">
        <ele>2067.000</ele>
        <time>2019-01-19T17:11:26Z</time>
        <name>WPT.70</name>
      </trkpt>
      <trkpt lat="17.316556750" lon="-96.443498440">
        <ele>2066.000</ele>
        <time>2019-01-19T17:11:35Z</time>
        <name>WPT.71</name>
      </trkpt>
      <trkpt lat="17.316522190" lon="-96.443485950">
        <ele>2068.000</ele>
        <time>2019-01-19T17:11:45Z</time>
        <name>WPT.72</name>
      </trkpt>
      <trkpt lat="17.316526890" lon="-96.443523480">
        <ele>2066.000</ele>
        <time>2019-01-19T17:12:16Z</time>
        <name>WPT.73</name>
      </trkpt>
      <trkpt lat="17.316562180" lon="-96.443511040">
        <ele>2065.000</ele>
        <time>2019-01-19T17:12:33Z</time>
        <name>WPT.74</name>
      </trkpt>
      <trkpt lat="17.316608490" lon="-96.443515500">
        <ele>2073.000</ele>
        <time>2019-01-19T17:13:22Z</time>
        <name>WPT.75</name>
      </trkpt>
      <trkpt lat="17.316649410" lon="-96.443508970">
        <ele>2071.000</ele>
        <time>2019-01-19T17:13:28Z</time>
        <name>WPT.76</name>
      </trkpt>
      <trkpt lat="17.316682530" lon="-96.443488490">
        <ele>2071.000</ele>
        <time>2019-01-19T17:13:32Z</time>
        <name>WPT.77</name>
      </trkpt>
      <trkpt lat="17.316714990" lon="-96.443459790">
        <ele>2072.000</ele>
        <time>2019-01-19T17:13:38Z</time>
        <name>WPT.78</name>
      </trkpt>
      <trkpt lat="17.316739130" lon="-96.443420090">
        <ele>2071.000</ele>
        <time>2019-01-19T17:13:44Z</time>
        <name>WPT.79</name>
      </trkpt>
      <trkpt lat="17.316771910" lon="-96.443401980">
        <ele>2071.000</ele>
        <time>2019-01-19T17:14:07Z</time>
        <name>WPT.80</name>
      </trkpt>
      <trkpt lat="17.316800220" lon="-96.443377550">
        <ele>2071.000</ele>
        <time>2019-01-19T17:14:16Z</time>
        <name>WPT.81</name>
      </trkpt>
      <trkpt lat="17.316787860" lon="-96.443334780">
        <ele>2069.000</ele>
        <time>2019-01-19T17:14:43Z</time>
        <name>WPT.82</name>
      </trkpt>
      <trkpt lat="17.316816260" lon="-96.443304920">
        <ele>2069.000</ele>
        <time>2019-01-19T17:15:16Z</time>
        <name>WPT.83</name>
      </trkpt>
      <trkpt lat="17.316817110" lon="-96.443263910">
        <ele>2068.000</ele>
        <time>2019-01-19T17:15:20Z</time>
        <name>WPT.84</name>
      </trkpt>
      <trkpt lat="17.316822870" lon="-96.443223730">
        <ele>2067.000</ele>
        <time>2019-01-19T17:15:27Z</time>
        <name>WPT.85</name>
      </trkpt>
      <trkpt lat="17.316824490" lon="-96.443185180">
        <ele>2068.000</ele>
        <time>2019-01-19T17:15:35Z</time>
        <name>WPT.86</name>
      </trkpt>
      <trkpt lat="17.316839590" lon="-96.443146140">
        <ele>2067.000</ele>
        <time>2019-01-19T17:15:54Z</time>
        <name>WPT.87</name>
      </trkpt>
      <trkpt lat="17.316872620" lon="-96.443120580">
        <ele>2069.000</ele>
        <time>2019-01-19T17:16:00Z</time>
        <name>WPT.88</name>
      </trkpt>
      <trkpt lat="17.316881060" lon="-96.443158060">
        <ele>2070.000</ele>
        <time>2019-01-19T17:17:01Z</time>
        <name>WPT.89</name>
      </trkpt>
      <trkpt lat="17.316917930" lon="-96.443159940">
        <ele>2073.000</ele>
        <time>2019-01-19T17:17:11Z</time>
        <name>WPT.90</name>
      </trkpt>
      <trkpt lat="17.316937620" lon="-96.443195810">
        <ele>2073.000</ele>
        <time>2019-01-19T17:17:16Z</time>
        <name>WPT.91</name>
      </trkpt>
      <trkpt lat="17.316975100" lon="-96.443191020">
        <ele>2072.000</ele>
        <time>2019-01-19T17:17:18Z</time>
        <name>WPT.92</name>
      </trkpt>
      <trkpt lat="17.317014460" lon="-96.443202010">
        <ele>2073.000</ele>
        <time>2019-01-19T17:17:22Z</time>
        <name>WPT.93</name>
      </trkpt>
      <trkpt lat="17.317056100" lon="-96.443196570">
        <ele>2072.000</ele>
        <time>2019-01-19T17:17:31Z</time>
        <name>WPT.94</name>
      </trkpt>
      <trkpt lat="17.317090590" lon="-96.443215510">
        <ele>2072.000</ele>
        <time>2019-01-19T17:18:02Z</time>
        <name>WPT.95</name>
      </trkpt>
      <trkpt lat="17.317127810" lon="-96.443230190">
        <ele>2073.000</ele>
        <time>2019-01-19T17:18:13Z</time>
        <name>WPT.96</name>
      </trkpt>
      <trkpt lat="17.317159880" lon="-96.443255130">
        <ele>2077.000</ele>
        <time>2019-01-19T17:18:18Z</time>
        <name>WPT.97</name>
      </trkpt>
      <trkpt lat="17.317207630" lon="-96.443246510">
        <ele>2076.000</ele>
        <time>2019-01-19T17:18:21Z</time>
        <name>WPT.98</name>
      </trkpt>
      <trkpt lat="17.317241050" lon="-96.443226820">
        <ele>2077.000</ele>
        <time>2019-01-19T17:18:26Z</time>
        <name>WPT.99</name>
      </trkpt>
      <trkpt lat="17.317276130" lon="-96.443209460">
        <ele>2077.000</ele>
        <time>2019-01-19T17:18:32Z</time>
        <name>WPT.100</name>
      </trkpt>
      <trkpt lat="17.317315010" lon="-96.443201840">
        <ele>2079.000</ele>
        <time>2019-01-19T17:18:41Z</time>
        <name>WPT.101</name>
      </trkpt>
      <trkpt lat="17.317353490" lon="-96.443170250">
        <ele>2080.000</ele>
        <time>2019-01-19T17:18:45Z</time>
        <name>WPT.102</name>
      </trkpt>
      <trkpt lat="17.317369350" lon="-96.443132140">
        <ele>2079.000</ele>
        <time>2019-01-19T17:18:51Z</time>
        <name>WPT.103</name>
      </trkpt>
      <trkpt lat="17.317407040" lon="-96.443136010">
        <ele>2080.000</ele>
        <time>2019-01-19T17:19:00Z</time>
        <name>WPT.104</name>
      </trkpt>
      <trkpt lat="17.317437870" lon="-96.443113040">
        <ele>2082.000</ele>
        <time>2019-01-19T17:19:19Z</time>
        <name>WPT.105</name>
      </trkpt>
      <trkpt lat="17.317466800" lon="-96.443079280">
        <ele>2084.000</ele>
        <time>2019-01-19T17:19:26Z</time>
        <name>WPT.106</name>
      </trkpt>
      <trkpt lat="17.317505300" lon="-96.443063930">
        <ele>2083.000</ele>
        <time>2019-01-19T17:19:31Z</time>
        <name>WPT.107</name>
      </trkpt>
      <trkpt lat="17.317540300" lon="-96.443050780">
        <ele>2084.000</ele>
        <time>2019-01-19T17:19:39Z</time>
        <name>WPT.108</name>
      </trkpt>
      <trkpt lat="17.317580790" lon="-96.443044260">
        <ele>2083.000</ele>
        <time>2019-01-19T17:19:46Z</time>
        <name>WPT.109</name>
      </trkpt>
      <trkpt lat="17.317623790" lon="-96.443036930">
        <ele>2082.000</ele>
        <time>2019-01-19T17:19:50Z</time>
        <name>WPT.110</name>
      </trkpt>
      <trkpt lat="17.317669970" lon="-96.443030450">
        <ele>2085.000</ele>
        <time>2019-01-19T17:19:55Z</time>
        <name>WPT.111</name>
      </trkpt>
      <trkpt lat="17.317710060" lon="-96.443034030">
        <ele>2085.000</ele>
        <time>2019-01-19T17:20:09Z</time>
        <name>WPT.112</name>
      </trkpt>
      <trkpt lat="17.317756210" lon="-96.443012210">
        <ele>2084.000</ele>
        <time>2019-01-19T17:20:15Z</time>
        <name>WPT.113</name>
      </trkpt>
      <trkpt lat="17.317765320" lon="-96.442969920">
        <ele>2084.000</ele>
        <time>2019-01-19T17:20:39Z</time>
        <name>WPT.114</name>
      </trkpt>
      <trkpt lat="17.317810070" lon="-96.442941800">
        <ele>2084.000</ele>
        <time>2019-01-19T17:20:45Z</time>
        <name>WPT.115</name>
      </trkpt>
      <trkpt lat="17.317844800" lon="-96.442922610">
        <ele>2084.000</ele>
        <time>2019-01-19T17:20:48Z</time>
        <name>WPT.116</name>
      </trkpt>
      <trkpt lat="17.317884320" lon="-96.442894660">
        <ele>2084.000</ele>
        <time>2019-01-19T17:20:52Z</time>
        <name>WPT.117</name>
      </trkpt>
      <trkpt lat="17.317917430" lon="-96.442878620">
        <ele>2084.000</ele>
        <time>2019-01-19T17:20:57Z</time>
        <name>WPT.118</name>
      </trkpt>
      <trkpt lat="17.317923100" lon="-96.442841110">
        <ele>2081.000</ele>
        <time>2019-01-19T17:21:11Z</time>
        <name>WPT.119</name>
      </trkpt>
      <trkpt lat="17.317963420" lon="-96.442821910">
        <ele>2082.000</ele>
        <time>2019-01-19T17:21:56Z</time>
        <name>WPT.120</name>
      </trkpt>
      <trkpt lat="17.317999560" lon="-96.442828110">
        <ele>2081.000</ele>
        <time>2019-01-19T17:22:05Z</time>
        <name>WPT.121</name>
      </trkpt>
      <trkpt lat="17.318049800" lon="-96.442829800">
        <ele>2081.000</ele>
        <time>2019-01-19T17:22:27Z</time>
        <name>WPT.122</name>
      </trkpt>
      <trkpt lat="17.318079480" lon="-96.442805930">
        <ele>2080.000</ele>
        <time>2019-01-19T17:22:31Z</time>
        <name>WPT.123</name>
      </trkpt>
      <trkpt lat="17.318104170" lon="-96.442770490">
        <ele>2080.000</ele>
        <time>2019-01-19T17:22:35Z</time>
        <name>WPT.124</name>
      </trkpt>
      <trkpt lat="17.318138190" lon="-96.442756810">
        <ele>2078.000</ele>
        <time>2019-01-19T17:22:45Z</time>
        <name>WPT.125</name>
      </trkpt>
      <trkpt lat="17.318169380" lon="-96.442736980">
        <ele>2078.000</ele>
        <time>2019-01-19T17:22:56Z</time>
        <name>WPT.126</name>
      </trkpt>
      <trkpt lat="17.318211330" lon="-96.442724220">
        <ele>2079.000</ele>
        <time>2019-01-19T17:23:01Z</time>
        <name>WPT.127</name>
      </trkpt>
      <trkpt lat="17.318253350" lon="-96.442719370">
        <ele>2082.000</ele>
        <time>2019-01-19T17:23:06Z</time>
        <name>WPT.128</name>
      </trkpt>
      <trkpt lat="17.318285900" lon="-96.442698300">
        <ele>2081.000</ele>
        <time>2019-01-19T17:23:15Z</time>
        <name>WPT.129</name>
      </trkpt>
      <trkpt lat="17.318327060" lon="-96.442693980">
        <ele>2082.000</ele>
        <time>2019-01-19T17:24:04Z</time>
        <name>WPT.130</name>
      </trkpt>
      <trkpt lat="17.318355520" lon="-96.442661700">
        <ele>2078.000</ele>
        <time>2019-01-19T17:24:10Z</time>
        <name>WPT.131</name>
      </trkpt>
      <trkpt lat="17.318392120" lon="-96.442650180">
        <ele>2078.000</ele>
        <time>2019-01-19T17:24:16Z</time>
        <name>WPT.132</name>
      </trkpt>
      <trkpt lat="17.318424200" lon="-96.442627620">
        <ele>2079.000</ele>
        <time>2019-01-19T17:24:20Z</time>
        <name>WPT.133</name>
      </trkpt>
      <trkpt lat="17.318446800" lon="-96.442596140">
        <ele>2077.000</ele>
        <time>2019-01-19T17:24:25Z</time>
        <name>WPT.134</name>
      </trkpt>
      <trkpt lat="17.318488520" lon="-96.442574480">
        <ele>2077.000</ele>
        <time>2019-01-19T17:24:30Z</time>
        <name>WPT.135</name>
      </trkpt>
      <trkpt lat="17.318527160" lon="-96.442568230">
        <ele>2078.000</ele>
        <time>2019-01-19T17:24:39Z</time>
        <name>WPT.136</name>
      </trkpt>
      <trkpt lat="17.318549890" lon="-96.442533750">
        <ele>2079.000</ele>
        <time>2019-01-19T17:24:45Z</time>
        <name>WPT.137</name>
      </trkpt>
      <trkpt lat="17.318580210" lon="-96.442513040">
        <ele>2079.000</ele>
        <time>2019-01-19T17:24:50Z</time>
        <name>WPT.138</name>
      </trkpt>
      <trkpt lat="17.318617640" lon="-96.442499880">
        <ele>2081.000</ele>
        <time>2019-01-19T17:25:01Z</time>
        <name>WPT.139</name>
      </trkpt>
      <trkpt lat="17.318660650" lon="-96.442496130">
        <ele>2083.000</ele>
        <time>2019-01-19T17:25:11Z</time>
        <name>WPT.140</name>
      </trkpt>
      <trkpt lat="17.318705070" lon="-96.442478900">
        <ele>2083.000</ele>
        <time>2019-01-19T17:25:14Z</time>
        <name>WPT.141</name>
      </trkpt>
      <trkpt lat="17.318736580" lon="-96.442456290">
        <ele>2082.000</ele>
        <time>2019-01-19T17:25:21Z</time>
        <name>WPT.142</name>
      </trkpt>
      <trkpt lat="17.318776540" lon="-96.442451080">
        <ele>2082.000</ele>
        <time>2019-01-19T17:25:31Z</time>
        <name>WPT.143</name>
      </trkpt>
      <trkpt lat="17.318822860" lon="-96.442447620">
        <ele>2082.000</ele>
        <time>2019-01-19T17:25:37Z</time>
        <name>WPT.144</name>
      </trkpt>
      <trkpt lat="17.318859690" lon="-96.442430800">
        <ele>2083.000</ele>
        <time>2019-01-19T17:25:44Z</time>
        <name>WPT.145</name>
      </trkpt>
      <trkpt lat="17.318896490" lon="-96.442419730">
        <ele>2082.000</ele>
        <time>2019-01-19T17:25:47Z</time>
        <name>WPT.146</name>
      </trkpt>
      <trkpt lat="17.318931640" lon="-96.442404850">
        <ele>2081.000</ele>
        <time>2019-01-19T17:25:50Z</time>
        <name>WPT.147</name>
      </trkpt>
      <trkpt lat="17.318971120" lon="-96.442415900">
        <ele>2082.000</ele>
        <time>2019-01-19T17:25:56Z</time>
        <name>WPT.148</name>
      </trkpt>
      <trkpt lat="17.318998330" lon="-96.442381750">
        <ele>2081.000</ele>
        <time>2019-01-19T17:26:00Z</time>
        <name>WPT.149</name>
      </trkpt>
      <trkpt lat="17.319027000" lon="-96.442344170">
        <ele>2081.000</ele>
        <time>2019-01-19T17:26:05Z</time>
        <name>WPT.150</name>
      </trkpt>
      <trkpt lat="17.319060870" lon="-96.442326640">
        <ele>2082.000</ele>
        <time>2019-01-19T17:26:09Z</time>
        <name>WPT.151</name>
      </trkpt>
      <trkpt lat="17.319098970" lon="-96.442337550">
        <ele>2084.000</ele>
        <time>2019-01-19T17:26:12Z</time>
        <name>WPT.152</name>
      </trkpt>
      <trkpt lat="17.319057330" lon="-96.442336290">
        <ele>2085.000</ele>
        <time>2019-01-19T17:27:21Z</time>
        <name>WPT.153</name>
      </trkpt>
      <trkpt lat="17.319061490" lon="-96.442377400">
        <ele>2086.000</ele>
        <time>2019-01-19T17:27:27Z</time>
        <name>WPT.154</name>
      </trkpt>
      <trkpt lat="17.319037670" lon="-96.442407650">
        <ele>2091.000</ele>
        <time>2019-01-19T17:28:17Z</time>
        <name>WPT.155</name>
      </trkpt>
      <trkpt lat="17.319043730" lon="-96.442452980">
        <ele>2092.000</ele>
        <time>2019-01-19T17:28:23Z</time>
        <name>WPT.156</name>
      </trkpt>
      <trkpt lat="17.319072090" lon="-96.442478460">
        <ele>2090.000</ele>
        <time>2019-01-19T17:28:27Z</time>
        <name>WPT.157</name>
      </trkpt>
      <trkpt lat="17.319115480" lon="-96.442480610">
        <ele>2086.000</ele>
        <time>2019-01-19T17:28:33Z</time>
        <name>WPT.158</name>
      </trkpt>
      <trkpt lat="17.319156660" lon="-96.442479550">
        <ele>2089.000</ele>
        <time>2019-01-19T17:28:40Z</time>
        <name>WPT.159</name>
      </trkpt>
      <trkpt lat="17.319190900" lon="-96.442465430">
        <ele>2090.000</ele>
        <time>2019-01-19T17:28:48Z</time>
        <name>WPT.160</name>
      </trkpt>
      <trkpt lat="17.319206580" lon="-96.442430920">
        <ele>2091.000</ele>
        <time>2019-01-19T17:28:51Z</time>
        <name>WPT.161</name>
      </trkpt>
      <trkpt lat="17.319248510" lon="-96.442422840">
        <ele>2092.000</ele>
        <time>2019-01-19T17:28:59Z</time>
        <name>WPT.162</name>
      </trkpt>
      <trkpt lat="17.319287960" lon="-96.442409480">
        <ele>2090.000</ele>
        <time>2019-01-19T17:29:03Z</time>
        <name>WPT.163</name>
      </trkpt>
      <trkpt lat="17.319323840" lon="-96.442396110">
        <ele>2089.000</ele>
        <time>2019-01-19T17:29:07Z</time>
        <name>WPT.164</name>
      </trkpt>
      <trkpt lat="17.319364550" lon="-96.442375340">
        <ele>2093.000</ele>
        <time>2019-01-19T17:29:23Z</time>
        <name>WPT.165</name>
      </trkpt>
      <trkpt lat="17.319387360" lon="-96.442344620">
        <ele>2103.000</ele>
        <time>2019-01-19T17:30:35Z</time>
        <name>WPT.166</name>
      </trkpt>
      <trkpt lat="17.319423140" lon="-96.442367140">
        <ele>2102.000</ele>
        <time>2019-01-19T17:30:37Z</time>
        <name>WPT.167</name>
      </trkpt>
      <trkpt lat="17.319459770" lon="-96.442394640">
        <ele>2102.000</ele>
        <time>2019-01-19T17:31:14Z</time>
        <name>WPT.168</name>
      </trkpt>
      <trkpt lat="17.319481300" lon="-96.442427150">
        <ele>2103.000</ele>
        <time>2019-01-19T17:31:20Z</time>
        <name>WPT.169</name>
      </trkpt>
      <trkpt lat="17.319520500" lon="-96.442435660">
        <ele>2099.000</ele>
        <time>2019-01-19T17:31:30Z</time>
        <name>WPT.170</name>
      </trkpt>
      <trkpt lat="17.319554760" lon="-96.442453260">
        <ele>2102.000</ele>
        <time>2019-01-19T17:31:38Z</time>
        <name>WPT.171</name>
      </trkpt>
      <trkpt lat="17.319586050" lon="-96.442473580">
        <ele>2106.000</ele>
        <time>2019-01-19T17:31:46Z</time>
        <name>WPT.172</name>
      </trkpt>
      <trkpt lat="17.319616520" lon="-96.442504320">
        <ele>2111.000</ele>
        <time>2019-01-19T17:31:57Z</time>
        <name>WPT.173</name>
      </trkpt>
      <trkpt lat="17.319655910" lon="-96.442519520">
        <ele>2111.000</ele>
        <time>2019-01-19T17:32:02Z</time>
        <name>WPT.174</name>
      </trkpt>
      <trkpt lat="17.319694100" lon="-96.442532640">
        <ele>2113.000</ele>
        <time>2019-01-19T17:32:30Z</time>
        <name>WPT.175</name>
      </trkpt>
      <trkpt lat="17.319729560" lon="-96.442555030">
        <ele>2113.000</ele>
        <time>2019-01-19T17:32:33Z</time>
        <name>WPT.176</name>
      </trkpt>
      <trkpt lat="17.319763870" lon="-96.442574100">
        <ele>2110.000</ele>
        <time>2019-01-19T17:32:38Z</time>
        <name>WPT.177</name>
      </trkpt>
      <trkpt lat="17.319799600" lon="-96.442567810">
        <ele>2105.000</ele>
        <time>2019-01-19T17:35:32Z</time>
        <name>WPT.178</name>
      </trkpt>
      <trkpt lat="17.319836340" lon="-96.442577800">
        <ele>2103.000</ele>
        <time>2019-01-19T17:35:50Z</time>
        <name>WPT.179</name>
      </trkpt>
      <trkpt lat="17.319876050" lon="-96.442580570">
        <ele>2105.000</ele>
        <time>2019-01-19T17:35:55Z</time>
        <name>WPT.180</name>
      </trkpt>
      <trkpt lat="17.319912200" lon="-96.442586850">
        <ele>2105.000</ele>
        <time>2019-01-19T17:36:00Z</time>
        <name>WPT.181</name>
      </trkpt>
      <trkpt lat="17.319937620" lon="-96.442616220">
        <ele>2106.000</ele>
        <time>2019-01-19T17:36:29Z</time>
        <name>WPT.182</name>
      </trkpt>
      <trkpt lat="17.319975370" lon="-96.442624060">
        <ele>2109.000</ele>
        <time>2019-01-19T17:36:36Z</time>
        <name>WPT.183</name>
      </trkpt>
      <trkpt lat="17.320004270" lon="-96.442647470">
        <ele>2110.000</ele>
        <time>2019-01-19T17:36:42Z</time>
        <name>WPT.184</name>
      </trkpt>
      <trkpt lat="17.320025680" lon="-96.442687430">
        <ele>2115.000</ele>
        <time>2019-01-19T17:36:48Z</time>
        <name>WPT.185</name>
      </trkpt>
      <trkpt lat="17.320034000" lon="-96.442725200">
        <ele>2119.000</ele>
        <time>2019-01-19T17:36:54Z</time>
        <name>WPT.186</name>
      </trkpt>
      <trkpt lat="17.320044110" lon="-96.442764840">
        <ele>2123.000</ele>
        <time>2019-01-19T17:37:01Z</time>
        <name>WPT.187</name>
      </trkpt>
      <trkpt lat="17.320063960" lon="-96.442799980">
        <ele>2125.000</ele>
        <time>2019-01-19T17:37:05Z</time>
        <name>WPT.188</name>
      </trkpt>
      <trkpt lat="17.320101380" lon="-96.442814840">
        <ele>2128.000</ele>
        <time>2019-01-19T17:37:11Z</time>
        <name>WPT.189</name>
      </trkpt>
      <trkpt lat="17.320134940" lon="-96.442835370">
        <ele>2130.000</ele>
        <time>2019-01-19T17:37:19Z</time>
        <name>WPT.190</name>
      </trkpt>
      <trkpt lat="17.320170970" lon="-96.442844290">
        <ele>2129.000</ele>
        <time>2019-01-19T17:37:23Z</time>
        <name>WPT.191</name>
      </trkpt>
      <trkpt lat="17.320192150" lon="-96.442876570">
        <ele>2132.000</ele>
        <time>2019-01-19T17:37:30Z</time>
        <name>WPT.192</name>
      </trkpt>
      <trkpt lat="17.320228640" lon="-96.442886170">
        <ele>2131.000</ele>
        <time>2019-01-19T17:37:38Z</time>
        <name>WPT.193</name>
      </trkpt>
      <trkpt lat="17.320264780" lon="-96.442880690">
        <ele>2129.000</ele>
        <time>2019-01-19T17:37:45Z</time>
        <name>WPT.194</name>
      </trkpt>
      <trkpt lat="17.320349880" lon="-96.442899410">
        <ele>2125.000</ele>
        <time>2019-01-19T17:37:51Z</time>
        <name>WPT.195</name>
      </trkpt>
      <trkpt lat="17.320390560" lon="-96.442907950">
        <ele>2124.000</ele>
        <time>2019-01-19T17:37:59Z</time>
        <name>WPT.196</name>
      </trkpt>
      <trkpt lat="17.320432320" lon="-96.442895100">
        <ele>2126.000</ele>
        <time>2019-01-19T17:38:04Z</time>
        <name>WPT.197</name>
      </trkpt>
      <trkpt lat="17.320471350" lon="-96.442885750">
        <ele>2122.000</ele>
        <time>2019-01-19T17:38:06Z</time>
        <name>WPT.198</name>
      </trkpt>
      <trkpt lat="17.320508440" lon="-96.442881660">
        <ele>2117.000</ele>
        <time>2019-01-19T17:38:09Z</time>
        <name>WPT.199</name>
      </trkpt>
      <trkpt lat="17.320545580" lon="-96.442883860">
        <ele>2126.000</ele>
        <time>2019-01-19T17:38:50Z</time>
        <name>WPT.200</name>
      </trkpt>
      <trkpt lat="17.320590130" lon="-96.442879390">
        <ele>2128.000</ele>
        <time>2019-01-19T17:38:55Z</time>
        <name>WPT.201</name>
      </trkpt>
      <trkpt lat="17.320628650" lon="-96.442879320">
        <ele>2128.000</ele>
        <time>2019-01-19T17:39:01Z</time>
        <name>WPT.202</name>
      </trkpt>
      <trkpt lat="17.320671340" lon="-96.442879240">
        <ele>2127.000</ele>
        <time>2019-01-19T17:39:07Z</time>
        <name>WPT.203</name>
      </trkpt>
      <trkpt lat="17.320709100" lon="-96.442884910">
        <ele>2126.000</ele>
        <time>2019-01-19T17:39:10Z</time>
        <name>WPT.204</name>
      </trkpt>
      <trkpt lat="17.320743220" lon="-96.442911510">
        <ele>2128.000</ele>
        <time>2019-01-19T17:39:16Z</time>
        <name>WPT.205</name>
      </trkpt>
      <trkpt lat="17.320784980" lon="-96.442927250">
        <ele>2129.000</ele>
        <time>2019-01-19T17:39:42Z</time>
        <name>WPT.206</name>
      </trkpt>
      <trkpt lat="17.320826670" lon="-96.442918540">
        <ele>2125.000</ele>
        <time>2019-01-19T17:39:46Z</time>
        <name>WPT.207</name>
      </trkpt>
      <trkpt lat="17.320866120" lon="-96.442922230">
        <ele>2122.000</ele>
        <time>2019-01-19T17:39:59Z</time>
        <name>WPT.208</name>
      </trkpt>
      <trkpt lat="17.320903080" lon="-96.442929430">
        <ele>2124.000</ele>
        <time>2019-01-19T17:40:05Z</time>
        <name>WPT.209</name>
      </trkpt>
      <trkpt lat="17.320941990" lon="-96.442926650">
        <ele>2124.000</ele>
        <time>2019-01-19T17:40:20Z</time>
        <name>WPT.210</name>
      </trkpt>
      <trkpt lat="17.320975000" lon="-96.442911080">
        <ele>2122.000</ele>
        <time>2019-01-19T17:40:29Z</time>
        <name>WPT.211</name>
      </trkpt>
      <trkpt lat="17.321008730" lon="-96.442894100">
        <ele>2121.000</ele>
        <time>2019-01-19T17:40:34Z</time>
        <name>WPT.212</name>
      </trkpt>
      <trkpt lat="17.321044670" lon="-96.442899690">
        <ele>2122.000</ele>
        <time>2019-01-19T17:40:37Z</time>
        <name>WPT.213</name>
      </trkpt>
      <trkpt lat="17.321082050" lon="-96.442894220">
        <ele>2121.000</ele>
        <time>2019-01-19T17:40:41Z</time>
        <name>WPT.214</name>
      </trkpt>
      <trkpt lat="17.321112930" lon="-96.442871810">
        <ele>2120.000</ele>
        <time>2019-01-19T17:40:53Z</time>
        <name>WPT.215</name>
      </trkpt>
      <trkpt lat="17.321132670" lon="-96.442838570">
        <ele>2121.000</ele>
        <time>2019-01-19T17:41:14Z</time>
        <name>WPT.216</name>
      </trkpt>
      <trkpt lat="17.321172520" lon="-96.442843300">
        <ele>2122.000</ele>
        <time>2019-01-19T17:41:18Z</time>
        <name>WPT.217</name>
      </trkpt>
      <trkpt lat="17.321203630" lon="-96.442863600">
        <ele>2124.000</ele>
        <time>2019-01-19T17:41:27Z</time>
        <name>WPT.218</name>
      </trkpt>
      <trkpt lat="17.321243510" lon="-96.442874860">
        <ele>2125.000</ele>
        <time>2019-01-19T17:41:40Z</time>
        <name>WPT.219</name>
      </trkpt>
      <trkpt lat="17.321273860" lon="-96.442853600">
        <ele>2125.000</ele>
        <time>2019-01-19T17:41:45Z</time>
        <name>WPT.220</name>
      </trkpt>
      <trkpt lat="17.321275470" lon="-96.442812650">
        <ele>2121.000</ele>
        <time>2019-01-19T17:42:07Z</time>
        <name>WPT.221</name>
      </trkpt>
      <trkpt lat="17.321311980" lon="-96.442807660">
        <ele>2118.000</ele>
        <time>2019-01-19T17:42:34Z</time>
        <name>WPT.222</name>
      </trkpt>
      <trkpt lat="17.321347330" lon="-96.442797520">
        <ele>2115.000</ele>
        <time>2019-01-19T17:42:40Z</time>
        <name>WPT.223</name>
      </trkpt>
      <trkpt lat="17.321381020" lon="-96.442771720">
        <ele>2116.000</ele>
        <time>2019-01-19T17:42:44Z</time>
        <name>WPT.224</name>
      </trkpt>
      <trkpt lat="17.321415070" lon="-96.442735200">
        <ele>2116.000</ele>
        <time>2019-01-19T17:42:50Z</time>
        <name>WPT.225</name>
      </trkpt>
      <trkpt lat="17.321457710" lon="-96.442720270">
        <ele>2118.000</ele>
        <time>2019-01-19T17:42:56Z</time>
        <name>WPT.226</name>
      </trkpt>
      <trkpt lat="17.321492300" lon="-96.442685660">
        <ele>2119.000</ele>
        <time>2019-01-19T17:43:07Z</time>
        <name>WPT.227</name>
      </trkpt>
      <trkpt lat="17.321518390" lon="-96.442652310">
        <ele>2122.000</ele>
        <time>2019-01-19T17:43:15Z</time>
        <name>WPT.228</name>
      </trkpt>
      <trkpt lat="17.321554100" lon="-96.442627470">
        <ele>2124.000</ele>
        <time>2019-01-19T17:43:20Z</time>
        <name>WPT.229</name>
      </trkpt>
      <trkpt lat="17.321590290" lon="-96.442602300">
        <ele>2126.000</ele>
        <time>2019-01-19T17:43:25Z</time>
        <name>WPT.230</name>
      </trkpt>
      <trkpt lat="17.321620990" lon="-96.442573160">
        <ele>2127.000</ele>
        <time>2019-01-19T17:43:30Z</time>
        <name>WPT.231</name>
      </trkpt>
      <trkpt lat="17.321643540" lon="-96.442534370">
        <ele>2125.000</ele>
        <time>2019-01-19T17:43:34Z</time>
        <name>WPT.232</name>
      </trkpt>
      <trkpt lat="17.321674100" lon="-96.442513280">
        <ele>2129.000</ele>
        <time>2019-01-19T17:44:12Z</time>
        <name>WPT.233</name>
      </trkpt>
      <trkpt lat="17.321696900" lon="-96.442483190">
        <ele>2129.000</ele>
        <time>2019-01-19T17:44:17Z</time>
        <name>WPT.234</name>
      </trkpt>
      <trkpt lat="17.321724190" lon="-96.442455090">
        <ele>2129.000</ele>
        <time>2019-01-19T17:44:23Z</time>
        <name>WPT.235</name>
      </trkpt>
      <trkpt lat="17.321754180" lon="-96.442430280">
        <ele>2129.000</ele>
        <time>2019-01-19T17:44:35Z</time>
        <name>WPT.236</name>
      </trkpt>
      <trkpt lat="17.321791040" lon="-96.442423050">
        <ele>2131.000</ele>
        <time>2019-01-19T17:44:42Z</time>
        <name>WPT.237</name>
      </trkpt>
      <trkpt lat="17.321827480" lon="-96.442414920">
        <ele>2136.000</ele>
        <time>2019-01-19T17:44:48Z</time>
        <name>WPT.238</name>
      </trkpt>
      <trkpt lat="17.321859440" lon="-96.442396350">
        <ele>2136.000</ele>
        <time>2019-01-19T17:44:52Z</time>
        <name>WPT.239</name>
      </trkpt>
      <trkpt lat="17.321889890" lon="-96.442368130">
        <ele>2134.000</ele>
        <time>2019-01-19T17:44:56Z</time>
        <name>WPT.240</name>
      </trkpt>
      <trkpt lat="17.321911740" lon="-96.442328200">
        <ele>2133.000</ele>
        <time>2019-01-19T17:45:00Z</time>
        <name>WPT.241</name>
      </trkpt>
      <trkpt lat="17.321923340" lon="-96.442288450">
        <ele>2131.000</ele>
        <time>2019-01-19T17:45:04Z</time>
        <name>WPT.242</name>
      </trkpt>
      <trkpt lat="17.321947300" lon="-96.442257590">
        <ele>2131.000</ele>
        <time>2019-01-19T17:45:11Z</time>
        <name>WPT.243</name>
      </trkpt>
      <trkpt lat="17.321951790" lon="-96.442209710">
        <ele>2129.000</ele>
        <time>2019-01-19T17:45:15Z</time>
        <name>WPT.244</name>
      </trkpt>
      <trkpt lat="17.321962690" lon="-96.442167600">
        <ele>2129.000</ele>
        <time>2019-01-19T17:45:21Z</time>
        <name>WPT.245</name>
      </trkpt>
      <trkpt lat="17.321983090" lon="-96.442135540">
        <ele>2131.000</ele>
        <time>2019-01-19T17:45:30Z</time>
        <name>WPT.246</name>
      </trkpt>
      <trkpt lat="17.321986790" lon="-96.442095630">
        <ele>2131.000</ele>
        <time>2019-01-19T17:45:35Z</time>
        <name>WPT.247</name>
      </trkpt>
      <trkpt lat="17.321972600" lon="-96.442047990">
        <ele>2129.000</ele>
        <time>2019-01-19T17:45:40Z</time>
        <name>WPT.248</name>
      </trkpt>
      <trkpt lat="17.321970350" lon="-96.442005920">
        <ele>2130.000</ele>
        <time>2019-01-19T17:45:45Z</time>
        <name>WPT.249</name>
      </trkpt>
      <trkpt lat="17.321990410" lon="-96.441971350">
        <ele>2130.000</ele>
        <time>2019-01-19T17:45:58Z</time>
        <name>WPT.250</name>
      </trkpt>
      <trkpt lat="17.321973240" lon="-96.441936270">
        <ele>2131.000</ele>
        <time>2019-01-19T17:46:05Z</time>
        <name>WPT.251</name>
      </trkpt>
      <trkpt lat="17.321965390" lon="-96.441893710">
        <ele>2128.000</ele>
        <time>2019-01-19T17:46:12Z</time>
        <name>WPT.252</name>
      </trkpt>
      <trkpt lat="17.321969160" lon="-96.441854870">
        <ele>2128.000</ele>
        <time>2019-01-19T17:46:28Z</time>
        <name>WPT.253</name>
      </trkpt>
      <trkpt lat="17.321985070" lon="-96.441819840">
        <ele>2129.000</ele>
        <time>2019-01-19T17:46:37Z</time>
        <name>WPT.254</name>
      </trkpt>
      <trkpt lat="17.322005430" lon="-96.441786680">
        <ele>2133.000</ele>
        <time>2019-01-19T17:47:07Z</time>
        <name>WPT.255</name>
      </trkpt>
      <trkpt lat="17.321987890" lon="-96.441753680">
        <ele>2132.000</ele>
        <time>2019-01-19T17:47:12Z</time>
        <name>WPT.256</name>
      </trkpt>
      <trkpt lat="17.321986060" lon="-96.441715390">
        <ele>2133.000</ele>
        <time>2019-01-19T17:47:17Z</time>
        <name>WPT.257</name>
      </trkpt>
      <trkpt lat="17.322002140" lon="-96.441670180">
        <ele>2134.000</ele>
        <time>2019-01-19T17:47:22Z</time>
        <name>WPT.258</name>
      </trkpt>
      <trkpt lat="17.322025500" lon="-96.441632410">
        <ele>2140.000</ele>
        <time>2019-01-19T17:47:31Z</time>
        <name>WPT.259</name>
      </trkpt>
      <trkpt lat="17.322049680" lon="-96.441603240">
        <ele>2147.000</ele>
        <time>2019-01-19T17:47:39Z</time>
        <name>WPT.260</name>
      </trkpt>
      <trkpt lat="17.322085540" lon="-96.441595000">
        <ele>2154.000</ele>
        <time>2019-01-19T17:47:54Z</time>
        <name>WPT.261</name>
      </trkpt>
      <trkpt lat="17.322069460" lon="-96.441558900">
        <ele>2151.000</ele>
        <time>2019-01-19T17:48:01Z</time>
        <name>WPT.262</name>
      </trkpt>
      <trkpt lat="17.322038220" lon="-96.441533290">
        <ele>2148.000</ele>
        <time>2019-01-19T17:48:03Z</time>
        <name>WPT.263</name>
      </trkpt>
      <trkpt lat="17.322053350" lon="-96.441487220">
        <ele>2148.000</ele>
        <time>2019-01-19T17:48:10Z</time>
        <name>WPT.264</name>
      </trkpt>
      <trkpt lat="17.322048660" lon="-96.441449000">
        <ele>2145.000</ele>
        <time>2019-01-19T17:48:14Z</time>
        <name>WPT.265</name>
      </trkpt>
      <trkpt lat="17.322020030" lon="-96.441414870">
        <ele>2143.000</ele>
        <time>2019-01-19T17:48:24Z</time>
        <name>WPT.266</name>
      </trkpt>
      <trkpt lat="17.321987770" lon="-96.441395150">
        <ele>2140.000</ele>
        <time>2019-01-19T17:48:30Z</time>
        <name>WPT.267</name>
      </trkpt>
      <trkpt lat="17.322023130" lon="-96.441372680">
        <ele>2139.000</ele>
        <time>2019-01-19T17:49:13Z</time>
        <name>WPT.268</name>
      </trkpt>
      <trkpt lat="17.321994950" lon="-96.441348240">
        <ele>2142.000</ele>
        <time>2019-01-19T17:49:23Z</time>
        <name>WPT.269</name>
      </trkpt>
      <trkpt lat="17.322009580" lon="-96.441308310">
        <ele>2141.000</ele>
        <time>2019-01-19T17:49:34Z</time>
        <name>WPT.270</name>
      </trkpt>
      <trkpt lat="17.322049520" lon="-96.441318100">
        <ele>2144.000</ele>
        <time>2019-01-19T17:49:40Z</time>
        <name>WPT.271</name>
      </trkpt>
      <trkpt lat="17.322091620" lon="-96.441321410">
        <ele>2149.000</ele>
        <time>2019-01-19T17:49:48Z</time>
        <name>WPT.272</name>
      </trkpt>
      <trkpt lat="17.322132220" lon="-96.441298110">
        <ele>2145.000</ele>
        <time>2019-01-19T17:49:51Z</time>
        <name>WPT.273</name>
      </trkpt>
      <trkpt lat="17.322168010" lon="-96.441306920">
        <ele>2145.000</ele>
        <time>2019-01-19T17:49:53Z</time>
        <name>WPT.274</name>
      </trkpt>
      <trkpt lat="17.322206910" lon="-96.441302450">
        <ele>2146.000</ele>
        <time>2019-01-19T17:49:59Z</time>
        <name>WPT.275</name>
      </trkpt>
      <trkpt lat="17.322238980" lon="-96.441324000">
        <ele>2146.000</ele>
        <time>2019-01-19T17:50:47Z</time>
        <name>WPT.276</name>
      </trkpt>
      <trkpt lat="17.322282890" lon="-96.441318440">
        <ele>2149.000</ele>
        <time>2019-01-19T17:52:59Z</time>
        <name>WPT.277</name>
      </trkpt>
      <trkpt lat="17.322321220" lon="-96.441316830">
        <ele>2146.000</ele>
        <time>2019-01-19T17:54:25Z</time>
        <name>WPT.278</name>
      </trkpt>
      <trkpt lat="17.322355210" lon="-96.441331430">
        <ele>2143.000</ele>
        <time>2019-01-19T17:54:34Z</time>
        <name>WPT.279</name>
      </trkpt>
      <trkpt lat="17.322395790" lon="-96.441334960">
        <ele>2146.000</ele>
        <time>2019-01-19T17:55:24Z</time>
        <name>WPT.280</name>
      </trkpt>
      <trkpt lat="17.322434310" lon="-96.441332170">
        <ele>2150.000</ele>
        <time>2019-01-19T17:55:51Z</time>
        <name>WPT.281</name>
      </trkpt>
      <trkpt lat="17.322465820" lon="-96.441312590">
        <ele>2151.000</ele>
        <time>2019-01-19T17:56:00Z</time>
        <name>WPT.282</name>
      </trkpt>
      <trkpt lat="17.322510370" lon="-96.441313650">
        <ele>2155.000</ele>
        <time>2019-01-19T17:56:20Z</time>
        <name>WPT.283</name>
      </trkpt>
      <trkpt lat="17.322557030" lon="-96.441305380">
        <ele>2152.000</ele>
        <time>2019-01-19T17:56:31Z</time>
        <name>WPT.284</name>
      </trkpt>
      <trkpt lat="17.322599110" lon="-96.441292480">
        <ele>2153.000</ele>
        <time>2019-01-19T17:56:36Z</time>
        <name>WPT.285</name>
      </trkpt>
      <trkpt lat="17.322640740" lon="-96.441288310">
        <ele>2151.000</ele>
        <time>2019-01-19T17:56:41Z</time>
        <name>WPT.286</name>
      </trkpt>
      <trkpt lat="17.322687130" lon="-96.441285980">
        <ele>2152.000</ele>
        <time>2019-01-19T17:56:45Z</time>
        <name>WPT.287</name>
      </trkpt>
      <trkpt lat="17.322729240" lon="-96.441280500">
        <ele>2150.000</ele>
        <time>2019-01-19T17:56:51Z</time>
        <name>WPT.288</name>
      </trkpt>
      <trkpt lat="17.322767240" lon="-96.441276560">
        <ele>2151.000</ele>
        <time>2019-01-19T17:56:57Z</time>
        <name>WPT.289</name>
      </trkpt>
      <trkpt lat="17.322803700" lon="-96.441266740">
        <ele>2149.000</ele>
        <time>2019-01-19T17:57:09Z</time>
        <name>WPT.290</name>
      </trkpt>
      <trkpt lat="17.322840560" lon="-96.441253880">
        <ele>2148.000</ele>
        <time>2019-01-19T17:57:13Z</time>
        <name>WPT.291</name>
      </trkpt>
      <trkpt lat="17.322876900" lon="-96.441246810">
        <ele>2148.000</ele>
        <time>2019-01-19T17:57:20Z</time>
        <name>WPT.292</name>
      </trkpt>
      <trkpt lat="17.322907930" lon="-96.441266130">
        <ele>2153.000</ele>
        <time>2019-01-19T17:57:38Z</time>
        <name>WPT.293</name>
      </trkpt>
      <trkpt lat="17.322945470" lon="-96.441247730">
        <ele>2152.000</ele>
        <time>2019-01-19T17:57:44Z</time>
        <name>WPT.294</name>
      </trkpt>
      <trkpt lat="17.322982040" lon="-96.441257370">
        <ele>2155.000</ele>
        <time>2019-01-19T17:57:49Z</time>
        <name>WPT.295</name>
      </trkpt>
      <trkpt lat="17.323024360" lon="-96.441269880">
        <ele>2155.000</ele>
        <time>2019-01-19T17:57:55Z</time>
        <name>WPT.296</name>
      </trkpt>
      <trkpt lat="17.323064950" lon="-96.441282940">
        <ele>2155.000</ele>
        <time>2019-01-19T17:58:00Z</time>
        <name>WPT.297</name>
      </trkpt>
      <trkpt lat="17.323107430" lon="-96.441293630">
        <ele>2158.000</ele>
        <time>2019-01-19T17:58:04Z</time>
        <name>WPT.298</name>
      </trkpt>
      <trkpt lat="17.323149550" lon="-96.441301640">
        <ele>2161.000</ele>
        <time>2019-01-19T17:58:08Z</time>
        <name>WPT.299</name>
      </trkpt>
      <trkpt lat="17.323194540" lon="-96.441284850">
        <ele>2159.000</ele>
        <time>2019-01-19T17:58:13Z</time>
        <name>WPT.300</name>
      </trkpt>
      <trkpt lat="17.323234950" lon="-96.441275920">
        <ele>2160.000</ele>
        <time>2019-01-19T17:58:18Z</time>
        <name>WPT.301</name>
      </trkpt>
      <trkpt lat="17.323279580" lon="-96.441271040">
        <ele>2162.000</ele>
        <time>2019-01-19T17:58:25Z</time>
        <name>WPT.302</name>
      </trkpt>
      <trkpt lat="17.323312170" lon="-96.441251790">
        <ele>2161.000</ele>
        <time>2019-01-19T17:58:28Z</time>
        <name>WPT.303</name>
      </trkpt>
      <trkpt lat="17.323343370" lon="-96.441228000">
        <ele>2160.000</ele>
        <time>2019-01-19T17:58:32Z</time>
        <name>WPT.304</name>
      </trkpt>
      <trkpt lat="17.323390200" lon="-96.441217230">
        <ele>2162.000</ele>
        <time>2019-01-19T17:58:37Z</time>
        <name>WPT.305</name>
      </trkpt>
      <trkpt lat="17.323426670" lon="-96.441203020">
        <ele>2160.000</ele>
        <time>2019-01-19T17:58:44Z</time>
        <name>WPT.306</name>
      </trkpt>
      <trkpt lat="17.323467620" lon="-96.441200740">
        <ele>2160.000</ele>
        <time>2019-01-19T17:58:50Z</time>
        <name>WPT.307</name>
      </trkpt>
      <trkpt lat="17.323510290" lon="-96.441192180">
        <ele>2159.000</ele>
        <time>2019-01-19T17:58:59Z</time>
        <name>WPT.308</name>
      </trkpt>
      <trkpt lat="17.323532500" lon="-96.441159610">
        <ele>2157.000</ele>
        <time>2019-01-19T17:59:04Z</time>
        <name>WPT.309</name>
      </trkpt>
      <trkpt lat="17.323565180" lon="-96.441139600">
        <ele>2156.000</ele>
        <time>2019-01-19T17:59:07Z</time>
        <name>WPT.310</name>
      </trkpt>
      <trkpt lat="17.323607210" lon="-96.441119390">
        <ele>2156.000</ele>
        <time>2019-01-19T17:59:10Z</time>
        <name>WPT.311</name>
      </trkpt>
      <trkpt lat="17.323633670" lon="-96.441086860">
        <ele>2154.000</ele>
        <time>2019-01-19T17:59:23Z</time>
        <name>WPT.312</name>
      </trkpt>
      <trkpt lat="17.323660720" lon="-96.441056980">
        <ele>2155.000</ele>
        <time>2019-01-19T17:59:27Z</time>
        <name>WPT.313</name>
      </trkpt>
      <trkpt lat="17.323683660" lon="-96.441023070">
        <ele>2155.000</ele>
        <time>2019-01-19T17:59:32Z</time>
        <name>WPT.314</name>
      </trkpt>
      <trkpt lat="17.323701120" lon="-96.440985710">
        <ele>2154.000</ele>
        <time>2019-01-19T17:59:42Z</time>
        <name>WPT.315</name>
      </trkpt>
      <trkpt lat="17.323731020" lon="-96.440959590">
        <ele>2152.000</ele>
        <time>2019-01-19T17:59:51Z</time>
        <name>WPT.316</name>
      </trkpt>
      <trkpt lat="17.323766250" lon="-96.440943680">
        <ele>2153.000</ele>
        <time>2019-01-19T17:59:55Z</time>
        <name>WPT.317</name>
      </trkpt>
      <trkpt lat="17.323805720" lon="-96.440927470">
        <ele>2155.000</ele>
        <time>2019-01-19T18:00:00Z</time>
        <name>WPT.318</name>
      </trkpt>
      <trkpt lat="17.323843880" lon="-96.440920620">
        <ele>2157.000</ele>
        <time>2019-01-19T18:00:07Z</time>
        <name>WPT.319</name>
      </trkpt>
      <trkpt lat="17.323881350" lon="-96.440914030">
        <ele>2158.000</ele>
        <time>2019-01-19T18:00:12Z</time>
        <name>WPT.320</name>
      </trkpt>
      <trkpt lat="17.323920860" lon="-96.440896460">
        <ele>2158.000</ele>
        <time>2019-01-19T18:00:18Z</time>
        <name>WPT.321</name>
      </trkpt>
      <trkpt lat="17.323953270" lon="-96.440871070">
        <ele>2155.000</ele>
        <time>2019-01-19T18:00:26Z</time>
        <name>WPT.322</name>
      </trkpt>
      <trkpt lat="17.323976620" lon="-96.440836850">
        <ele>2153.000</ele>
        <time>2019-01-19T18:00:29Z</time>
        <name>WPT.323</name>
      </trkpt>
      <trkpt lat="17.324010450" lon="-96.440802440">
        <ele>2150.000</ele>
        <time>2019-01-19T18:00:38Z</time>
        <name>WPT.324</name>
      </trkpt>
      <trkpt lat="17.324043490" lon="-96.440775180">
        <ele>2149.000</ele>
        <time>2019-01-19T18:00:42Z</time>
        <name>WPT.325</name>
      </trkpt>
      <trkpt lat="17.324069550" lon="-96.440746710">
        <ele>2147.000</ele>
        <time>2019-01-19T18:00:47Z</time>
        <name>WPT.326</name>
      </trkpt>
      <trkpt lat="17.324092930" lon="-96.440777640">
        <ele>2150.000</ele>
        <time>2019-01-19T18:00:55Z</time>
        <name>WPT.327</name>
      </trkpt>
      <trkpt lat="17.324131680" lon="-96.440772840">
        <ele>2149.000</ele>
        <time>2019-01-19T18:00:59Z</time>
        <name>WPT.328</name>
      </trkpt>
      <trkpt lat="17.324161840" lon="-96.440742530">
        <ele>2147.000</ele>
        <time>2019-01-19T18:01:12Z</time>
        <name>WPT.329</name>
      </trkpt>
      <trkpt lat="17.324202390" lon="-96.440728680">
        <ele>2146.000</ele>
        <time>2019-01-19T18:01:22Z</time>
        <name>WPT.330</name>
      </trkpt>
      <trkpt lat="17.324245230" lon="-96.440742050">
        <ele>2148.000</ele>
        <time>2019-01-19T18:01:29Z</time>
        <name>WPT.331</name>
      </trkpt>
      <trkpt lat="17.324287970" lon="-96.440756120">
        <ele>2144.000</ele>
        <time>2019-01-19T18:01:34Z</time>
        <name>WPT.332</name>
      </trkpt>
      <trkpt lat="17.324328950" lon="-96.440748950">
        <ele>2145.000</ele>
        <time>2019-01-19T18:01:39Z</time>
        <name>WPT.333</name>
      </trkpt>
      <trkpt lat="17.324369890" lon="-96.440746640">
        <ele>2143.000</ele>
        <time>2019-01-19T18:01:44Z</time>
        <name>WPT.334</name>
      </trkpt>
      <trkpt lat="17.324406150" lon="-96.440737260">
        <ele>2139.000</ele>
        <time>2019-01-19T18:02:11Z</time>
        <name>WPT.335</name>
      </trkpt>
      <trkpt lat="17.324447140" lon="-96.440748550">
        <ele>2139.000</ele>
        <time>2019-01-19T18:02:15Z</time>
        <name>WPT.336</name>
      </trkpt>
      <trkpt lat="17.324484520" lon="-96.440758050">
        <ele>2140.000</ele>
        <time>2019-01-19T18:02:23Z</time>
        <name>WPT.337</name>
      </trkpt>
      <trkpt lat="17.324522960" lon="-96.440763850">
        <ele>2141.000</ele>
        <time>2019-01-19T18:02:31Z</time>
        <name>WPT.338</name>
      </trkpt>
      <trkpt lat="17.324561400" lon="-96.440763550">
        <ele>2140.000</ele>
        <time>2019-01-19T18:02:35Z</time>
        <name>WPT.339</name>
      </trkpt>
      <trkpt lat="17.324601650" lon="-96.440764050">
        <ele>2141.000</ele>
        <time>2019-01-19T18:02:40Z</time>
        <name>WPT.340</name>
      </trkpt>
      <trkpt lat="17.324636660" lon="-96.440773590">
        <ele>2143.000</ele>
        <time>2019-01-19T18:02:44Z</time>
        <name>WPT.341</name>
      </trkpt>
      <trkpt lat="17.324672500" lon="-96.440763270">
        <ele>2144.000</ele>
        <time>2019-01-19T18:02:53Z</time>
        <name>WPT.342</name>
      </trkpt>
      <trkpt lat="17.324707680" lon="-96.440779280">
        <ele>2146.000</ele>
        <time>2019-01-19T18:03:00Z</time>
        <name>WPT.343</name>
      </trkpt>
      <trkpt lat="17.324749520" lon="-96.440778580">
        <ele>2145.000</ele>
        <time>2019-01-19T18:03:03Z</time>
        <name>WPT.344</name>
      </trkpt>
      <trkpt lat="17.324787740" lon="-96.440780750">
        <ele>2145.000</ele>
        <time>2019-01-19T18:03:07Z</time>
        <name>WPT.345</name>
      </trkpt>
      <trkpt lat="17.324823510" lon="-96.440774650">
        <ele>2144.000</ele>
        <time>2019-01-19T18:03:13Z</time>
        <name>WPT.346</name>
      </trkpt>
      <trkpt lat="17.324860380" lon="-96.440780940">
        <ele>2146.000</ele>
        <time>2019-01-19T18:03:21Z</time>
        <name>WPT.347</name>
      </trkpt>
      <trkpt lat="17.324899680" lon="-96.440782570">
        <ele>2146.000</ele>
        <time>2019-01-19T18:03:27Z</time>
        <name>WPT.348</name>
      </trkpt>
      <trkpt lat="17.324942030" lon="-96.440791290">
        <ele>2143.000</ele>
        <time>2019-01-19T18:03:35Z</time>
        <name>WPT.349</name>
      </trkpt>
      <trkpt lat="17.324985650" lon="-96.440782430">
        <ele>2144.000</ele>
        <time>2019-01-19T18:03:40Z</time>
        <name>WPT.350</name>
      </trkpt>
      <trkpt lat="17.325024450" lon="-96.440774870">
        <ele>2143.000</ele>
        <time>2019-01-19T18:03:44Z</time>
        <name>WPT.351</name>
      </trkpt>
      <trkpt lat="17.325061540" lon="-96.440777330">
        <ele>2142.000</ele>
        <time>2019-01-19T18:03:51Z</time>
        <name>WPT.352</name>
      </trkpt>
      <trkpt lat="17.325100810" lon="-96.440781130">
        <ele>2151.000</ele>
        <time>2019-01-19T18:03:58Z</time>
        <name>WPT.353</name>
      </trkpt>
      <trkpt lat="17.325140060" lon="-96.440778950">
        <ele>2153.000</ele>
        <time>2019-01-19T18:04:04Z</time>
        <name>WPT.354</name>
      </trkpt>
      <trkpt lat="17.325185140" lon="-96.440790270">
        <ele>2154.000</ele>
        <time>2019-01-19T18:04:10Z</time>
        <name>WPT.355</name>
      </trkpt>
      <trkpt lat="17.325234710" lon="-96.440792010">
        <ele>2152.000</ele>
        <time>2019-01-19T18:04:18Z</time>
        <name>WPT.356</name>
      </trkpt>
      <trkpt lat="17.325269490" lon="-96.440804330">
        <ele>2154.000</ele>
        <time>2019-01-19T18:04:24Z</time>
        <name>WPT.357</name>
      </trkpt>
      <trkpt lat="17.325295020" lon="-96.440831160">
        <ele>2154.000</ele>
        <time>2019-01-19T18:04:29Z</time>
        <name>WPT.358</name>
      </trkpt>
      <trkpt lat="17.325331340" lon="-96.440841660">
        <ele>2154.000</ele>
        <time>2019-01-19T18:04:34Z</time>
        <name>WPT.359</name>
      </trkpt>
      <trkpt lat="17.325367650" lon="-96.440842130">
        <ele>2153.000</ele>
        <time>2019-01-19T18:04:44Z</time>
        <name>WPT.360</name>
      </trkpt>
      <trkpt lat="17.325408380" lon="-96.440826950">
        <ele>2152.000</ele>
        <time>2019-01-19T18:04:52Z</time>
        <name>WPT.361</name>
      </trkpt>
      <trkpt lat="17.325449670" lon="-96.440804850">
        <ele>2148.000</ele>
        <time>2019-01-19T18:04:55Z</time>
        <name>WPT.362</name>
      </trkpt>
      <trkpt lat="17.325495500" lon="-96.440783890">
        <ele>2145.000</ele>
        <time>2019-01-19T18:05:00Z</time>
        <name>WPT.363</name>
      </trkpt>
      <trkpt lat="17.325537820" lon="-96.440766580">
        <ele>2144.000</ele>
        <time>2019-01-19T18:05:06Z</time>
        <name>WPT.364</name>
      </trkpt>
      <trkpt lat="17.325574960" lon="-96.440752730">
        <ele>2141.000</ele>
        <time>2019-01-19T18:05:10Z</time>
        <name>WPT.365</name>
      </trkpt>
      <trkpt lat="17.325608300" lon="-96.440735980">
        <ele>2142.000</ele>
        <time>2019-01-19T18:05:25Z</time>
        <name>WPT.366</name>
      </trkpt>
      <trkpt lat="17.325643120" lon="-96.440725410">
        <ele>2144.000</ele>
        <time>2019-01-19T18:05:50Z</time>
        <name>WPT.367</name>
      </trkpt>
      <trkpt lat="17.325665710" lon="-96.440757630">
        <ele>2155.000</ele>
        <time>2019-01-19T18:08:14Z</time>
        <name>WPT.368</name>
      </trkpt>
      <trkpt lat="17.325658540" lon="-96.440795820">
        <ele>2154.000</ele>
        <time>2019-01-19T18:08:27Z</time>
        <name>WPT.369</name>
      </trkpt>
      <trkpt lat="17.325674980" lon="-96.440837100">
        <ele>2157.000</ele>
        <time>2019-01-19T18:08:39Z</time>
        <name>WPT.370</name>
      </trkpt>
      <trkpt lat="17.325678390" lon="-96.440879160">
        <ele>2156.000</ele>
        <time>2019-01-19T18:08:45Z</time>
        <name>WPT.371</name>
      </trkpt>
      <trkpt lat="17.325696920" lon="-96.440918050">
        <ele>2157.000</ele>
        <time>2019-01-19T18:08:50Z</time>
        <name>WPT.372</name>
      </trkpt>
      <trkpt lat="17.325727600" lon="-96.440946000">
        <ele>2157.000</ele>
        <time>2019-01-19T18:08:56Z</time>
        <name>WPT.373</name>
      </trkpt>
      <trkpt lat="17.325747830" lon="-96.440979700">
        <ele>2158.000</ele>
        <time>2019-01-19T18:09:01Z</time>
        <name>WPT.374</name>
      </trkpt>
      <trkpt lat="17.325777190" lon="-96.441012530">
        <ele>2157.000</ele>
        <time>2019-01-19T18:09:09Z</time>
        <name>WPT.375</name>
      </trkpt>
      <trkpt lat="17.325797860" lon="-96.441048370">
        <ele>2153.000</ele>
        <time>2019-01-19T18:09:15Z</time>
        <name>WPT.376</name>
      </trkpt>
      <trkpt lat="17.325802690" lon="-96.441088690">
        <ele>2150.000</ele>
        <time>2019-01-19T18:09:20Z</time>
        <name>WPT.377</name>
      </trkpt>
      <trkpt lat="17.325819830" lon="-96.441132940">
        <ele>2151.000</ele>
        <time>2019-01-19T18:09:25Z</time>
        <name>WPT.378</name>
      </trkpt>
      <trkpt lat="17.325842940" lon="-96.441162340">
        <ele>2152.000</ele>
        <time>2019-01-19T18:09:29Z</time>
        <name>WPT.379</name>
      </trkpt>
      <trkpt lat="17.325865670" lon="-96.441193110">
        <ele>2150.000</ele>
        <time>2019-01-19T18:09:34Z</time>
        <name>WPT.380</name>
      </trkpt>
      <trkpt lat="17.325866260" lon="-96.441237410">
        <ele>2150.000</ele>
        <time>2019-01-19T18:09:39Z</time>
        <name>WPT.381</name>
      </trkpt>
      <trkpt lat="17.325880840" lon="-96.441276710">
        <ele>2150.000</ele>
        <time>2019-01-19T18:09:43Z</time>
        <name>WPT.382</name>
      </trkpt>
      <trkpt lat="17.325883390" lon="-96.441314360">
        <ele>2149.000</ele>
        <time>2019-01-19T18:09:48Z</time>
        <name>WPT.383</name>
      </trkpt>
      <trkpt lat="17.325904560" lon="-96.441347800">
        <ele>2148.000</ele>
        <time>2019-01-19T18:09:54Z</time>
        <name>WPT.384</name>
      </trkpt>
      <trkpt lat="17.325905350" lon="-96.441387470">
        <ele>2149.000</ele>
        <time>2019-01-19T18:10:00Z</time>
        <name>WPT.385</name>
      </trkpt>
      <trkpt lat="17.325928300" lon="-96.441420180">
        <ele>2152.000</ele>
        <time>2019-01-19T18:10:04Z</time>
        <name>WPT.386</name>
      </trkpt>
      <trkpt lat="17.325951120" lon="-96.441451780">
        <ele>2153.000</ele>
        <time>2019-01-19T18:10:09Z</time>
        <name>WPT.387</name>
      </trkpt>
      <trkpt lat="17.325975820" lon="-96.441486640">
        <ele>2154.000</ele>
        <time>2019-01-19T18:10:15Z</time>
        <name>WPT.388</name>
      </trkpt>
      <trkpt lat="17.325992040" lon="-96.441530290">
        <ele>2151.000</ele>
        <time>2019-01-19T18:10:28Z</time>
        <name>WPT.389</name>
      </trkpt>
      <trkpt lat="17.326018290" lon="-96.441563900">
        <ele>2152.000</ele>
        <time>2019-01-19T18:10:32Z</time>
        <name>WPT.390</name>
      </trkpt>
      <trkpt lat="17.326048030" lon="-96.441587610">
        <ele>2150.000</ele>
        <time>2019-01-19T18:10:37Z</time>
        <name>WPT.391</name>
      </trkpt>
      <trkpt lat="17.326085640" lon="-96.441597980">
        <ele>2150.000</ele>
        <time>2019-01-19T18:10:43Z</time>
        <name>WPT.392</name>
      </trkpt>
      <trkpt lat="17.326119150" lon="-96.441616260">
        <ele>2149.000</ele>
        <time>2019-01-19T18:10:52Z</time>
        <name>WPT.393</name>
      </trkpt>
      <trkpt lat="17.326156500" lon="-96.441621420">
        <ele>2150.000</ele>
        <time>2019-01-19T18:11:10Z</time>
        <name>WPT.394</name>
      </trkpt>
      <trkpt lat="17.326199120" lon="-96.441633700">
        <ele>2152.000</ele>
        <time>2019-01-19T18:11:16Z</time>
        <name>WPT.395</name>
      </trkpt>
      <trkpt lat="17.326233400" lon="-96.441651500">
        <ele>2155.000</ele>
        <time>2019-01-19T18:11:18Z</time>
        <name>WPT.396</name>
      </trkpt>
      <trkpt lat="17.326252600" lon="-96.441686350">
        <ele>2152.000</ele>
        <time>2019-01-19T18:11:33Z</time>
        <name>WPT.397</name>
      </trkpt>
      <trkpt lat="17.326275300" lon="-96.441722620">
        <ele>2151.000</ele>
        <time>2019-01-19T18:11:55Z</time>
        <name>WPT.398</name>
      </trkpt>
      <trkpt lat="17.326310840" lon="-96.441735790">
        <ele>2150.000</ele>
        <time>2019-01-19T18:12:03Z</time>
        <name>WPT.399</name>
      </trkpt>
      <trkpt lat="17.326350020" lon="-96.441736070">
        <ele>2146.000</ele>
        <time>2019-01-19T18:12:13Z</time>
        <name>WPT.400</name>
      </trkpt>
      <trkpt lat="17.326386730" lon="-96.441719990">
        <ele>2141.000</ele>
        <time>2019-01-19T18:12:19Z</time>
        <name>WPT.401</name>
      </trkpt>
      <trkpt lat="17.326415080" lon="-96.441695030">
        <ele>2139.000</ele>
        <time>2019-01-19T18:12:46Z</time>
        <name>WPT.402</name>
      </trkpt>
      <trkpt lat="17.326439710" lon="-96.441664740">
        <ele>2141.000</ele>
        <time>2019-01-19T18:13:06Z</time>
        <name>WPT.403</name>
      </trkpt>
      <trkpt lat="17.326412200" lon="-96.441691450">
        <ele>2145.000</ele>
        <time>2019-01-19T18:17:57Z</time>
        <name>WPT.404</name>
      </trkpt>
      <trkpt lat="17.326412760" lon="-96.441653170">
        <ele>2138.000</ele>
        <time>2019-01-19T18:24:22Z</time>
        <name>WPT.405</name>
      </trkpt>
      <trkpt lat="17.326464190" lon="-96.441643670">
        <ele>2142.000</ele>
        <time>2019-01-19T18:24:46Z</time>
        <name>WPT.406</name>
      </trkpt>
      <trkpt lat="17.326416950" lon="-96.441646610">
        <ele>2140.000</ele>
        <time>2019-01-19T18:24:50Z</time>
        <name>WPT.407</name>
      </trkpt>
      <trkpt lat="17.326424840" lon="-96.441704050">
        <ele>2142.000</ele>
        <time>2019-01-19T18:27:53Z</time>
        <name>WPT.408</name>
      </trkpt>
      <trkpt lat="17.326388560" lon="-96.441714540">
        <ele>2144.000</ele>
        <time>2019-01-19T18:34:56Z</time>
        <name>WPT.409</name>
      </trkpt>
      <trkpt lat="17.326351600" lon="-96.441703370">
        <ele>2143.000</ele>
        <time>2019-01-19T18:35:12Z</time>
        <name>WPT.410</name>
      </trkpt>
      <trkpt lat="17.326322360" lon="-96.441672990">
        <ele>2144.000</ele>
        <time>2019-01-19T18:35:17Z</time>
        <name>WPT.411</name>
      </trkpt>
      <trkpt lat="17.326304710" lon="-96.441633110">
        <ele>2144.000</ele>
        <time>2019-01-19T18:35:24Z</time>
        <name>WPT.412</name>
      </trkpt>
      <trkpt lat="17.326263800" lon="-96.441622280">
        <ele>2143.000</ele>
        <time>2019-01-19T18:35:31Z</time>
        <name>WPT.413</name>
      </trkpt>
      <trkpt lat="17.326228490" lon="-96.441607440">
        <ele>2144.000</ele>
        <time>2019-01-19T18:35:38Z</time>
        <name>WPT.414</name>
      </trkpt>
      <trkpt lat="17.326203600" lon="-96.441567100">
        <ele>2148.000</ele>
        <time>2019-01-19T18:35:48Z</time>
        <name>WPT.415</name>
      </trkpt>
      <trkpt lat="17.326170200" lon="-96.441552390">
        <ele>2148.000</ele>
        <time>2019-01-19T18:35:51Z</time>
        <name>WPT.416</name>
      </trkpt>
      <trkpt lat="17.326141800" lon="-96.441527840">
        <ele>2148.000</ele>
        <time>2019-01-19T18:35:58Z</time>
        <name>WPT.417</name>
      </trkpt>
      <trkpt lat="17.326116650" lon="-96.441496120">
        <ele>2154.000</ele>
        <time>2019-01-19T18:36:06Z</time>
        <name>WPT.418</name>
      </trkpt>
      <trkpt lat="17.326096500" lon="-96.441462360">
        <ele>2152.000</ele>
        <time>2019-01-19T18:36:10Z</time>
        <name>WPT.419</name>
      </trkpt>
      <trkpt lat="17.326066440" lon="-96.441441030">
        <ele>2153.000</ele>
        <time>2019-01-19T18:36:13Z</time>
        <name>WPT.420</name>
      </trkpt>
      <trkpt lat="17.326047690" lon="-96.441406160">
        <ele>2152.000</ele>
        <time>2019-01-19T18:36:21Z</time>
        <name>WPT.421</name>
      </trkpt>
      <trkpt lat="17.326016420" lon="-96.441374090">
        <ele>2154.000</ele>
        <time>2019-01-19T18:36:26Z</time>
        <name>WPT.422</name>
      </trkpt>
      <trkpt lat="17.325995870" lon="-96.441338870">
        <ele>2155.000</ele>
        <time>2019-01-19T18:36:32Z</time>
        <name>WPT.423</name>
      </trkpt>
      <trkpt lat="17.325986590" lon="-96.441302210">
        <ele>2155.000</ele>
        <time>2019-01-19T18:36:37Z</time>
        <name>WPT.424</name>
      </trkpt>
      <trkpt lat="17.325985140" lon="-96.441260820">
        <ele>2158.000</ele>
        <time>2019-01-19T18:36:44Z</time>
        <name>WPT.425</name>
      </trkpt>
      <trkpt lat="17.325964000" lon="-96.441224460">
        <ele>2158.000</ele>
        <time>2019-01-19T18:36:48Z</time>
        <name>WPT.426</name>
      </trkpt>
      <trkpt lat="17.325950680" lon="-96.441188250">
        <ele>2158.000</ele>
        <time>2019-01-19T18:36:52Z</time>
        <name>WPT.427</name>
      </trkpt>
      <trkpt lat="17.325932370" lon="-96.441154520">
        <ele>2160.000</ele>
        <time>2019-01-19T18:36:58Z</time>
        <name>WPT.428</name>
      </trkpt>
      <trkpt lat="17.325933650" lon="-96.441115930">
        <ele>2161.000</ele>
        <time>2019-01-19T18:37:03Z</time>
        <name>WPT.429</name>
      </trkpt>
      <trkpt lat="17.325910580" lon="-96.441076480">
        <ele>2163.000</ele>
        <time>2019-01-19T18:37:08Z</time>
        <name>WPT.430</name>
      </trkpt>
      <trkpt lat="17.325890530" lon="-96.441044160">
        <ele>2164.000</ele>
        <time>2019-01-19T18:37:12Z</time>
        <name>WPT.431</name>
      </trkpt>
      <trkpt lat="17.325870000" lon="-96.441012610">
        <ele>2163.000</ele>
        <time>2019-01-19T18:37:17Z</time>
        <name>WPT.432</name>
      </trkpt>
      <trkpt lat="17.325833370" lon="-96.440984240">
        <ele>2160.000</ele>
        <time>2019-01-19T18:37:22Z</time>
        <name>WPT.433</name>
      </trkpt>
      <trkpt lat="17.325812700" lon="-96.440950670">
        <ele>2159.000</ele>
        <time>2019-01-19T18:37:33Z</time>
        <name>WPT.434</name>
      </trkpt>
      <trkpt lat="17.325795010" lon="-96.440915720">
        <ele>2161.000</ele>
        <time>2019-01-19T18:37:40Z</time>
        <name>WPT.435</name>
      </trkpt>
      <trkpt lat="17.325782070" lon="-96.440877570">
        <ele>2162.000</ele>
        <time>2019-01-19T18:37:58Z</time>
        <name>WPT.436</name>
      </trkpt>
      <trkpt lat="17.325777290" lon="-96.440839050">
        <ele>2160.000</ele>
        <time>2019-01-19T18:38:13Z</time>
        <name>WPT.437</name>
      </trkpt>
      <trkpt lat="17.325770600" lon="-96.440798990">
        <ele>2158.000</ele>
        <time>2019-01-19T18:38:33Z</time>
        <name>WPT.438</name>
      </trkpt>
      <trkpt lat="17.325761510" lon="-96.440762570">
        <ele>2160.000</ele>
        <time>2019-01-19T18:38:37Z</time>
        <name>WPT.439</name>
      </trkpt>
      <trkpt lat="17.325762990" lon="-96.440714390">
        <ele>2161.000</ele>
        <time>2019-01-19T18:38:52Z</time>
        <name>WPT.440</name>
      </trkpt>
      <trkpt lat="17.325740290" lon="-96.440681380">
        <ele>2159.000</ele>
        <time>2019-01-19T18:38:55Z</time>
        <name>WPT.441</name>
      </trkpt>
      <trkpt lat="17.325719230" lon="-96.440643550">
        <ele>2160.000</ele>
        <time>2019-01-19T18:39:00Z</time>
        <name>WPT.442</name>
      </trkpt>
      <trkpt lat="17.325677630" lon="-96.440629910">
        <ele>2157.000</ele>
        <time>2019-01-19T18:39:05Z</time>
        <name>WPT.443</name>
      </trkpt>
      <trkpt lat="17.325641620" lon="-96.440633800">
        <ele>2155.000</ele>
        <time>2019-01-19T18:39:09Z</time>
        <name>WPT.444</name>
      </trkpt>
      <trkpt lat="17.325645810" lon="-96.440584440">
        <ele>2156.000</ele>
        <time>2019-01-19T18:39:51Z</time>
        <name>WPT.445</name>
      </trkpt>
      <trkpt lat="17.325618250" lon="-96.440547220">
        <ele>2157.000</ele>
        <time>2019-01-19T18:39:55Z</time>
        <name>WPT.446</name>
      </trkpt>
      <trkpt lat="17.325603270" lon="-96.440507340">
        <ele>2156.000</ele>
        <time>2019-01-19T18:40:01Z</time>
        <name>WPT.447</name>
      </trkpt>
      <trkpt lat="17.325605210" lon="-96.440460520">
        <ele>2158.000</ele>
        <time>2019-01-19T18:40:07Z</time>
        <name>WPT.448</name>
      </trkpt>
      <trkpt lat="17.325593250" lon="-96.440418820">
        <ele>2161.000</ele>
        <time>2019-01-19T18:40:12Z</time>
        <name>WPT.449</name>
      </trkpt>
      <trkpt lat="17.325583970" lon="-96.440374530">
        <ele>2162.000</ele>
        <time>2019-01-19T18:40:19Z</time>
        <name>WPT.450</name>
      </trkpt>
      <trkpt lat="17.325566610" lon="-96.440336510">
        <ele>2161.000</ele>
        <time>2019-01-19T18:40:24Z</time>
        <name>WPT.451</name>
      </trkpt>
      <trkpt lat="17.325555260" lon="-96.440299040">
        <ele>2164.000</ele>
        <time>2019-01-19T18:40:30Z</time>
        <name>WPT.452</name>
      </trkpt>
      <trkpt lat="17.325555080" lon="-96.440259710">
        <ele>2164.000</ele>
        <time>2019-01-19T18:40:35Z</time>
        <name>WPT.453</name>
      </trkpt>
      <trkpt lat="17.325555570" lon="-96.440213060">
        <ele>2162.000</ele>
        <time>2019-01-19T18:40:39Z</time>
        <name>WPT.454</name>
      </trkpt>
      <trkpt lat="17.325558120" lon="-96.440170240">
        <ele>2163.000</ele>
        <time>2019-01-19T18:40:44Z</time>
        <name>WPT.455</name>
      </trkpt>
      <trkpt lat="17.325565080" lon="-96.440132270">
        <ele>2162.000</ele>
        <time>2019-01-19T18:40:48Z</time>
        <name>WPT.456</name>
      </trkpt>
      <trkpt lat="17.325560490" lon="-96.440090570">
        <ele>2162.000</ele>
        <time>2019-01-19T18:40:52Z</time>
        <name>WPT.457</name>
      </trkpt>
      <trkpt lat="17.325563460" lon="-96.440047810">
        <ele>2160.000</ele>
        <time>2019-01-19T18:40:57Z</time>
        <name>WPT.458</name>
      </trkpt>
      <trkpt lat="17.325547290" lon="-96.440000700">
        <ele>2160.000</ele>
        <time>2019-01-19T18:41:02Z</time>
        <name>WPT.459</name>
      </trkpt>
      <trkpt lat="17.325533400" lon="-96.439958460">
        <ele>2163.000</ele>
        <time>2019-01-19T18:41:08Z</time>
        <name>WPT.460</name>
      </trkpt>
      <trkpt lat="17.325515980" lon="-96.439919690">
        <ele>2165.000</ele>
        <time>2019-01-19T18:41:14Z</time>
        <name>WPT.461</name>
      </trkpt>
      <trkpt lat="17.325502920" lon="-96.439883470">
        <ele>2166.000</ele>
        <time>2019-01-19T18:41:20Z</time>
        <name>WPT.462</name>
      </trkpt>
      <trkpt lat="17.325479580" lon="-96.439849000">
        <ele>2167.000</ele>
        <time>2019-01-19T18:41:27Z</time>
        <name>WPT.463</name>
      </trkpt>
      <trkpt lat="17.325474190" lon="-96.439803130">
        <ele>2168.000</ele>
        <time>2019-01-19T18:41:33Z</time>
        <name>WPT.464</name>
      </trkpt>
      <trkpt lat="17.325452840" lon="-96.439772720">
        <ele>2166.000</ele>
        <time>2019-01-19T18:41:40Z</time>
        <name>WPT.465</name>
      </trkpt>
      <trkpt lat="17.325419070" lon="-96.439743540">
        <ele>2167.000</ele>
        <time>2019-01-19T18:41:47Z</time>
        <name>WPT.466</name>
      </trkpt>
      <trkpt lat="17.325391480" lon="-96.439718700">
        <ele>2165.000</ele>
        <time>2019-01-19T18:41:56Z</time>
        <name>WPT.467</name>
      </trkpt>
      <trkpt lat="17.325353530" lon="-96.439709260">
        <ele>2166.000</ele>
        <time>2019-01-19T18:42:33Z</time>
        <name>WPT.468</name>
      </trkpt>
      <trkpt lat="17.325315900" lon="-96.439707590">
        <ele>2169.000</ele>
        <time>2019-01-19T18:42:43Z</time>
        <name>WPT.469</name>
      </trkpt>
      <trkpt lat="17.325279690" lon="-96.439698470">
        <ele>2170.000</ele>
        <time>2019-01-19T18:42:56Z</time>
        <name>WPT.470</name>
      </trkpt>
      <trkpt lat="17.325242460" lon="-96.439705480">
        <ele>2168.000</ele>
        <time>2019-01-19T18:42:59Z</time>
        <name>WPT.471</name>
      </trkpt>
      <trkpt lat="17.325201230" lon="-96.439695770">
        <ele>2168.000</ele>
        <time>2019-01-19T18:43:05Z</time>
        <name>WPT.472</name>
      </trkpt>
      <trkpt lat="17.325163420" lon="-96.439669010">
        <ele>2173.000</ele>
        <time>2019-01-19T18:43:13Z</time>
        <name>WPT.473</name>
      </trkpt>
      <trkpt lat="17.325127450" lon="-96.439664060">
        <ele>2174.000</ele>
        <time>2019-01-19T18:43:19Z</time>
        <name>WPT.474</name>
      </trkpt>
      <trkpt lat="17.325092880" lon="-96.439647890">
        <ele>2177.000</ele>
        <time>2019-01-19T18:43:28Z</time>
        <name>WPT.475</name>
      </trkpt>
      <trkpt lat="17.325057430" lon="-96.439631100">
        <ele>2175.000</ele>
        <time>2019-01-19T18:43:35Z</time>
        <name>WPT.476</name>
      </trkpt>
      <trkpt lat="17.325015190" lon="-96.439624110">
        <ele>2176.000</ele>
        <time>2019-01-19T18:43:39Z</time>
        <name>WPT.477</name>
      </trkpt>
      <trkpt lat="17.324977130" lon="-96.439616190">
        <ele>2175.000</ele>
        <time>2019-01-19T18:43:47Z</time>
        <name>WPT.478</name>
      </trkpt>
      <trkpt lat="17.324942400" lon="-96.439605770">
        <ele>2174.000</ele>
        <time>2019-01-19T18:43:54Z</time>
        <name>WPT.479</name>
      </trkpt>
      <trkpt lat="17.324908180" lon="-96.439582990">
        <ele>2174.000</ele>
        <time>2019-01-19T18:44:04Z</time>
        <name>WPT.480</name>
      </trkpt>
      <trkpt lat="17.324876080" lon="-96.439561210">
        <ele>2177.000</ele>
        <time>2019-01-19T18:44:10Z</time>
        <name>WPT.481</name>
      </trkpt>
      <trkpt lat="17.324837010" lon="-96.439546990">
        <ele>2180.000</ele>
        <time>2019-01-19T18:44:19Z</time>
        <name>WPT.482</name>
      </trkpt>
      <trkpt lat="17.324807280" lon="-96.439522110">
        <ele>2180.000</ele>
        <time>2019-01-19T18:44:24Z</time>
        <name>WPT.483</name>
      </trkpt>
      <trkpt lat="17.324772850" lon="-96.439501490">
        <ele>2176.000</ele>
        <time>2019-01-19T18:44:31Z</time>
        <name>WPT.484</name>
      </trkpt>
      <trkpt lat="17.324740370" lon="-96.439481290">
        <ele>2179.000</ele>
        <time>2019-01-19T18:44:36Z</time>
        <name>WPT.485</name>
      </trkpt>
      <trkpt lat="17.324707020" lon="-96.439455740">
        <ele>2183.000</ele>
        <time>2019-01-19T18:44:42Z</time>
        <name>WPT.486</name>
      </trkpt>
      <trkpt lat="17.324670300" lon="-96.439430710">
        <ele>2183.000</ele>
        <time>2019-01-19T18:44:51Z</time>
        <name>WPT.487</name>
      </trkpt>
      <trkpt lat="17.324641850" lon="-96.439404940">
        <ele>2186.000</ele>
        <time>2019-01-19T18:44:58Z</time>
        <name>WPT.488</name>
      </trkpt>
      <trkpt lat="17.324600990" lon="-96.439400240">
        <ele>2186.000</ele>
        <time>2019-01-19T18:45:00Z</time>
        <name>WPT.489</name>
      </trkpt>
      <trkpt lat="17.324556460" lon="-96.439397800">
        <ele>2187.000</ele>
        <time>2019-01-19T18:45:03Z</time>
        <name>WPT.490</name>
      </trkpt>
      <trkpt lat="17.324510050" lon="-96.439391530">
        <ele>2185.000</ele>
        <time>2019-01-19T18:45:08Z</time>
        <name>WPT.491</name>
      </trkpt>
      <trkpt lat="17.324474310" lon="-96.439406060">
        <ele>2188.000</ele>
        <time>2019-01-19T18:45:16Z</time>
        <name>WPT.492</name>
      </trkpt>
      <trkpt lat="17.324436920" lon="-96.439399760">
        <ele>2183.000</ele>
        <time>2019-01-19T18:46:09Z</time>
        <name>WPT.493</name>
      </trkpt>
      <trkpt lat="17.324402240" lon="-96.439418760">
        <ele>2182.000</ele>
        <time>2019-01-19T18:46:21Z</time>
        <name>WPT.494</name>
      </trkpt>
      <trkpt lat="17.324373860" lon="-96.439451460">
        <ele>2179.000</ele>
        <time>2019-01-19T18:46:32Z</time>
        <name>WPT.495</name>
      </trkpt>
      <trkpt lat="17.324343920" lon="-96.439481110">
        <ele>2180.000</ele>
        <time>2019-01-19T18:46:40Z</time>
        <name>WPT.496</name>
      </trkpt>
      <trkpt lat="17.324338690" lon="-96.439526460">
        <ele>2180.000</ele>
        <time>2019-01-19T18:46:52Z</time>
        <name>WPT.497</name>
      </trkpt>
      <trkpt lat="17.324302530" lon="-96.439544460">
        <ele>2183.000</ele>
        <time>2019-01-19T18:47:14Z</time>
        <name>WPT.498</name>
      </trkpt>
      <trkpt lat="17.324265190" lon="-96.439568640">
        <ele>2185.000</ele>
        <time>2019-01-19T18:47:25Z</time>
        <name>WPT.499</name>
      </trkpt>
      <trkpt lat="17.324228670" lon="-96.439582800">
        <ele>2183.000</ele>
        <time>2019-01-19T18:47:32Z</time>
        <name>WPT.500</name>
      </trkpt>
      <trkpt lat="17.324191740" lon="-96.439600300">
        <ele>2181.000</ele>
        <time>2019-01-19T18:47:35Z</time>
        <name>WPT.501</name>
      </trkpt>
      <trkpt lat="17.324152380" lon="-96.439603750">
        <ele>2182.000</ele>
        <time>2019-01-19T18:47:40Z</time>
        <name>WPT.502</name>
      </trkpt>
      <trkpt lat="17.324113620" lon="-96.439606380">
        <ele>2184.000</ele>
        <time>2019-01-19T18:47:45Z</time>
        <name>WPT.503</name>
      </trkpt>
      <trkpt lat="17.324065570" lon="-96.439610200">
        <ele>2182.000</ele>
        <time>2019-01-19T18:47:50Z</time>
        <name>WPT.504</name>
      </trkpt>
      <trkpt lat="17.324028480" lon="-96.439603780">
        <ele>2179.000</ele>
        <time>2019-01-19T18:47:54Z</time>
        <name>WPT.505</name>
      </trkpt>
      <trkpt lat="17.323996090" lon="-96.439642770">
        <ele>2180.000</ele>
        <time>2019-01-19T18:48:01Z</time>
        <name>WPT.506</name>
      </trkpt>
      <trkpt lat="17.323970080" lon="-96.439673630">
        <ele>2181.000</ele>
        <time>2019-01-19T18:48:05Z</time>
        <name>WPT.507</name>
      </trkpt>
      <trkpt lat="17.323952240" lon="-96.439708010">
        <ele>2182.000</ele>
        <time>2019-01-19T18:48:13Z</time>
        <name>WPT.508</name>
      </trkpt>
      <trkpt lat="17.323935060" lon="-96.439758440">
        <ele>2180.000</ele>
        <time>2019-01-19T18:48:16Z</time>
        <name>WPT.509</name>
      </trkpt>
      <trkpt lat="17.323904100" lon="-96.439804800">
        <ele>2181.000</ele>
        <time>2019-01-19T18:48:19Z</time>
        <name>WPT.510</name>
      </trkpt>
      <trkpt lat="17.323883920" lon="-96.439836060">
        <ele>2178.000</ele>
        <time>2019-01-19T18:48:22Z</time>
        <name>WPT.511</name>
      </trkpt>
      <trkpt lat="17.323859210" lon="-96.439876130">
        <ele>2176.000</ele>
        <time>2019-01-19T18:48:26Z</time>
        <name>WPT.512</name>
      </trkpt>
      <trkpt lat="17.323845910" lon="-96.439914330">
        <ele>2175.000</ele>
        <time>2019-01-19T18:48:32Z</time>
        <name>WPT.513</name>
      </trkpt>
      <trkpt lat="17.323826840" lon="-96.439946940">
        <ele>2179.000</ele>
        <time>2019-01-19T18:48:40Z</time>
        <name>WPT.514</name>
      </trkpt>
      <trkpt lat="17.323795250" lon="-96.439968000">
        <ele>2179.000</ele>
        <time>2019-01-19T18:48:44Z</time>
        <name>WPT.515</name>
      </trkpt>
      <trkpt lat="17.323762730" lon="-96.439985630">
        <ele>2178.000</ele>
        <time>2019-01-19T18:48:47Z</time>
        <name>WPT.516</name>
      </trkpt>
      <trkpt lat="17.323730610" lon="-96.440012700">
        <ele>2179.000</ele>
        <time>2019-01-19T18:48:53Z</time>
        <name>WPT.517</name>
      </trkpt>
      <trkpt lat="17.323692220" lon="-96.440019920">
        <ele>2179.000</ele>
        <time>2019-01-19T18:48:59Z</time>
        <name>WPT.518</name>
      </trkpt>
      <trkpt lat="17.323647450" lon="-96.440018510">
        <ele>2181.000</ele>
        <time>2019-01-19T18:49:04Z</time>
        <name>WPT.519</name>
      </trkpt>
      <trkpt lat="17.323609040" lon="-96.440019350">
        <ele>2184.000</ele>
        <time>2019-01-19T18:49:10Z</time>
        <name>WPT.520</name>
      </trkpt>
      <trkpt lat="17.323562930" lon="-96.440025820">
        <ele>2186.000</ele>
        <time>2019-01-19T18:49:15Z</time>
        <name>WPT.521</name>
      </trkpt>
      <trkpt lat="17.323520140" lon="-96.440045010">
        <ele>2185.000</ele>
        <time>2019-01-19T18:49:20Z</time>
        <name>WPT.522</name>
      </trkpt>
      <trkpt lat="17.323478690" lon="-96.440060350">
        <ele>2187.000</ele>
        <time>2019-01-19T18:49:26Z</time>
        <name>WPT.523</name>
      </trkpt>
      <trkpt lat="17.323440950" lon="-96.440082970">
        <ele>2185.000</ele>
        <time>2019-01-19T18:49:30Z</time>
        <name>WPT.524</name>
      </trkpt>
      <trkpt lat="17.323406240" lon="-96.440109920">
        <ele>2181.000</ele>
        <time>2019-01-19T18:49:33Z</time>
        <name>WPT.525</name>
      </trkpt>
      <trkpt lat="17.323374880" lon="-96.440136050">
        <ele>2180.000</ele>
        <time>2019-01-19T18:49:38Z</time>
        <name>WPT.526</name>
      </trkpt>
      <trkpt lat="17.323342840" lon="-96.440154350">
        <ele>2179.000</ele>
        <time>2019-01-19T18:49:42Z</time>
        <name>WPT.527</name>
      </trkpt>
      <trkpt lat="17.323306040" lon="-96.440178740">
        <ele>2180.000</ele>
        <time>2019-01-19T18:49:48Z</time>
        <name>WPT.528</name>
      </trkpt>
      <trkpt lat="17.323281200" lon="-96.440211220">
        <ele>2177.000</ele>
        <time>2019-01-19T18:49:52Z</time>
        <name>WPT.529</name>
      </trkpt>
      <trkpt lat="17.323246970" lon="-96.440231860">
        <ele>2176.000</ele>
        <time>2019-01-19T18:49:58Z</time>
        <name>WPT.530</name>
      </trkpt>
      <trkpt lat="17.323211780" lon="-96.440221710">
        <ele>2176.000</ele>
        <time>2019-01-19T18:50:03Z</time>
        <name>WPT.531</name>
      </trkpt>
      <trkpt lat="17.323170070" lon="-96.440215850">
        <ele>2174.000</ele>
        <time>2019-01-19T18:50:07Z</time>
        <name>WPT.532</name>
      </trkpt>
      <trkpt lat="17.323131890" lon="-96.440205310">
        <ele>2174.000</ele>
        <time>2019-01-19T18:50:12Z</time>
        <name>WPT.533</name>
      </trkpt>
      <trkpt lat="17.323100030" lon="-96.440185760">
        <ele>2181.000</ele>
        <time>2019-01-19T18:51:25Z</time>
        <name>WPT.534</name>
      </trkpt>
      <trkpt lat="17.323059290" lon="-96.440167730">
        <ele>2176.000</ele>
        <time>2019-01-19T18:52:35Z</time>
        <name>WPT.535</name>
      </trkpt>
      <trkpt lat="17.323014980" lon="-96.440169030">
        <ele>2179.000</ele>
        <time>2019-01-19T18:52:40Z</time>
        <name>WPT.536</name>
      </trkpt>
      <trkpt lat="17.322970450" lon="-96.440176280">
        <ele>2180.000</ele>
        <time>2019-01-19T18:52:45Z</time>
        <name>WPT.537</name>
      </trkpt>
      <trkpt lat="17.322931970" lon="-96.440169650">
        <ele>2181.000</ele>
        <time>2019-01-19T18:52:53Z</time>
        <name>WPT.538</name>
      </trkpt>
      <trkpt lat="17.322886460" lon="-96.440162740">
        <ele>2181.000</ele>
        <time>2019-01-19T18:52:57Z</time>
        <name>WPT.539</name>
      </trkpt>
      <trkpt lat="17.322850060" lon="-96.440154400">
        <ele>2180.000</ele>
        <time>2019-01-19T18:53:00Z</time>
        <name>WPT.540</name>
      </trkpt>
      <trkpt lat="17.322806180" lon="-96.440144320">
        <ele>2180.000</ele>
        <time>2019-01-19T18:53:03Z</time>
        <name>WPT.541</name>
      </trkpt>
      <trkpt lat="17.322766070" lon="-96.440149940">
        <ele>2179.000</ele>
        <time>2019-01-19T18:53:08Z</time>
        <name>WPT.542</name>
      </trkpt>
      <trkpt lat="17.322733530" lon="-96.440176310">
        <ele>2184.000</ele>
        <time>2019-01-19T18:53:13Z</time>
        <name>WPT.543</name>
      </trkpt>
      <trkpt lat="17.322700000" lon="-96.440197280">
        <ele>2185.000</ele>
        <time>2019-01-19T18:53:17Z</time>
        <name>WPT.544</name>
      </trkpt>
      <trkpt lat="17.322657890" lon="-96.440193250">
        <ele>2186.000</ele>
        <time>2019-01-19T18:53:22Z</time>
        <name>WPT.545</name>
      </trkpt>
      <trkpt lat="17.322617720" lon="-96.440189630">
        <ele>2188.000</ele>
        <time>2019-01-19T18:53:27Z</time>
        <name>WPT.546</name>
      </trkpt>
      <trkpt lat="17.322580130" lon="-96.440176980">
        <ele>2190.000</ele>
        <time>2019-01-19T18:53:32Z</time>
        <name>WPT.547</name>
      </trkpt>
      <trkpt lat="17.322543250" lon="-96.440167510">
        <ele>2184.000</ele>
        <time>2019-01-19T18:53:35Z</time>
        <name>WPT.548</name>
      </trkpt>
      <trkpt lat="17.322505170" lon="-96.440150640">
        <ele>2181.000</ele>
        <time>2019-01-19T18:53:41Z</time>
        <name>WPT.549</name>
      </trkpt>
      <trkpt lat="17.322473210" lon="-96.440127360">
        <ele>2182.000</ele>
        <time>2019-01-19T18:53:46Z</time>
        <name>WPT.550</name>
      </trkpt>
      <trkpt lat="17.322434980" lon="-96.440114900">
        <ele>2181.000</ele>
        <time>2019-01-19T18:53:52Z</time>
        <name>WPT.551</name>
      </trkpt>
      <trkpt lat="17.322400560" lon="-96.440092890">
        <ele>2183.000</ele>
        <time>2019-01-19T18:53:58Z</time>
        <name>WPT.552</name>
      </trkpt>
      <trkpt lat="17.322371990" lon="-96.440067590">
        <ele>2183.000</ele>
        <time>2019-01-19T18:54:03Z</time>
        <name>WPT.553</name>
      </trkpt>
      <trkpt lat="17.322338790" lon="-96.440040750">
        <ele>2181.000</ele>
        <time>2019-01-19T18:54:06Z</time>
        <name>WPT.554</name>
      </trkpt>
      <trkpt lat="17.322300270" lon="-96.440038690">
        <ele>2181.000</ele>
        <time>2019-01-19T18:54:10Z</time>
        <name>WPT.555</name>
      </trkpt>
      <trkpt lat="17.322266370" lon="-96.440025530">
        <ele>2182.000</ele>
        <time>2019-01-19T18:54:14Z</time>
        <name>WPT.556</name>
      </trkpt>
      <trkpt lat="17.322229800" lon="-96.440016740">
        <ele>2184.000</ele>
        <time>2019-01-19T18:54:19Z</time>
        <name>WPT.557</name>
      </trkpt>
      <trkpt lat="17.322193740" lon="-96.439989010">
        <ele>2187.000</ele>
        <time>2019-01-19T18:54:24Z</time>
        <name>WPT.558</name>
      </trkpt>
      <trkpt lat="17.322150470" lon="-96.439966140">
        <ele>2187.000</ele>
        <time>2019-01-19T18:54:30Z</time>
        <name>WPT.559</name>
      </trkpt>
      <trkpt lat="17.322106150" lon="-96.439948090">
        <ele>2191.000</ele>
        <time>2019-01-19T18:54:38Z</time>
        <name>WPT.560</name>
      </trkpt>
      <trkpt lat="17.322070420" lon="-96.439940430">
        <ele>2194.000</ele>
        <time>2019-01-19T18:54:44Z</time>
        <name>WPT.561</name>
      </trkpt>
      <trkpt lat="17.322028830" lon="-96.439925990">
        <ele>2194.000</ele>
        <time>2019-01-19T18:54:47Z</time>
        <name>WPT.562</name>
      </trkpt>
      <trkpt lat="17.321983300" lon="-96.439905840">
        <ele>2193.000</ele>
        <time>2019-01-19T18:54:54Z</time>
        <name>WPT.563</name>
      </trkpt>
      <trkpt lat="17.321943590" lon="-96.439883150">
        <ele>2193.000</ele>
        <time>2019-01-19T18:54:58Z</time>
        <name>WPT.564</name>
      </trkpt>
      <trkpt lat="17.321912440" lon="-96.439851450">
        <ele>2193.000</ele>
        <time>2019-01-19T18:55:02Z</time>
        <name>WPT.565</name>
      </trkpt>
      <trkpt lat="17.321885100" lon="-96.439818690">
        <ele>2192.000</ele>
        <time>2019-01-19T18:55:08Z</time>
        <name>WPT.566</name>
      </trkpt>
      <trkpt lat="17.321861390" lon="-96.439789810">
        <ele>2194.000</ele>
        <time>2019-01-19T18:55:12Z</time>
        <name>WPT.567</name>
      </trkpt>
      <trkpt lat="17.321821970" lon="-96.439765380">
        <ele>2194.000</ele>
        <time>2019-01-19T18:55:17Z</time>
        <name>WPT.568</name>
      </trkpt>
      <trkpt lat="17.321785870" lon="-96.439740460">
        <ele>2193.000</ele>
        <time>2019-01-19T18:55:21Z</time>
        <name>WPT.569</name>
      </trkpt>
      <trkpt lat="17.321767570" lon="-96.439706450">
        <ele>2193.000</ele>
        <time>2019-01-19T18:55:25Z</time>
        <name>WPT.570</name>
      </trkpt>
      <trkpt lat="17.321732960" lon="-96.439672950">
        <ele>2191.000</ele>
        <time>2019-01-19T18:55:29Z</time>
        <name>WPT.571</name>
      </trkpt>
      <trkpt lat="17.321706290" lon="-96.439638480">
        <ele>2188.000</ele>
        <time>2019-01-19T18:55:33Z</time>
        <name>WPT.572</name>
      </trkpt>
      <trkpt lat="17.321681520" lon="-96.439609400">
        <ele>2186.000</ele>
        <time>2019-01-19T18:55:36Z</time>
        <name>WPT.573</name>
      </trkpt>
      <trkpt lat="17.321656590" lon="-96.439578910">
        <ele>2186.000</ele>
        <time>2019-01-19T18:55:40Z</time>
        <name>WPT.574</name>
      </trkpt>
      <trkpt lat="17.321632070" lon="-96.439544020">
        <ele>2186.000</ele>
        <time>2019-01-19T18:55:46Z</time>
        <name>WPT.575</name>
      </trkpt>
      <trkpt lat="17.321626420" lon="-96.439498420">
        <ele>2185.000</ele>
        <time>2019-01-19T18:55:51Z</time>
        <name>WPT.576</name>
      </trkpt>
      <trkpt lat="17.321621550" lon="-96.439454380">
        <ele>2186.000</ele>
        <time>2019-01-19T18:55:55Z</time>
        <name>WPT.577</name>
      </trkpt>
      <trkpt lat="17.321603790" lon="-96.439412570">
        <ele>2188.000</ele>
        <time>2019-01-19T18:56:01Z</time>
        <name>WPT.578</name>
      </trkpt>
      <trkpt lat="17.321581700" lon="-96.439373780">
        <ele>2186.000</ele>
        <time>2019-01-19T18:56:05Z</time>
        <name>WPT.579</name>
      </trkpt>
      <trkpt lat="17.321564290" lon="-96.439327990">
        <ele>2189.000</ele>
        <time>2019-01-19T18:56:10Z</time>
        <name>WPT.580</name>
      </trkpt>
      <trkpt lat="17.321557120" lon="-96.439289380">
        <ele>2189.000</ele>
        <time>2019-01-19T18:56:15Z</time>
        <name>WPT.581</name>
      </trkpt>
      <trkpt lat="17.321541570" lon="-96.439248670">
        <ele>2190.000</ele>
        <time>2019-01-19T18:56:19Z</time>
        <name>WPT.582</name>
      </trkpt>
      <trkpt lat="17.321517910" lon="-96.439207840">
        <ele>2186.000</ele>
        <time>2019-01-19T18:56:23Z</time>
        <name>WPT.583</name>
      </trkpt>
      <trkpt lat="17.321499030" lon="-96.439175210">
        <ele>2186.000</ele>
        <time>2019-01-19T18:56:26Z</time>
        <name>WPT.584</name>
      </trkpt>
      <trkpt lat="17.321483780" lon="-96.439134550">
        <ele>2187.000</ele>
        <time>2019-01-19T18:56:30Z</time>
        <name>WPT.585</name>
      </trkpt>
      <trkpt lat="17.321466080" lon="-96.439101160">
        <ele>2188.000</ele>
        <time>2019-01-19T18:56:35Z</time>
        <name>WPT.586</name>
      </trkpt>
      <trkpt lat="17.321431430" lon="-96.439074940">
        <ele>2188.000</ele>
        <time>2019-01-19T18:56:40Z</time>
        <name>WPT.587</name>
      </trkpt>
      <trkpt lat="17.321405760" lon="-96.439045170">
        <ele>2194.000</ele>
        <time>2019-01-19T18:56:47Z</time>
        <name>WPT.588</name>
      </trkpt>
      <trkpt lat="17.321378620" lon="-96.439011480">
        <ele>2195.000</ele>
        <time>2019-01-19T18:56:52Z</time>
        <name>WPT.589</name>
      </trkpt>
      <trkpt lat="17.321344720" lon="-96.438997720">
        <ele>2193.000</ele>
        <time>2019-01-19T18:56:55Z</time>
        <name>WPT.590</name>
      </trkpt>
      <trkpt lat="17.321309760" lon="-96.438980030">
        <ele>2194.000</ele>
        <time>2019-01-19T18:57:00Z</time>
        <name>WPT.591</name>
      </trkpt>
      <trkpt lat="17.321262710" lon="-96.438979120">
        <ele>2192.000</ele>
        <time>2019-01-19T18:57:04Z</time>
        <name>WPT.592</name>
      </trkpt>
      <trkpt lat="17.321218710" lon="-96.438987440">
        <ele>2192.000</ele>
        <time>2019-01-19T18:57:08Z</time>
        <name>WPT.593</name>
      </trkpt>
      <trkpt lat="17.321177130" lon="-96.438986270">
        <ele>2192.000</ele>
        <time>2019-01-19T18:57:11Z</time>
        <name>WPT.594</name>
      </trkpt>
      <trkpt lat="17.321140320" lon="-96.438987830">
        <ele>2192.000</ele>
        <time>2019-01-19T18:57:15Z</time>
        <name>WPT.595</name>
      </trkpt>
      <trkpt lat="17.321101000" lon="-96.438989530">
        <ele>2192.000</ele>
        <time>2019-01-19T18:57:20Z</time>
        <name>WPT.596</name>
      </trkpt>
      <trkpt lat="17.321063220" lon="-96.438998080">
        <ele>2191.000</ele>
        <time>2019-01-19T18:57:24Z</time>
        <name>WPT.597</name>
      </trkpt>
      <trkpt lat="17.321023740" lon="-96.439014130">
        <ele>2187.000</ele>
        <time>2019-01-19T18:57:27Z</time>
        <name>WPT.598</name>
      </trkpt>
      <trkpt lat="17.320985710" lon="-96.439025610">
        <ele>2185.000</ele>
        <time>2019-01-19T18:57:30Z</time>
        <name>WPT.599</name>
      </trkpt>
      <trkpt lat="17.320949420" lon="-96.439029260">
        <ele>2183.000</ele>
        <time>2019-01-19T18:57:33Z</time>
        <name>WPT.600</name>
      </trkpt>
      <trkpt lat="17.320909400" lon="-96.439037770">
        <ele>2183.000</ele>
        <time>2019-01-19T18:57:38Z</time>
        <name>WPT.601</name>
      </trkpt>
      <trkpt lat="17.320878310" lon="-96.439069270">
        <ele>2190.000</ele>
        <time>2019-01-19T18:57:43Z</time>
        <name>WPT.602</name>
      </trkpt>
      <trkpt lat="17.320846670" lon="-96.439088910">
        <ele>2192.000</ele>
        <time>2019-01-19T18:57:47Z</time>
        <name>WPT.603</name>
      </trkpt>
      <trkpt lat="17.320814580" lon="-96.439113550">
        <ele>2190.000</ele>
        <time>2019-01-19T18:57:55Z</time>
        <name>WPT.604</name>
      </trkpt>
      <trkpt lat="17.320770200" lon="-96.439124400">
        <ele>2189.000</ele>
        <time>2019-01-19T18:57:59Z</time>
        <name>WPT.605</name>
      </trkpt>
      <trkpt lat="17.320733030" lon="-96.439132840">
        <ele>2187.000</ele>
        <time>2019-01-19T18:58:04Z</time>
        <name>WPT.606</name>
      </trkpt>
      <trkpt lat="17.320690240" lon="-96.439108380">
        <ele>2187.000</ele>
        <time>2019-01-19T18:58:07Z</time>
        <name>WPT.607</name>
      </trkpt>
      <trkpt lat="17.320653610" lon="-96.439090980">
        <ele>2189.000</ele>
        <time>2019-01-19T18:58:11Z</time>
        <name>WPT.608</name>
      </trkpt>
      <trkpt lat="17.320602440" lon="-96.439071000">
        <ele>2182.000</ele>
        <time>2019-01-19T18:58:15Z</time>
        <name>WPT.609</name>
      </trkpt>
      <trkpt lat="17.320566810" lon="-96.439043440">
        <ele>2185.000</ele>
        <time>2019-01-19T18:58:20Z</time>
        <name>WPT.610</name>
      </trkpt>
      <trkpt lat="17.320533380" lon="-96.439015200">
        <ele>2183.000</ele>
        <time>2019-01-19T18:58:25Z</time>
        <name>WPT.611</name>
      </trkpt>
      <trkpt lat="17.320527730" lon="-96.438976040">
        <ele>2182.000</ele>
        <time>2019-01-19T18:58:30Z</time>
        <name>WPT.612</name>
      </trkpt>
      <trkpt lat="17.320527150" lon="-96.438933850">
        <ele>2182.000</ele>
        <time>2019-01-19T18:58:36Z</time>
        <name>WPT.613</name>
      </trkpt>
      <trkpt lat="17.320512380" lon="-96.438897900">
        <ele>2180.000</ele>
        <time>2019-01-19T18:58:40Z</time>
        <name>WPT.614</name>
      </trkpt>
      <trkpt lat="17.320488970" lon="-96.438865570">
        <ele>2181.000</ele>
        <time>2019-01-19T18:58:45Z</time>
        <name>WPT.615</name>
      </trkpt>
      <trkpt lat="17.320470400" lon="-96.438827690">
        <ele>2181.000</ele>
        <time>2019-01-19T18:58:49Z</time>
        <name>WPT.616</name>
      </trkpt>
      <trkpt lat="17.320426890" lon="-96.438832970">
        <ele>2183.000</ele>
        <time>2019-01-19T18:58:55Z</time>
        <name>WPT.617</name>
      </trkpt>
      <trkpt lat="17.320393950" lon="-96.438849670">
        <ele>2184.000</ele>
        <time>2019-01-19T18:58:58Z</time>
        <name>WPT.618</name>
      </trkpt>
      <trkpt lat="17.320351810" lon="-96.438876660">
        <ele>2181.000</ele>
        <time>2019-01-19T18:59:02Z</time>
        <name>WPT.619</name>
      </trkpt>
      <trkpt lat="17.320316620" lon="-96.438890920">
        <ele>2180.000</ele>
        <time>2019-01-19T18:59:05Z</time>
        <name>WPT.620</name>
      </trkpt>
      <trkpt lat="17.320279190" lon="-96.438899450">
        <ele>2179.000</ele>
        <time>2019-01-19T18:59:08Z</time>
        <name>WPT.621</name>
      </trkpt>
      <trkpt lat="17.320239030" lon="-96.438902630">
        <ele>2177.000</ele>
        <time>2019-01-19T18:59:12Z</time>
        <name>WPT.622</name>
      </trkpt>
      <trkpt lat="17.320200840" lon="-96.438912970">
        <ele>2178.000</ele>
        <time>2019-01-19T18:59:17Z</time>
        <name>WPT.623</name>
      </trkpt>
      <trkpt lat="17.320154320" lon="-96.438909620">
        <ele>2185.000</ele>
        <time>2019-01-19T18:59:23Z</time>
        <name>WPT.624</name>
      </trkpt>
      <trkpt lat="17.320114510" lon="-96.438917700">
        <ele>2188.000</ele>
        <time>2019-01-19T18:59:28Z</time>
        <name>WPT.625</name>
      </trkpt>
      <trkpt lat="17.320078900" lon="-96.438927870">
        <ele>2188.000</ele>
        <time>2019-01-19T18:59:33Z</time>
        <name>WPT.626</name>
      </trkpt>
      <trkpt lat="17.320038710" lon="-96.438927660">
        <ele>2191.000</ele>
        <time>2019-01-19T18:59:39Z</time>
        <name>WPT.627</name>
      </trkpt>
      <trkpt lat="17.320001770" lon="-96.438951810">
        <ele>2189.000</ele>
        <time>2019-01-19T18:59:44Z</time>
        <name>WPT.628</name>
      </trkpt>
      <trkpt lat="17.319961250" lon="-96.438980430">
        <ele>2185.000</ele>
        <time>2019-01-19T18:59:47Z</time>
        <name>WPT.629</name>
      </trkpt>
      <trkpt lat="17.319924920" lon="-96.438991970">
        <ele>2182.000</ele>
        <time>2019-01-19T18:59:50Z</time>
        <name>WPT.630</name>
      </trkpt>
      <trkpt lat="17.319889640" lon="-96.439005400">
        <ele>2183.000</ele>
        <time>2019-01-19T18:59:53Z</time>
        <name>WPT.631</name>
      </trkpt>
      <trkpt lat="17.319845360" lon="-96.439027600">
        <ele>2179.000</ele>
        <time>2019-01-19T18:59:56Z</time>
        <name>WPT.632</name>
      </trkpt>
      <trkpt lat="17.319803550" lon="-96.439028770">
        <ele>2181.000</ele>
        <time>2019-01-19T19:00:04Z</time>
        <name>WPT.633</name>
      </trkpt>
      <trkpt lat="17.319760430" lon="-96.439042910">
        <ele>2181.000</ele>
        <time>2019-01-19T19:00:08Z</time>
        <name>WPT.634</name>
      </trkpt>
      <trkpt lat="17.319722850" lon="-96.439047040">
        <ele>2183.000</ele>
        <time>2019-01-19T19:00:12Z</time>
        <name>WPT.635</name>
      </trkpt>
      <trkpt lat="17.319686000" lon="-96.439044020">
        <ele>2182.000</ele>
        <time>2019-01-19T19:00:16Z</time>
        <name>WPT.636</name>
      </trkpt>
      <trkpt lat="17.319646170" lon="-96.439045280">
        <ele>2184.000</ele>
        <time>2019-01-19T19:00:22Z</time>
        <name>WPT.637</name>
      </trkpt>
      <trkpt lat="17.319608540" lon="-96.439052340">
        <ele>2182.000</ele>
        <time>2019-01-19T19:00:27Z</time>
        <name>WPT.638</name>
      </trkpt>
      <trkpt lat="17.319570130" lon="-96.439053620">
        <ele>2184.000</ele>
        <time>2019-01-19T19:00:33Z</time>
        <name>WPT.639</name>
      </trkpt>
      <trkpt lat="17.319521610" lon="-96.439064730">
        <ele>2184.000</ele>
        <time>2019-01-19T19:00:41Z</time>
        <name>WPT.640</name>
      </trkpt>
      <trkpt lat="17.319469740" lon="-96.439079100">
        <ele>2182.000</ele>
        <time>2019-01-19T19:00:46Z</time>
        <name>WPT.641</name>
      </trkpt>
      <trkpt lat="17.319427590" lon="-96.439096710">
        <ele>2181.000</ele>
        <time>2019-01-19T19:00:51Z</time>
        <name>WPT.642</name>
      </trkpt>
      <trkpt lat="17.319391340" lon="-96.439102740">
        <ele>2182.000</ele>
        <time>2019-01-19T19:00:56Z</time>
        <name>WPT.643</name>
      </trkpt>
      <trkpt lat="17.319355740" lon="-96.439113170">
        <ele>2182.000</ele>
        <time>2019-01-19T19:01:00Z</time>
        <name>WPT.644</name>
      </trkpt>
      <trkpt lat="17.319314020" lon="-96.439110620">
        <ele>2183.000</ele>
        <time>2019-01-19T19:01:06Z</time>
        <name>WPT.645</name>
      </trkpt>
      <trkpt lat="17.319256570" lon="-96.439124670">
        <ele>2183.000</ele>
        <time>2019-01-19T19:01:11Z</time>
        <name>WPT.646</name>
      </trkpt>
      <trkpt lat="17.319214700" lon="-96.439120840">
        <ele>2185.000</ele>
        <time>2019-01-19T19:01:14Z</time>
        <name>WPT.647</name>
      </trkpt>
      <trkpt lat="17.319168750" lon="-96.439109070">
        <ele>2187.000</ele>
        <time>2019-01-19T19:01:18Z</time>
        <name>WPT.648</name>
      </trkpt>
      <trkpt lat="17.319129490" lon="-96.439100550">
        <ele>2190.000</ele>
        <time>2019-01-19T19:01:21Z</time>
        <name>WPT.649</name>
      </trkpt>
      <trkpt lat="17.319089490" lon="-96.439112700">
        <ele>2186.000</ele>
        <time>2019-01-19T19:01:28Z</time>
        <name>WPT.650</name>
      </trkpt>
      <trkpt lat="17.319053510" lon="-96.439122680">
        <ele>2184.000</ele>
        <time>2019-01-19T19:01:31Z</time>
        <name>WPT.651</name>
      </trkpt>
      <trkpt lat="17.319011780" lon="-96.439124500">
        <ele>2181.000</ele>
        <time>2019-01-19T19:01:36Z</time>
        <name>WPT.652</name>
      </trkpt>
      <trkpt lat="17.318960950" lon="-96.439117550">
        <ele>2181.000</ele>
        <time>2019-01-19T19:01:42Z</time>
        <name>WPT.653</name>
      </trkpt>
      <trkpt lat="17.318920540" lon="-96.439115140">
        <ele>2181.000</ele>
        <time>2019-01-19T19:01:45Z</time>
        <name>WPT.654</name>
      </trkpt>
      <trkpt lat="17.318881860" lon="-96.439106310">
        <ele>2180.000</ele>
        <time>2019-01-19T19:01:48Z</time>
        <name>WPT.655</name>
      </trkpt>
      <trkpt lat="17.318837830" lon="-96.439108420">
        <ele>2179.000</ele>
        <time>2019-01-19T19:01:53Z</time>
        <name>WPT.656</name>
      </trkpt>
      <trkpt lat="17.318801370" lon="-96.439094080">
        <ele>2180.000</ele>
        <time>2019-01-19T19:01:57Z</time>
        <name>WPT.657</name>
      </trkpt>
      <trkpt lat="17.318759270" lon="-96.439084810">
        <ele>2182.000</ele>
        <time>2019-01-19T19:02:01Z</time>
        <name>WPT.658</name>
      </trkpt>
      <trkpt lat="17.318722450" lon="-96.439083280">
        <ele>2181.000</ele>
        <time>2019-01-19T19:02:04Z</time>
        <name>WPT.659</name>
      </trkpt>
      <trkpt lat="17.318676990" lon="-96.439076070">
        <ele>2181.000</ele>
        <time>2019-01-19T19:02:08Z</time>
        <name>WPT.660</name>
      </trkpt>
      <trkpt lat="17.318636080" lon="-96.439064600">
        <ele>2182.000</ele>
        <time>2019-01-19T19:02:13Z</time>
        <name>WPT.661</name>
      </trkpt>
      <trkpt lat="17.318599060" lon="-96.439062260">
        <ele>2181.000</ele>
        <time>2019-01-19T19:02:17Z</time>
        <name>WPT.662</name>
      </trkpt>
      <trkpt lat="17.318558120" lon="-96.439063440">
        <ele>2178.000</ele>
        <time>2019-01-19T19:02:23Z</time>
        <name>WPT.663</name>
      </trkpt>
      <trkpt lat="17.318521510" lon="-96.439065810">
        <ele>2177.000</ele>
        <time>2019-01-19T19:02:26Z</time>
        <name>WPT.664</name>
      </trkpt>
      <trkpt lat="17.318485690" lon="-96.439057820">
        <ele>2176.000</ele>
        <time>2019-01-19T19:02:30Z</time>
        <name>WPT.665</name>
      </trkpt>
      <trkpt lat="17.318450120" lon="-96.439045920">
        <ele>2180.000</ele>
        <time>2019-01-19T19:02:34Z</time>
        <name>WPT.666</name>
      </trkpt>
      <trkpt lat="17.318409040" lon="-96.439030050">
        <ele>2181.000</ele>
        <time>2019-01-19T19:02:39Z</time>
        <name>WPT.667</name>
      </trkpt>
      <trkpt lat="17.318372650" lon="-96.439030740">
        <ele>2183.000</ele>
        <time>2019-01-19T19:02:45Z</time>
        <name>WPT.668</name>
      </trkpt>
      <trkpt lat="17.318332660" lon="-96.439026850">
        <ele>2185.000</ele>
        <time>2019-01-19T19:02:48Z</time>
        <name>WPT.669</name>
      </trkpt>
      <trkpt lat="17.318295880" lon="-96.439031410">
        <ele>2185.000</ele>
        <time>2019-01-19T19:02:51Z</time>
        <name>WPT.670</name>
      </trkpt>
      <trkpt lat="17.318252060" lon="-96.439021690">
        <ele>2184.000</ele>
        <time>2019-01-19T19:02:55Z</time>
        <name>WPT.671</name>
      </trkpt>
      <trkpt lat="17.318214390" lon="-96.439022660">
        <ele>2183.000</ele>
        <time>2019-01-19T19:02:58Z</time>
        <name>WPT.672</name>
      </trkpt>
      <trkpt lat="17.318175070" lon="-96.439013760">
        <ele>2181.000</ele>
        <time>2019-01-19T19:03:02Z</time>
        <name>WPT.673</name>
      </trkpt>
      <trkpt lat="17.318132280" lon="-96.439008760">
        <ele>2182.000</ele>
        <time>2019-01-19T19:03:06Z</time>
        <name>WPT.674</name>
      </trkpt>
      <trkpt lat="17.318090800" lon="-96.439016430">
        <ele>2180.000</ele>
        <time>2019-01-19T19:03:10Z</time>
        <name>WPT.675</name>
      </trkpt>
      <trkpt lat="17.318052320" lon="-96.439016670">
        <ele>2179.000</ele>
        <time>2019-01-19T19:03:14Z</time>
        <name>WPT.676</name>
      </trkpt>
      <trkpt lat="17.318009050" lon="-96.439012560">
        <ele>2179.000</ele>
        <time>2019-01-19T19:03:18Z</time>
        <name>WPT.677</name>
      </trkpt>
      <trkpt lat="17.317973230" lon="-96.439005650">
        <ele>2179.000</ele>
        <time>2019-01-19T19:03:21Z</time>
        <name>WPT.678</name>
      </trkpt>
      <trkpt lat="17.317928160" lon="-96.439011830">
        <ele>2179.000</ele>
        <time>2019-01-19T19:03:26Z</time>
        <name>WPT.679</name>
      </trkpt>
      <trkpt lat="17.317891760" lon="-96.439001720">
        <ele>2179.000</ele>
        <time>2019-01-19T19:03:30Z</time>
        <name>WPT.680</name>
      </trkpt>
      <trkpt lat="17.317847150" lon="-96.439000250">
        <ele>2179.000</ele>
        <time>2019-01-19T19:03:35Z</time>
        <name>WPT.681</name>
      </trkpt>
      <trkpt lat="17.317806790" lon="-96.439013040">
        <ele>2179.000</ele>
        <time>2019-01-19T19:03:41Z</time>
        <name>WPT.682</name>
      </trkpt>
      <trkpt lat="17.317764290" lon="-96.439008460">
        <ele>2179.000</ele>
        <time>2019-01-19T19:03:48Z</time>
        <name>WPT.683</name>
      </trkpt>
      <trkpt lat="17.317713130" lon="-96.438988880">
        <ele>2179.000</ele>
        <time>2019-01-19T19:03:51Z</time>
        <name>WPT.684</name>
      </trkpt>
      <trkpt lat="17.317661770" lon="-96.438993060">
        <ele>2178.000</ele>
        <time>2019-01-19T19:03:55Z</time>
        <name>WPT.685</name>
      </trkpt>
      <trkpt lat="17.317623850" lon="-96.438988290">
        <ele>2177.000</ele>
        <time>2019-01-19T19:03:59Z</time>
        <name>WPT.686</name>
      </trkpt>
      <trkpt lat="17.317588080" lon="-96.438994900">
        <ele>2177.000</ele>
        <time>2019-01-19T19:04:06Z</time>
        <name>WPT.687</name>
      </trkpt>
      <trkpt lat="17.317535580" lon="-96.438988810">
        <ele>2176.000</ele>
        <time>2019-01-19T19:04:12Z</time>
        <name>WPT.688</name>
      </trkpt>
      <trkpt lat="17.317485530" lon="-96.438977880">
        <ele>2175.000</ele>
        <time>2019-01-19T19:04:16Z</time>
        <name>WPT.689</name>
      </trkpt>
      <trkpt lat="17.317445930" lon="-96.438971200">
        <ele>2176.000</ele>
        <time>2019-01-19T19:04:20Z</time>
        <name>WPT.690</name>
      </trkpt>
      <trkpt lat="17.317406230" lon="-96.438946050">
        <ele>2175.000</ele>
        <time>2019-01-19T19:04:26Z</time>
        <name>WPT.691</name>
      </trkpt>
      <trkpt lat="17.317375470" lon="-96.438917250">
        <ele>2174.000</ele>
        <time>2019-01-19T19:04:30Z</time>
        <name>WPT.692</name>
      </trkpt>
      <trkpt lat="17.317335780" lon="-96.438899380">
        <ele>2172.000</ele>
        <time>2019-01-19T19:04:34Z</time>
        <name>WPT.693</name>
      </trkpt>
      <trkpt lat="17.317304170" lon="-96.438876100">
        <ele>2173.000</ele>
        <time>2019-01-19T19:04:41Z</time>
        <name>WPT.694</name>
      </trkpt>
      <trkpt lat="17.317263730" lon="-96.438851400">
        <ele>2176.000</ele>
        <time>2019-01-19T19:04:46Z</time>
        <name>WPT.695</name>
      </trkpt>
      <trkpt lat="17.317229070" lon="-96.438833780">
        <ele>2177.000</ele>
        <time>2019-01-19T19:04:49Z</time>
        <name>WPT.696</name>
      </trkpt>
      <trkpt lat="17.317184530" lon="-96.438807030">
        <ele>2179.000</ele>
        <time>2019-01-19T19:04:55Z</time>
        <name>WPT.697</name>
      </trkpt>
      <trkpt lat="17.317141870" lon="-96.438799310">
        <ele>2179.000</ele>
        <time>2019-01-19T19:05:00Z</time>
        <name>WPT.698</name>
      </trkpt>
      <trkpt lat="17.317106070" lon="-96.438774000">
        <ele>2181.000</ele>
        <time>2019-01-19T19:05:11Z</time>
        <name>WPT.699</name>
      </trkpt>
      <trkpt lat="17.317083220" lon="-96.438728210">
        <ele>2181.000</ele>
        <time>2019-01-19T19:05:18Z</time>
        <name>WPT.700</name>
      </trkpt>
      <trkpt lat="17.317060080" lon="-96.438690440">
        <ele>2183.000</ele>
        <time>2019-01-19T19:05:21Z</time>
        <name>WPT.701</name>
      </trkpt>
      <trkpt lat="17.317036610" lon="-96.438653790">
        <ele>2181.000</ele>
        <time>2019-01-19T19:05:25Z</time>
        <name>WPT.702</name>
      </trkpt>
      <trkpt lat="17.317013530" lon="-96.438624480">
        <ele>2183.000</ele>
        <time>2019-01-19T19:05:32Z</time>
        <name>WPT.703</name>
      </trkpt>
      <trkpt lat="17.316983500" lon="-96.438586960">
        <ele>2181.000</ele>
        <time>2019-01-19T19:05:36Z</time>
        <name>WPT.704</name>
      </trkpt>
      <trkpt lat="17.316951180" lon="-96.438553380">
        <ele>2182.000</ele>
        <time>2019-01-19T19:05:40Z</time>
        <name>WPT.705</name>
      </trkpt>
      <trkpt lat="17.316928450" lon="-96.438514720">
        <ele>2180.000</ele>
        <time>2019-01-19T19:05:45Z</time>
        <name>WPT.706</name>
      </trkpt>
      <trkpt lat="17.316911230" lon="-96.438475670">
        <ele>2183.000</ele>
        <time>2019-01-19T19:05:50Z</time>
        <name>WPT.707</name>
      </trkpt>
      <trkpt lat="17.316869620" lon="-96.438452680">
        <ele>2184.000</ele>
        <time>2019-01-19T19:05:52Z</time>
        <name>WPT.708</name>
      </trkpt>
      <trkpt lat="17.316826380" lon="-96.438441250">
        <ele>2184.000</ele>
        <time>2019-01-19T19:05:55Z</time>
        <name>WPT.709</name>
      </trkpt>
      <trkpt lat="17.316778770" lon="-96.438435100">
        <ele>2184.000</ele>
        <time>2019-01-19T19:05:59Z</time>
        <name>WPT.710</name>
      </trkpt>
      <trkpt lat="17.316742530" lon="-96.438427890">
        <ele>2183.000</ele>
        <time>2019-01-19T19:06:02Z</time>
        <name>WPT.711</name>
      </trkpt>
      <trkpt lat="17.316705560" lon="-96.438426280">
        <ele>2179.000</ele>
        <time>2019-01-19T19:06:08Z</time>
        <name>WPT.712</name>
      </trkpt>
      <trkpt lat="17.316668710" lon="-96.438412500">
        <ele>2178.000</ele>
        <time>2019-01-19T19:06:21Z</time>
        <name>WPT.713</name>
      </trkpt>
      <trkpt lat="17.316612040" lon="-96.438400360">
        <ele>2174.000</ele>
        <time>2019-01-19T19:06:25Z</time>
        <name>WPT.714</name>
      </trkpt>
      <trkpt lat="17.316573380" lon="-96.438401100">
        <ele>2175.000</ele>
        <time>2019-01-19T19:06:29Z</time>
        <name>WPT.715</name>
      </trkpt>
      <trkpt lat="17.316540380" lon="-96.438423440">
        <ele>2175.000</ele>
        <time>2019-01-19T19:06:33Z</time>
        <name>WPT.716</name>
      </trkpt>
      <trkpt lat="17.316508370" lon="-96.438442570">
        <ele>2173.000</ele>
        <time>2019-01-19T19:06:37Z</time>
        <name>WPT.717</name>
      </trkpt>
      <trkpt lat="17.316485710" lon="-96.438477070">
        <ele>2175.000</ele>
        <time>2019-01-19T19:06:41Z</time>
        <name>WPT.718</name>
      </trkpt>
      <trkpt lat="17.316453610" lon="-96.438504110">
        <ele>2173.000</ele>
        <time>2019-01-19T19:06:44Z</time>
        <name>WPT.719</name>
      </trkpt>
      <trkpt lat="17.316423180" lon="-96.438530770">
        <ele>2168.000</ele>
        <time>2019-01-19T19:06:48Z</time>
        <name>WPT.720</name>
      </trkpt>
      <trkpt lat="17.316388690" lon="-96.438545680">
        <ele>2166.000</ele>
        <time>2019-01-19T19:06:51Z</time>
        <name>WPT.721</name>
      </trkpt>
      <trkpt lat="17.316352450" lon="-96.438566860">
        <ele>2162.000</ele>
        <time>2019-01-19T19:06:56Z</time>
        <name>WPT.722</name>
      </trkpt>
      <trkpt lat="17.316319790" lon="-96.438606280">
        <ele>2161.000</ele>
        <time>2019-01-19T19:07:00Z</time>
        <name>WPT.723</name>
      </trkpt>
      <trkpt lat="17.316291800" lon="-96.438641920">
        <ele>2160.000</ele>
        <time>2019-01-19T19:07:04Z</time>
        <name>WPT.724</name>
      </trkpt>
      <trkpt lat="17.316266290" lon="-96.438673410">
        <ele>2160.000</ele>
        <time>2019-01-19T19:07:07Z</time>
        <name>WPT.725</name>
      </trkpt>
      <trkpt lat="17.316251450" lon="-96.438708400">
        <ele>2162.000</ele>
        <time>2019-01-19T19:07:10Z</time>
        <name>WPT.726</name>
      </trkpt>
      <trkpt lat="17.316210830" lon="-96.438723740">
        <ele>2159.000</ele>
        <time>2019-01-19T19:07:15Z</time>
        <name>WPT.727</name>
      </trkpt>
      <trkpt lat="17.316183080" lon="-96.438750500">
        <ele>2160.000</ele>
        <time>2019-01-19T19:07:20Z</time>
        <name>WPT.728</name>
      </trkpt>
      <trkpt lat="17.316146470" lon="-96.438773960">
        <ele>2159.000</ele>
        <time>2019-01-19T19:07:28Z</time>
        <name>WPT.729</name>
      </trkpt>
      <trkpt lat="17.316112980" lon="-96.438795030">
        <ele>2159.000</ele>
        <time>2019-01-19T19:07:34Z</time>
        <name>WPT.730</name>
      </trkpt>
      <trkpt lat="17.316077390" lon="-96.438778290">
        <ele>2158.000</ele>
        <time>2019-01-19T19:07:38Z</time>
        <name>WPT.731</name>
      </trkpt>
      <trkpt lat="17.316055840" lon="-96.438744500">
        <ele>2161.000</ele>
        <time>2019-01-19T19:07:44Z</time>
        <name>WPT.732</name>
      </trkpt>
      <trkpt lat="17.316037690" lon="-96.438706590">
        <ele>2163.000</ele>
        <time>2019-01-19T19:07:50Z</time>
        <name>WPT.733</name>
      </trkpt>
      <trkpt lat="17.316003800" lon="-96.438684020">
        <ele>2164.000</ele>
        <time>2019-01-19T19:07:56Z</time>
        <name>WPT.734</name>
      </trkpt>
      <trkpt lat="17.315980950" lon="-96.438647150">
        <ele>2166.000</ele>
        <time>2019-01-19T19:08:02Z</time>
        <name>WPT.735</name>
      </trkpt>
      <trkpt lat="17.315951880" lon="-96.438619410">
        <ele>2167.000</ele>
        <time>2019-01-19T19:08:06Z</time>
        <name>WPT.736</name>
      </trkpt>
      <trkpt lat="17.315920520" lon="-96.438592250">
        <ele>2166.000</ele>
        <time>2019-01-19T19:08:13Z</time>
        <name>WPT.737</name>
      </trkpt>
      <trkpt lat="17.315897470" lon="-96.438561970">
        <ele>2164.000</ele>
        <time>2019-01-19T19:08:19Z</time>
        <name>WPT.738</name>
      </trkpt>
      <trkpt lat="17.315858910" lon="-96.438532120">
        <ele>2168.000</ele>
        <time>2019-01-19T19:08:23Z</time>
        <name>WPT.739</name>
      </trkpt>
      <trkpt lat="17.315824900" lon="-96.438511510">
        <ele>2171.000</ele>
        <time>2019-01-19T19:08:29Z</time>
        <name>WPT.740</name>
      </trkpt>
      <trkpt lat="17.315792950" lon="-96.438478670">
        <ele>2172.000</ele>
        <time>2019-01-19T19:08:35Z</time>
        <name>WPT.741</name>
      </trkpt>
      <trkpt lat="17.315777490" lon="-96.438434020">
        <ele>2170.000</ele>
        <time>2019-01-19T19:08:38Z</time>
        <name>WPT.742</name>
      </trkpt>
      <trkpt lat="17.315741880" lon="-96.438408610">
        <ele>2170.000</ele>
        <time>2019-01-19T19:08:48Z</time>
        <name>WPT.743</name>
      </trkpt>
      <trkpt lat="17.315712860" lon="-96.438379690">
        <ele>2170.000</ele>
        <time>2019-01-19T19:08:54Z</time>
        <name>WPT.744</name>
      </trkpt>
      <trkpt lat="17.315681970" lon="-96.438352410">
        <ele>2170.000</ele>
        <time>2019-01-19T19:08:59Z</time>
        <name>WPT.745</name>
      </trkpt>
      <trkpt lat="17.315647090" lon="-96.438331040">
        <ele>2171.000</ele>
        <time>2019-01-19T19:09:05Z</time>
        <name>WPT.746</name>
      </trkpt>
      <trkpt lat="17.315612390" lon="-96.438303950">
        <ele>2172.000</ele>
        <time>2019-01-19T19:09:09Z</time>
        <name>WPT.747</name>
      </trkpt>
      <trkpt lat="17.315570430" lon="-96.438280760">
        <ele>2172.000</ele>
        <time>2019-01-19T19:09:14Z</time>
        <name>WPT.748</name>
      </trkpt>
      <trkpt lat="17.315529860" lon="-96.438276810">
        <ele>2172.000</ele>
        <time>2019-01-19T19:09:18Z</time>
        <name>WPT.749</name>
      </trkpt>
      <trkpt lat="17.315483440" lon="-96.438268870">
        <ele>2171.000</ele>
        <time>2019-01-19T19:09:23Z</time>
        <name>WPT.750</name>
      </trkpt>
      <trkpt lat="17.315442350" lon="-96.438284330">
        <ele>2170.000</ele>
        <time>2019-01-19T19:09:27Z</time>
        <name>WPT.751</name>
      </trkpt>
      <trkpt lat="17.315406030" lon="-96.438293730">
        <ele>2169.000</ele>
        <time>2019-01-19T19:09:30Z</time>
        <name>WPT.752</name>
      </trkpt>
      <trkpt lat="17.315366770" lon="-96.438304930">
        <ele>2166.000</ele>
        <time>2019-01-19T19:11:27Z</time>
        <name>WPT.753</name>
      </trkpt>
      <trkpt lat="17.315388040" lon="-96.438335980">
        <ele>2162.000</ele>
        <time>2019-01-19T19:11:47Z</time>
        <name>WPT.754</name>
      </trkpt>
      <trkpt lat="17.315349200" lon="-96.438326080">
        <ele>2167.000</ele>
        <time>2019-01-19T19:15:03Z</time>
        <name>WPT.755</name>
      </trkpt>
      <trkpt lat="17.315312900" lon="-96.438327440">
        <ele>2171.000</ele>
        <time>2019-01-19T19:15:08Z</time>
        <name>WPT.756</name>
      </trkpt>
      <trkpt lat="17.315275390" lon="-96.438318260">
        <ele>2171.000</ele>
        <time>2019-01-19T19:15:13Z</time>
        <name>WPT.757</name>
      </trkpt>
      <trkpt lat="17.315236330" lon="-96.438311320">
        <ele>2168.000</ele>
        <time>2019-01-19T19:15:20Z</time>
        <name>WPT.758</name>
      </trkpt>
      <trkpt lat="17.315198230" lon="-96.438281020">
        <ele>2168.000</ele>
        <time>2019-01-19T19:15:25Z</time>
        <name>WPT.759</name>
      </trkpt>
      <trkpt lat="17.315159540" lon="-96.438257950">
        <ele>2165.000</ele>
        <time>2019-01-19T19:15:28Z</time>
        <name>WPT.760</name>
      </trkpt>
      <trkpt lat="17.315123450" lon="-96.438227110">
        <ele>2162.000</ele>
        <time>2019-01-19T19:15:32Z</time>
        <name>WPT.761</name>
      </trkpt>
      <trkpt lat="17.315101890" lon="-96.438188690">
        <ele>2161.000</ele>
        <time>2019-01-19T19:15:38Z</time>
        <name>WPT.762</name>
      </trkpt>
      <trkpt lat="17.315086740" lon="-96.438148000">
        <ele>2164.000</ele>
        <time>2019-01-19T19:15:45Z</time>
        <name>WPT.763</name>
      </trkpt>
      <trkpt lat="17.315087860" lon="-96.438107230">
        <ele>2163.000</ele>
        <time>2019-01-19T19:15:52Z</time>
        <name>WPT.764</name>
      </trkpt>
      <trkpt lat="17.315102480" lon="-96.438072050">
        <ele>2163.000</ele>
        <time>2019-01-19T19:15:57Z</time>
        <name>WPT.765</name>
      </trkpt>
      <trkpt lat="17.315095340" lon="-96.438032280">
        <ele>2169.000</ele>
        <time>2019-01-19T19:16:05Z</time>
        <name>WPT.766</name>
      </trkpt>
      <trkpt lat="17.315085710" lon="-96.437994290">
        <ele>2172.000</ele>
        <time>2019-01-19T19:17:17Z</time>
        <name>WPT.767</name>
      </trkpt>
      <trkpt lat="17.315053240" lon="-96.437975860">
        <ele>2168.000</ele>
        <time>2019-01-19T19:17:32Z</time>
        <name>WPT.768</name>
      </trkpt>
      <trkpt lat="17.315025380" lon="-96.437999830">
        <ele>2166.000</ele>
        <time>2019-01-19T19:17:36Z</time>
        <name>WPT.769</name>
      </trkpt>
      <trkpt lat="17.314992120" lon="-96.438018900">
        <ele>2166.000</ele>
        <time>2019-01-19T19:17:39Z</time>
        <name>WPT.770</name>
      </trkpt>
      <trkpt lat="17.314957540" lon="-96.438037140">
        <ele>2159.000</ele>
        <time>2019-01-19T19:17:44Z</time>
        <name>WPT.771</name>
      </trkpt>
      <trkpt lat="17.314930660" lon="-96.438073040">
        <ele>2159.000</ele>
        <time>2019-01-19T19:17:48Z</time>
        <name>WPT.772</name>
      </trkpt>
      <trkpt lat="17.314903970" lon="-96.438112620">
        <ele>2159.000</ele>
        <time>2019-01-19T19:17:54Z</time>
        <name>WPT.773</name>
      </trkpt>
      <trkpt lat="17.314891040" lon="-96.438150930">
        <ele>2159.000</ele>
        <time>2019-01-19T19:17:57Z</time>
        <name>WPT.774</name>
      </trkpt>
      <trkpt lat="17.314881520" lon="-96.438188840">
        <ele>2158.000</ele>
        <time>2019-01-19T19:18:03Z</time>
        <name>WPT.775</name>
      </trkpt>
      <trkpt lat="17.314862390" lon="-96.438229980">
        <ele>2158.000</ele>
        <time>2019-01-19T19:18:09Z</time>
        <name>WPT.776</name>
      </trkpt>
      <trkpt lat="17.314845760" lon="-96.438266390">
        <ele>2158.000</ele>
        <time>2019-01-19T19:18:14Z</time>
        <name>WPT.777</name>
      </trkpt>
      <trkpt lat="17.314839310" lon="-96.438308740">
        <ele>2160.000</ele>
        <time>2019-01-19T19:18:19Z</time>
        <name>WPT.778</name>
      </trkpt>
      <trkpt lat="17.314811640" lon="-96.438334800">
        <ele>2157.000</ele>
        <time>2019-01-19T19:18:22Z</time>
        <name>WPT.779</name>
      </trkpt>
      <trkpt lat="17.314778430" lon="-96.438358690">
        <ele>2155.000</ele>
        <time>2019-01-19T19:18:25Z</time>
        <name>WPT.780</name>
      </trkpt>
      <trkpt lat="17.314761200" lon="-96.438397850">
        <ele>2156.000</ele>
        <time>2019-01-19T19:18:29Z</time>
        <name>WPT.781</name>
      </trkpt>
      <trkpt lat="17.314736650" lon="-96.438426080">
        <ele>2155.000</ele>
        <time>2019-01-19T19:18:33Z</time>
        <name>WPT.782</name>
      </trkpt>
      <trkpt lat="17.314703600" lon="-96.438446800">
        <ele>2153.000</ele>
        <time>2019-01-19T19:18:38Z</time>
        <name>WPT.783</name>
      </trkpt>
      <trkpt lat="17.314675220" lon="-96.438471090">
        <ele>2153.000</ele>
        <time>2019-01-19T19:18:41Z</time>
        <name>WPT.784</name>
      </trkpt>
      <trkpt lat="17.314651490" lon="-96.438504920">
        <ele>2156.000</ele>
        <time>2019-01-19T19:18:50Z</time>
        <name>WPT.785</name>
      </trkpt>
      <trkpt lat="17.314625550" lon="-96.438533250">
        <ele>2156.000</ele>
        <time>2019-01-19T19:18:54Z</time>
        <name>WPT.786</name>
      </trkpt>
      <trkpt lat="17.314607840" lon="-96.438568750">
        <ele>2160.000</ele>
        <time>2019-01-19T19:19:01Z</time>
        <name>WPT.787</name>
      </trkpt>
      <trkpt lat="17.314579520" lon="-96.438601410">
        <ele>2160.000</ele>
        <time>2019-01-19T19:19:05Z</time>
        <name>WPT.788</name>
      </trkpt>
      <trkpt lat="17.314550350" lon="-96.438625660">
        <ele>2157.000</ele>
        <time>2019-01-19T19:19:13Z</time>
        <name>WPT.789</name>
      </trkpt>
      <trkpt lat="17.314525620" lon="-96.438657400">
        <ele>2154.000</ele>
        <time>2019-01-19T19:19:21Z</time>
        <name>WPT.790</name>
      </trkpt>
      <trkpt lat="17.314513620" lon="-96.438695260">
        <ele>2153.000</ele>
        <time>2019-01-19T19:19:24Z</time>
        <name>WPT.791</name>
      </trkpt>
      <trkpt lat="17.314490280" lon="-96.438732540">
        <ele>2153.000</ele>
        <time>2019-01-19T19:19:28Z</time>
        <name>WPT.792</name>
      </trkpt>
      <trkpt lat="17.314484660" lon="-96.438785160">
        <ele>2153.000</ele>
        <time>2019-01-19T19:19:31Z</time>
        <name>WPT.793</name>
      </trkpt>
      <trkpt lat="17.314473680" lon="-96.438825590">
        <ele>2153.000</ele>
        <time>2019-01-19T19:19:37Z</time>
        <name>WPT.794</name>
      </trkpt>
      <trkpt lat="17.314441740" lon="-96.438851450">
        <ele>2150.000</ele>
        <time>2019-01-19T19:19:40Z</time>
        <name>WPT.795</name>
      </trkpt>
      <trkpt lat="17.314424120" lon="-96.438889460">
        <ele>2151.000</ele>
        <time>2019-01-19T19:19:45Z</time>
        <name>WPT.796</name>
      </trkpt>
      <trkpt lat="17.314398520" lon="-96.438929070">
        <ele>2152.000</ele>
        <time>2019-01-19T19:19:50Z</time>
        <name>WPT.797</name>
      </trkpt>
      <trkpt lat="17.314375080" lon="-96.438970340">
        <ele>2152.000</ele>
        <time>2019-01-19T19:19:55Z</time>
        <name>WPT.798</name>
      </trkpt>
      <trkpt lat="17.314356980" lon="-96.439011640">
        <ele>2153.000</ele>
        <time>2019-01-19T19:20:01Z</time>
        <name>WPT.799</name>
      </trkpt>
      <trkpt lat="17.314317750" lon="-96.439027750">
        <ele>2152.000</ele>
        <time>2019-01-19T19:20:06Z</time>
        <name>WPT.800</name>
      </trkpt>
      <trkpt lat="17.314282180" lon="-96.439051610">
        <ele>2154.000</ele>
        <time>2019-01-19T19:20:11Z</time>
        <name>WPT.801</name>
      </trkpt>
      <trkpt lat="17.314259730" lon="-96.439081940">
        <ele>2155.000</ele>
        <time>2019-01-19T19:20:16Z</time>
        <name>WPT.802</name>
      </trkpt>
      <trkpt lat="17.314223260" lon="-96.439105720">
        <ele>2154.000</ele>
        <time>2019-01-19T19:20:22Z</time>
        <name>WPT.803</name>
      </trkpt>
      <trkpt lat="17.314198030" lon="-96.439133850">
        <ele>2156.000</ele>
        <time>2019-01-19T19:20:26Z</time>
        <name>WPT.804</name>
      </trkpt>
      <trkpt lat="17.314178770" lon="-96.439170300">
        <ele>2159.000</ele>
        <time>2019-01-19T19:20:32Z</time>
        <name>WPT.805</name>
      </trkpt>
      <trkpt lat="17.314147940" lon="-96.439195460">
        <ele>2160.000</ele>
        <time>2019-01-19T19:20:36Z</time>
        <name>WPT.806</name>
      </trkpt>
      <trkpt lat="17.314119820" lon="-96.439219790">
        <ele>2159.000</ele>
        <time>2019-01-19T19:20:42Z</time>
        <name>WPT.807</name>
      </trkpt>
      <trkpt lat="17.314084610" lon="-96.439248940">
        <ele>2160.000</ele>
        <time>2019-01-19T19:20:48Z</time>
        <name>WPT.808</name>
      </trkpt>
      <trkpt lat="17.314055640" lon="-96.439272620">
        <ele>2157.000</ele>
        <time>2019-01-19T19:20:50Z</time>
        <name>WPT.809</name>
      </trkpt>
      <trkpt lat="17.314029180" lon="-96.439301760">
        <ele>2157.000</ele>
        <time>2019-01-19T19:20:54Z</time>
        <name>WPT.810</name>
      </trkpt>
      <trkpt lat="17.313988480" lon="-96.439316190">
        <ele>2156.000</ele>
        <time>2019-01-19T19:20:58Z</time>
        <name>WPT.811</name>
      </trkpt>
      <trkpt lat="17.313950110" lon="-96.439328840">
        <ele>2155.000</ele>
        <time>2019-01-19T19:21:02Z</time>
        <name>WPT.812</name>
      </trkpt>
      <trkpt lat="17.313912440" lon="-96.439340320">
        <ele>2153.000</ele>
        <time>2019-01-19T19:21:08Z</time>
        <name>WPT.813</name>
      </trkpt>
      <trkpt lat="17.313878350" lon="-96.439356510">
        <ele>2153.000</ele>
        <time>2019-01-19T19:21:13Z</time>
        <name>WPT.814</name>
      </trkpt>
      <trkpt lat="17.313838500" lon="-96.439376160">
        <ele>2154.000</ele>
        <time>2019-01-19T19:21:19Z</time>
        <name>WPT.815</name>
      </trkpt>
      <trkpt lat="17.313802920" lon="-96.439401400">
        <ele>2152.000</ele>
        <time>2019-01-19T19:21:34Z</time>
        <name>WPT.816</name>
      </trkpt>
      <trkpt lat="17.313769450" lon="-96.439426170">
        <ele>2151.000</ele>
        <time>2019-01-19T19:21:37Z</time>
        <name>WPT.817</name>
      </trkpt>
      <trkpt lat="17.313731560" lon="-96.439455640">
        <ele>2152.000</ele>
        <time>2019-01-19T19:21:42Z</time>
        <name>WPT.818</name>
      </trkpt>
      <trkpt lat="17.313702370" lon="-96.439484510">
        <ele>2152.000</ele>
        <time>2019-01-19T19:21:46Z</time>
        <name>WPT.819</name>
      </trkpt>
      <trkpt lat="17.313662170" lon="-96.439495760">
        <ele>2151.000</ele>
        <time>2019-01-19T19:21:51Z</time>
        <name>WPT.820</name>
      </trkpt>
      <trkpt lat="17.313624750" lon="-96.439502210">
        <ele>2153.000</ele>
        <time>2019-01-19T19:21:55Z</time>
        <name>WPT.821</name>
      </trkpt>
      <trkpt lat="17.313588300" lon="-96.439512490">
        <ele>2153.000</ele>
        <time>2019-01-19T19:22:00Z</time>
        <name>WPT.822</name>
      </trkpt>
      <trkpt lat="17.313545620" lon="-96.439516920">
        <ele>2153.000</ele>
        <time>2019-01-19T19:22:05Z</time>
        <name>WPT.823</name>
      </trkpt>
      <trkpt lat="17.313510880" lon="-96.439531300">
        <ele>2152.000</ele>
        <time>2019-01-19T19:22:10Z</time>
        <name>WPT.824</name>
      </trkpt>
      <trkpt lat="17.313471320" lon="-96.439545970">
        <ele>2155.000</ele>
        <time>2019-01-19T19:22:43Z</time>
        <name>WPT.825</name>
      </trkpt>
      <trkpt lat="17.313429660" lon="-96.439566200">
        <ele>2157.000</ele>
        <time>2019-01-19T19:22:49Z</time>
        <name>WPT.826</name>
      </trkpt>
      <trkpt lat="17.313374230" lon="-96.439615580">
        <ele>2151.000</ele>
        <time>2019-01-19T19:22:54Z</time>
        <name>WPT.827</name>
      </trkpt>
      <trkpt lat="17.313342480" lon="-96.439642890">
        <ele>2148.000</ele>
        <time>2019-01-19T19:22:58Z</time>
        <name>WPT.828</name>
      </trkpt>
      <trkpt lat="17.313328120" lon="-96.439699550">
        <ele>2149.000</ele>
        <time>2019-01-19T19:23:03Z</time>
        <name>WPT.829</name>
      </trkpt>
      <trkpt lat="17.313313020" lon="-96.439739500">
        <ele>2145.000</ele>
        <time>2019-01-19T19:23:07Z</time>
        <name>WPT.830</name>
      </trkpt>
      <trkpt lat="17.313290070" lon="-96.439771970">
        <ele>2143.000</ele>
        <time>2019-01-19T19:23:12Z</time>
        <name>WPT.831</name>
      </trkpt>
      <trkpt lat="17.313264230" lon="-96.439805430">
        <ele>2144.000</ele>
        <time>2019-01-19T19:23:20Z</time>
        <name>WPT.832</name>
      </trkpt>
      <trkpt lat="17.313231490" lon="-96.439833300">
        <ele>2144.000</ele>
        <time>2019-01-19T19:23:24Z</time>
        <name>WPT.833</name>
      </trkpt>
      <trkpt lat="17.313197060" lon="-96.439855730">
        <ele>2143.000</ele>
        <time>2019-01-19T19:23:30Z</time>
        <name>WPT.834</name>
      </trkpt>
      <trkpt lat="17.313187880" lon="-96.439893480">
        <ele>2153.000</ele>
        <time>2019-01-19T19:24:44Z</time>
        <name>WPT.835</name>
      </trkpt>
      <trkpt lat="17.313183050" lon="-96.439932080">
        <ele>2152.000</ele>
        <time>2019-01-19T19:24:47Z</time>
        <name>WPT.836</name>
      </trkpt>
      <trkpt lat="17.313189190" lon="-96.439977760">
        <ele>2153.000</ele>
        <time>2019-01-19T19:24:50Z</time>
        <name>WPT.837</name>
      </trkpt>
      <trkpt lat="17.313197370" lon="-96.440025090">
        <ele>2155.000</ele>
        <time>2019-01-19T19:24:55Z</time>
        <name>WPT.838</name>
      </trkpt>
      <trkpt lat="17.313194780" lon="-96.440072280">
        <ele>2156.000</ele>
        <time>2019-01-19T19:25:00Z</time>
        <name>WPT.839</name>
      </trkpt>
      <trkpt lat="17.313184380" lon="-96.440116590">
        <ele>2157.000</ele>
        <time>2019-01-19T19:25:05Z</time>
        <name>WPT.840</name>
      </trkpt>
      <trkpt lat="17.313159310" lon="-96.440160200">
        <ele>2153.000</ele>
        <time>2019-01-19T19:25:07Z</time>
        <name>WPT.841</name>
      </trkpt>
      <trkpt lat="17.313141950" lon="-96.440194130">
        <ele>2152.000</ele>
        <time>2019-01-19T19:25:10Z</time>
        <name>WPT.842</name>
      </trkpt>
      <trkpt lat="17.313117960" lon="-96.440232670">
        <ele>2149.000</ele>
        <time>2019-01-19T19:25:12Z</time>
        <name>WPT.843</name>
      </trkpt>
      <trkpt lat="17.313093820" lon="-96.440263920">
        <ele>2149.000</ele>
        <time>2019-01-19T19:25:18Z</time>
        <name>WPT.844</name>
      </trkpt>
      <trkpt lat="17.313081280" lon="-96.440316280">
        <ele>2149.000</ele>
        <time>2019-01-19T19:25:24Z</time>
        <name>WPT.845</name>
      </trkpt>
      <trkpt lat="17.313055470" lon="-96.440377100">
        <ele>2148.000</ele>
        <time>2019-01-19T19:25:29Z</time>
        <name>WPT.846</name>
      </trkpt>
      <trkpt lat="17.313029280" lon="-96.440422260">
        <ele>2148.000</ele>
        <time>2019-01-19T19:25:33Z</time>
        <name>WPT.847</name>
      </trkpt>
      <trkpt lat="17.313025980" lon="-96.440460520">
        <ele>2148.000</ele>
        <time>2019-01-19T19:25:37Z</time>
        <name>WPT.848</name>
      </trkpt>
      <trkpt lat="17.313000200" lon="-96.440492500">
        <ele>2146.000</ele>
        <time>2019-01-19T19:25:40Z</time>
        <name>WPT.849</name>
      </trkpt>
      <trkpt lat="17.312980220" lon="-96.440529620">
        <ele>2145.000</ele>
        <time>2019-01-19T19:26:28Z</time>
        <name>WPT.850</name>
      </trkpt>
      <trkpt lat="17.312978130" lon="-96.440568020">
        <ele>2145.000</ele>
        <time>2019-01-19T19:26:31Z</time>
        <name>WPT.851</name>
      </trkpt>
      <trkpt lat="17.312945360" lon="-96.440605510">
        <ele>2142.000</ele>
        <time>2019-01-19T19:26:35Z</time>
        <name>WPT.852</name>
      </trkpt>
      <trkpt lat="17.312927120" lon="-96.440639490">
        <ele>2141.000</ele>
        <time>2019-01-19T19:26:39Z</time>
        <name>WPT.853</name>
      </trkpt>
      <trkpt lat="17.312901810" lon="-96.440669580">
        <ele>2137.000</ele>
        <time>2019-01-19T19:26:44Z</time>
        <name>WPT.854</name>
      </trkpt>
      <trkpt lat="17.312900160" lon="-96.440716390">
        <ele>2137.000</ele>
        <time>2019-01-19T19:26:50Z</time>
        <name>WPT.855</name>
      </trkpt>
      <trkpt lat="17.312878240" lon="-96.440747490">
        <ele>2137.000</ele>
        <time>2019-01-19T19:26:53Z</time>
        <name>WPT.856</name>
      </trkpt>
      <trkpt lat="17.312861180" lon="-96.440789170">
        <ele>2138.000</ele>
        <time>2019-01-19T19:26:59Z</time>
        <name>WPT.857</name>
      </trkpt>
      <trkpt lat="17.312836770" lon="-96.440823760">
        <ele>2138.000</ele>
        <time>2019-01-19T19:27:04Z</time>
        <name>WPT.858</name>
      </trkpt>
      <trkpt lat="17.312821760" lon="-96.440869470">
        <ele>2136.000</ele>
        <time>2019-01-19T19:27:08Z</time>
        <name>WPT.859</name>
      </trkpt>
      <trkpt lat="17.312817460" lon="-96.440915170">
        <ele>2138.000</ele>
        <time>2019-01-19T19:27:16Z</time>
        <name>WPT.860</name>
      </trkpt>
      <trkpt lat="17.312806300" lon="-96.440954970">
        <ele>2138.000</ele>
        <time>2019-01-19T19:27:19Z</time>
        <name>WPT.861</name>
      </trkpt>
      <trkpt lat="17.312793210" lon="-96.441000220">
        <ele>2138.000</ele>
        <time>2019-01-19T19:27:23Z</time>
        <name>WPT.862</name>
      </trkpt>
      <trkpt lat="17.312778500" lon="-96.441038040">
        <ele>2139.000</ele>
        <time>2019-01-19T19:27:27Z</time>
        <name>WPT.863</name>
      </trkpt>
      <trkpt lat="17.312771180" lon="-96.441076060">
        <ele>2138.000</ele>
        <time>2019-01-19T19:27:30Z</time>
        <name>WPT.864</name>
      </trkpt>
      <trkpt lat="17.312766110" lon="-96.441123760">
        <ele>2139.000</ele>
        <time>2019-01-19T19:27:34Z</time>
        <name>WPT.865</name>
      </trkpt>
      <trkpt lat="17.312757070" lon="-96.441178800">
        <ele>2139.000</ele>
        <time>2019-01-19T19:27:38Z</time>
        <name>WPT.866</name>
      </trkpt>
      <trkpt lat="17.312740240" lon="-96.441225350">
        <ele>2139.000</ele>
        <time>2019-01-19T19:27:42Z</time>
        <name>WPT.867</name>
      </trkpt>
      <trkpt lat="17.312724920" lon="-96.441265580">
        <ele>2140.000</ele>
        <time>2019-01-19T19:27:46Z</time>
        <name>WPT.868</name>
      </trkpt>
      <trkpt lat="17.312713430" lon="-96.441306370">
        <ele>2140.000</ele>
        <time>2019-01-19T19:27:50Z</time>
        <name>WPT.869</name>
      </trkpt>
      <trkpt lat="17.312702020" lon="-96.441350300">
        <ele>2140.000</ele>
        <time>2019-01-19T19:27:54Z</time>
        <name>WPT.870</name>
      </trkpt>
      <trkpt lat="17.312679610" lon="-96.441380760">
        <ele>2139.000</ele>
        <time>2019-01-19T19:27:58Z</time>
        <name>WPT.871</name>
      </trkpt>
      <trkpt lat="17.312661190" lon="-96.441424900">
        <ele>2141.000</ele>
        <time>2019-01-19T19:28:03Z</time>
        <name>WPT.872</name>
      </trkpt>
      <trkpt lat="17.312651540" lon="-96.441461540">
        <ele>2141.000</ele>
        <time>2019-01-19T19:28:06Z</time>
        <name>WPT.873</name>
      </trkpt>
      <trkpt lat="17.312646310" lon="-96.441499880">
        <ele>2142.000</ele>
        <time>2019-01-19T19:28:10Z</time>
        <name>WPT.874</name>
      </trkpt>
      <trkpt lat="17.312636230" lon="-96.441545870">
        <ele>2142.000</ele>
        <time>2019-01-19T19:28:14Z</time>
        <name>WPT.875</name>
      </trkpt>
      <trkpt lat="17.312626760" lon="-96.441582260">
        <ele>2142.000</ele>
        <time>2019-01-19T19:28:17Z</time>
        <name>WPT.876</name>
      </trkpt>
      <trkpt lat="17.312619920" lon="-96.441622850">
        <ele>2144.000</ele>
        <time>2019-01-19T19:28:21Z</time>
        <name>WPT.877</name>
      </trkpt>
      <trkpt lat="17.312606000" lon="-96.441660690">
        <ele>2144.000</ele>
        <time>2019-01-19T19:28:24Z</time>
        <name>WPT.878</name>
      </trkpt>
      <trkpt lat="17.312581010" lon="-96.441690740">
        <ele>2145.000</ele>
        <time>2019-01-19T19:28:28Z</time>
        <name>WPT.879</name>
      </trkpt>
      <trkpt lat="17.312587930" lon="-96.441738020">
        <ele>2145.000</ele>
        <time>2019-01-19T19:28:34Z</time>
        <name>WPT.880</name>
      </trkpt>
      <trkpt lat="17.312584150" lon="-96.441780960">
        <ele>2147.000</ele>
        <time>2019-01-19T19:28:59Z</time>
        <name>WPT.881</name>
      </trkpt>
      <trkpt lat="17.312552490" lon="-96.441810890">
        <ele>2147.000</ele>
        <time>2019-01-19T19:29:04Z</time>
        <name>WPT.882</name>
      </trkpt>
      <trkpt lat="17.312535240" lon="-96.441849090">
        <ele>2147.000</ele>
        <time>2019-01-19T19:29:08Z</time>
        <name>WPT.883</name>
      </trkpt>
      <trkpt lat="17.312535270" lon="-96.441889150">
        <ele>2148.000</ele>
        <time>2019-01-19T19:29:11Z</time>
        <name>WPT.884</name>
      </trkpt>
      <trkpt lat="17.312532630" lon="-96.441931310">
        <ele>2150.000</ele>
        <time>2019-01-19T19:29:15Z</time>
        <name>WPT.885</name>
      </trkpt>
      <trkpt lat="17.312521700" lon="-96.441975910">
        <ele>2150.000</ele>
        <time>2019-01-19T19:29:19Z</time>
        <name>WPT.886</name>
      </trkpt>
      <trkpt lat="17.312509770" lon="-96.442023040">
        <ele>2149.000</ele>
        <time>2019-01-19T19:29:23Z</time>
        <name>WPT.887</name>
      </trkpt>
      <trkpt lat="17.312505240" lon="-96.442069320">
        <ele>2147.000</ele>
        <time>2019-01-19T19:29:27Z</time>
        <name>WPT.888</name>
      </trkpt>
      <trkpt lat="17.312498170" lon="-96.442107780">
        <ele>2148.000</ele>
        <time>2019-01-19T19:29:32Z</time>
        <name>WPT.889</name>
      </trkpt>
      <trkpt lat="17.312502320" lon="-96.442150560">
        <ele>2148.000</ele>
        <time>2019-01-19T19:29:36Z</time>
        <name>WPT.890</name>
      </trkpt>
      <trkpt lat="17.312507080" lon="-96.442196540">
        <ele>2147.000</ele>
        <time>2019-01-19T19:29:41Z</time>
        <name>WPT.891</name>
      </trkpt>
      <trkpt lat="17.312504460" lon="-96.442238210">
        <ele>2147.000</ele>
        <time>2019-01-19T19:29:45Z</time>
        <name>WPT.892</name>
      </trkpt>
      <trkpt lat="17.312512070" lon="-96.442279260">
        <ele>2147.000</ele>
        <time>2019-01-19T19:29:50Z</time>
        <name>WPT.893</name>
      </trkpt>
      <trkpt lat="17.312508560" lon="-96.442328050">
        <ele>2145.000</ele>
        <time>2019-01-19T19:29:56Z</time>
        <name>WPT.894</name>
      </trkpt>
      <trkpt lat="17.312509930" lon="-96.442371260">
        <ele>2145.000</ele>
        <time>2019-01-19T19:30:00Z</time>
        <name>WPT.895</name>
      </trkpt>
      <trkpt lat="17.312511710" lon="-96.442409320">
        <ele>2145.000</ele>
        <time>2019-01-19T19:30:05Z</time>
        <name>WPT.896</name>
      </trkpt>
      <trkpt lat="17.312515460" lon="-96.442455880">
        <ele>2145.000</ele>
        <time>2019-01-19T19:30:10Z</time>
        <name>WPT.897</name>
      </trkpt>
      <trkpt lat="17.312518910" lon="-96.442499020">
        <ele>2144.000</ele>
        <time>2019-01-19T19:30:15Z</time>
        <name>WPT.898</name>
      </trkpt>
      <trkpt lat="17.312529480" lon="-96.442545350">
        <ele>2143.000</ele>
        <time>2019-01-19T19:30:19Z</time>
        <name>WPT.899</name>
      </trkpt>
      <trkpt lat="17.312528290" lon="-96.442585620">
        <ele>2143.000</ele>
        <time>2019-01-19T19:30:23Z</time>
        <name>WPT.900</name>
      </trkpt>
      <trkpt lat="17.312537530" lon="-96.442623950">
        <ele>2141.000</ele>
        <time>2019-01-19T19:30:37Z</time>
        <name>WPT.901</name>
      </trkpt>
      <trkpt lat="17.312505540" lon="-96.442645810">
        <ele>2141.000</ele>
        <time>2019-01-19T19:31:01Z</time>
        <name>WPT.902</name>
      </trkpt>
      <trkpt lat="17.312500680" lon="-96.442686880">
        <ele>2141.000</ele>
        <time>2019-01-19T19:31:06Z</time>
        <name>WPT.903</name>
      </trkpt>
      <trkpt lat="17.312510090" lon="-96.442728010">
        <ele>2142.000</ele>
        <time>2019-01-19T19:31:12Z</time>
        <name>WPT.904</name>
      </trkpt>
      <trkpt lat="17.312511890" lon="-96.442771090">
        <ele>2144.000</ele>
        <time>2019-01-19T19:31:20Z</time>
        <name>WPT.905</name>
      </trkpt>
      <trkpt lat="17.312520760" lon="-96.442812670">
        <ele>2142.000</ele>
        <time>2019-01-19T19:31:23Z</time>
        <name>WPT.906</name>
      </trkpt>
      <trkpt lat="17.312525160" lon="-96.442851120">
        <ele>2141.000</ele>
        <time>2019-01-19T19:31:27Z</time>
        <name>WPT.907</name>
      </trkpt>
      <trkpt lat="17.312517470" lon="-96.442889160">
        <ele>2142.000</ele>
        <time>2019-01-19T19:31:33Z</time>
        <name>WPT.908</name>
      </trkpt>
      <trkpt lat="17.312519650" lon="-96.442930740">
        <ele>2140.000</ele>
        <time>2019-01-19T19:31:38Z</time>
        <name>WPT.909</name>
      </trkpt>
      <trkpt lat="17.312499100" lon="-96.442973150">
        <ele>2139.000</ele>
        <time>2019-01-19T19:31:43Z</time>
        <name>WPT.910</name>
      </trkpt>
      <trkpt lat="17.312502720" lon="-96.443020370">
        <ele>2140.000</ele>
        <time>2019-01-19T19:31:49Z</time>
        <name>WPT.911</name>
      </trkpt>
      <trkpt lat="17.312498560" lon="-96.443058470">
        <ele>2139.000</ele>
        <time>2019-01-19T19:31:53Z</time>
        <name>WPT.912</name>
      </trkpt>
      <trkpt lat="17.312488470" lon="-96.443097120">
        <ele>2138.000</ele>
        <time>2019-01-19T19:31:57Z</time>
        <name>WPT.913</name>
      </trkpt>
      <trkpt lat="17.312470720" lon="-96.443136450">
        <ele>2138.000</ele>
        <time>2019-01-19T19:32:02Z</time>
        <name>WPT.914</name>
      </trkpt>
      <trkpt lat="17.312449520" lon="-96.443170720">
        <ele>2137.000</ele>
        <time>2019-01-19T19:32:07Z</time>
        <name>WPT.915</name>
      </trkpt>
      <trkpt lat="17.312437380" lon="-96.443207630">
        <ele>2135.000</ele>
        <time>2019-01-19T19:32:10Z</time>
        <name>WPT.916</name>
      </trkpt>
      <trkpt lat="17.312419570" lon="-96.443241400">
        <ele>2133.000</ele>
        <time>2019-01-19T19:32:15Z</time>
        <name>WPT.917</name>
      </trkpt>
      <trkpt lat="17.312396440" lon="-96.443272990">
        <ele>2132.000</ele>
        <time>2019-01-19T19:32:20Z</time>
        <name>WPT.918</name>
      </trkpt>
      <trkpt lat="17.312361540" lon="-96.443291950">
        <ele>2131.000</ele>
        <time>2019-01-19T19:32:26Z</time>
        <name>WPT.919</name>
      </trkpt>
      <trkpt lat="17.312336260" lon="-96.443320340">
        <ele>2131.000</ele>
        <time>2019-01-19T19:32:31Z</time>
        <name>WPT.920</name>
      </trkpt>
      <trkpt lat="17.312312630" lon="-96.443352690">
        <ele>2130.000</ele>
        <time>2019-01-19T19:32:36Z</time>
        <name>WPT.921</name>
      </trkpt>
      <trkpt lat="17.312295620" lon="-96.443388680">
        <ele>2127.000</ele>
        <time>2019-01-19T19:32:40Z</time>
        <name>WPT.922</name>
      </trkpt>
      <trkpt lat="17.312278420" lon="-96.443431930">
        <ele>2127.000</ele>
        <time>2019-01-19T19:32:45Z</time>
        <name>WPT.923</name>
      </trkpt>
      <trkpt lat="17.312257860" lon="-96.443464290">
        <ele>2126.000</ele>
        <time>2019-01-19T19:32:49Z</time>
        <name>WPT.924</name>
      </trkpt>
      <trkpt lat="17.312229760" lon="-96.443496020">
        <ele>2124.000</ele>
        <time>2019-01-19T19:32:54Z</time>
        <name>WPT.925</name>
      </trkpt>
      <trkpt lat="17.312206400" lon="-96.443532620">
        <ele>2124.000</ele>
        <time>2019-01-19T19:32:59Z</time>
        <name>WPT.926</name>
      </trkpt>
      <trkpt lat="17.312193040" lon="-96.443570820">
        <ele>2125.000</ele>
        <time>2019-01-19T19:33:05Z</time>
        <name>WPT.927</name>
      </trkpt>
      <trkpt lat="17.312190410" lon="-96.443608670">
        <ele>2126.000</ele>
        <time>2019-01-19T19:33:11Z</time>
        <name>WPT.928</name>
      </trkpt>
      <trkpt lat="17.312166810" lon="-96.443655420">
        <ele>2127.000</ele>
        <time>2019-01-19T19:33:51Z</time>
        <name>WPT.929</name>
      </trkpt>
      <trkpt lat="17.312185260" lon="-96.443694300">
        <ele>2126.000</ele>
        <time>2019-01-19T19:33:55Z</time>
        <name>WPT.930</name>
      </trkpt>
      <trkpt lat="17.312216380" lon="-96.443721620">
        <ele>2125.000</ele>
        <time>2019-01-19T19:33:59Z</time>
        <name>WPT.931</name>
      </trkpt>
      <trkpt lat="17.312252660" lon="-96.443743530">
        <ele>2123.000</ele>
        <time>2019-01-19T19:34:06Z</time>
        <name>WPT.932</name>
      </trkpt>
      <trkpt lat="17.312286590" lon="-96.443772870">
        <ele>2122.000</ele>
        <time>2019-01-19T19:34:10Z</time>
        <name>WPT.933</name>
      </trkpt>
      <trkpt lat="17.312310790" lon="-96.443807190">
        <ele>2120.000</ele>
        <time>2019-01-19T19:34:15Z</time>
        <name>WPT.934</name>
      </trkpt>
      <trkpt lat="17.312332820" lon="-96.443842410">
        <ele>2119.000</ele>
        <time>2019-01-19T19:34:20Z</time>
        <name>WPT.935</name>
      </trkpt>
      <trkpt lat="17.312358800" lon="-96.443880990">
        <ele>2115.000</ele>
        <time>2019-01-19T19:34:26Z</time>
        <name>WPT.936</name>
      </trkpt>
      <trkpt lat="17.312378360" lon="-96.443915280">
        <ele>2116.000</ele>
        <time>2019-01-19T19:34:33Z</time>
        <name>WPT.937</name>
      </trkpt>
      <trkpt lat="17.312394690" lon="-96.443952350">
        <ele>2119.000</ele>
        <time>2019-01-19T19:34:40Z</time>
        <name>WPT.938</name>
      </trkpt>
      <trkpt lat="17.312400650" lon="-96.443992570">
        <ele>2119.000</ele>
        <time>2019-01-19T19:34:46Z</time>
        <name>WPT.939</name>
      </trkpt>
      <trkpt lat="17.312398210" lon="-96.444032240">
        <ele>2116.000</ele>
        <time>2019-01-19T19:34:51Z</time>
        <name>WPT.940</name>
      </trkpt>
      <trkpt lat="17.312401930" lon="-96.444070520">
        <ele>2116.000</ele>
        <time>2019-01-19T19:35:01Z</time>
        <name>WPT.941</name>
      </trkpt>
      <trkpt lat="17.312390020" lon="-96.444106360">
        <ele>2116.000</ele>
        <time>2019-01-19T19:35:06Z</time>
        <name>WPT.942</name>
      </trkpt>
      <trkpt lat="17.312381810" lon="-96.444145780">
        <ele>2114.000</ele>
        <time>2019-01-19T19:35:10Z</time>
        <name>WPT.943</name>
      </trkpt>
      <trkpt lat="17.312386460" lon="-96.444186890">
        <ele>2114.000</ele>
        <time>2019-01-19T19:35:16Z</time>
        <name>WPT.944</name>
      </trkpt>
      <trkpt lat="17.312382800" lon="-96.444224790">
        <ele>2112.000</ele>
        <time>2019-01-19T19:35:21Z</time>
        <name>WPT.945</name>
      </trkpt>
      <trkpt lat="17.312387710" lon="-96.444264120">
        <ele>2114.000</ele>
        <time>2019-01-19T19:35:26Z</time>
        <name>WPT.946</name>
      </trkpt>
      <trkpt lat="17.312392760" lon="-96.444315590">
        <ele>2115.000</ele>
        <time>2019-01-19T19:35:32Z</time>
        <name>WPT.947</name>
      </trkpt>
      <trkpt lat="17.312392500" lon="-96.444353900">
        <ele>2113.000</ele>
        <time>2019-01-19T19:35:37Z</time>
        <name>WPT.948</name>
      </trkpt>
      <trkpt lat="17.312380910" lon="-96.444399330">
        <ele>2111.000</ele>
        <time>2019-01-19T19:35:45Z</time>
        <name>WPT.949</name>
      </trkpt>
      <trkpt lat="17.312390680" lon="-96.444442970">
        <ele>2109.000</ele>
        <time>2019-01-19T19:35:50Z</time>
        <name>WPT.950</name>
      </trkpt>
      <trkpt lat="17.312409920" lon="-96.444480580">
        <ele>2109.000</ele>
        <time>2019-01-19T19:35:54Z</time>
        <name>WPT.951</name>
      </trkpt>
      <trkpt lat="17.312424830" lon="-96.444517150">
        <ele>2108.000</ele>
        <time>2019-01-19T19:35:59Z</time>
        <name>WPT.952</name>
      </trkpt>
      <trkpt lat="17.312436920" lon="-96.444561660">
        <ele>2107.000</ele>
        <time>2019-01-19T19:36:03Z</time>
        <name>WPT.953</name>
      </trkpt>
      <trkpt lat="17.312459240" lon="-96.444601890">
        <ele>2106.000</ele>
        <time>2019-01-19T19:36:07Z</time>
        <name>WPT.954</name>
      </trkpt>
      <trkpt lat="17.312475970" lon="-96.444637830">
        <ele>2105.000</ele>
        <time>2019-01-19T19:36:11Z</time>
        <name>WPT.955</name>
      </trkpt>
      <trkpt lat="17.312489260" lon="-96.444682850">
        <ele>2104.000</ele>
        <time>2019-01-19T19:36:16Z</time>
        <name>WPT.956</name>
      </trkpt>
      <trkpt lat="17.312509520" lon="-96.444719530">
        <ele>2103.000</ele>
        <time>2019-01-19T19:36:21Z</time>
        <name>WPT.957</name>
      </trkpt>
      <trkpt lat="17.312535670" lon="-96.444747230">
        <ele>2103.000</ele>
        <time>2019-01-19T19:36:25Z</time>
        <name>WPT.958</name>
      </trkpt>
      <trkpt lat="17.312554710" lon="-96.444779380">
        <ele>2103.000</ele>
        <time>2019-01-19T19:36:29Z</time>
        <name>WPT.959</name>
      </trkpt>
      <trkpt lat="17.312587420" lon="-96.444795630">
        <ele>2102.000</ele>
        <time>2019-01-19T19:36:41Z</time>
        <name>WPT.960</name>
      </trkpt>
      <trkpt lat="17.312612000" lon="-96.444835070">
        <ele>2101.000</ele>
        <time>2019-01-19T19:37:10Z</time>
        <name>WPT.961</name>
      </trkpt>
      <trkpt lat="17.312634790" lon="-96.444870960">
        <ele>2100.000</ele>
        <time>2019-01-19T19:37:14Z</time>
        <name>WPT.962</name>
      </trkpt>
      <trkpt lat="17.312656910" lon="-96.444901140">
        <ele>2101.000</ele>
        <time>2019-01-19T19:37:18Z</time>
        <name>WPT.963</name>
      </trkpt>
      <trkpt lat="17.312674330" lon="-96.444938600">
        <ele>2101.000</ele>
        <time>2019-01-19T19:37:22Z</time>
        <name>WPT.964</name>
      </trkpt>
      <trkpt lat="17.312699820" lon="-96.444972120">
        <ele>2102.000</ele>
        <time>2019-01-19T19:37:26Z</time>
        <name>WPT.965</name>
      </trkpt>
      <trkpt lat="17.312692370" lon="-96.445009220">
        <ele>2100.000</ele>
        <time>2019-01-19T19:37:46Z</time>
        <name>WPT.966</name>
      </trkpt>
      <trkpt lat="17.312728880" lon="-96.445013250">
        <ele>2100.000</ele>
        <time>2019-01-19T19:37:58Z</time>
        <name>WPT.967</name>
      </trkpt>
      <trkpt lat="17.312752210" lon="-96.445042090">
        <ele>2100.000</ele>
        <time>2019-01-19T19:38:03Z</time>
        <name>WPT.968</name>
      </trkpt>
      <trkpt lat="17.312778440" lon="-96.445073690">
        <ele>2100.000</ele>
        <time>2019-01-19T19:38:09Z</time>
        <name>WPT.969</name>
      </trkpt>
      <trkpt lat="17.312800030" lon="-96.445112130">
        <ele>2100.000</ele>
        <time>2019-01-19T19:38:15Z</time>
        <name>WPT.970</name>
      </trkpt>
      <trkpt lat="17.312826520" lon="-96.445150000">
        <ele>2100.000</ele>
        <time>2019-01-19T19:38:20Z</time>
        <name>WPT.971</name>
      </trkpt>
      <trkpt lat="17.312852490" lon="-96.445176860">
        <ele>2101.000</ele>
        <time>2019-01-19T19:38:24Z</time>
        <name>WPT.972</name>
      </trkpt>
      <trkpt lat="17.312869250" lon="-96.445217600">
        <ele>2100.000</ele>
        <time>2019-01-19T19:38:29Z</time>
        <name>WPT.973</name>
      </trkpt>
      <trkpt lat="17.312889400" lon="-96.445258580">
        <ele>2100.000</ele>
        <time>2019-01-19T19:38:34Z</time>
        <name>WPT.974</name>
      </trkpt>
      <trkpt lat="17.312916020" lon="-96.445287970">
        <ele>2098.000</ele>
        <time>2019-01-19T19:38:38Z</time>
        <name>WPT.975</name>
      </trkpt>
      <trkpt lat="17.312935800" lon="-96.445324930">
        <ele>2098.000</ele>
        <time>2019-01-19T19:38:43Z</time>
        <name>WPT.976</name>
      </trkpt>
      <trkpt lat="17.312959180" lon="-96.445360740">
        <ele>2098.000</ele>
        <time>2019-01-19T19:38:49Z</time>
        <name>WPT.977</name>
      </trkpt>
      <trkpt lat="17.312982560" lon="-96.445398720">
        <ele>2099.000</ele>
        <time>2019-01-19T19:38:54Z</time>
        <name>WPT.978</name>
      </trkpt>
      <trkpt lat="17.313009070" lon="-96.445432950">
        <ele>2098.000</ele>
        <time>2019-01-19T19:38:59Z</time>
        <name>WPT.979</name>
      </trkpt>
      <trkpt lat="17.313024290" lon="-96.445468130">
        <ele>2098.000</ele>
        <time>2019-01-19T19:39:03Z</time>
        <name>WPT.980</name>
      </trkpt>
      <trkpt lat="17.313027470" lon="-96.445510550">
        <ele>2097.000</ele>
        <time>2019-01-19T19:39:07Z</time>
        <name>WPT.981</name>
      </trkpt>
      <trkpt lat="17.313018510" lon="-96.445548050">
        <ele>2096.000</ele>
        <time>2019-01-19T19:39:11Z</time>
        <name>WPT.982</name>
      </trkpt>
      <trkpt lat="17.312996400" lon="-96.445587580">
        <ele>2096.000</ele>
        <time>2019-01-19T19:39:16Z</time>
        <name>WPT.983</name>
      </trkpt>
      <trkpt lat="17.312965130" lon="-96.445609480">
        <ele>2095.000</ele>
        <time>2019-01-19T19:39:20Z</time>
        <name>WPT.984</name>
      </trkpt>
      <trkpt lat="17.312934700" lon="-96.445633210">
        <ele>2093.000</ele>
        <time>2019-01-19T19:39:25Z</time>
        <name>WPT.985</name>
      </trkpt>
      <trkpt lat="17.312901990" lon="-96.445652400">
        <ele>2092.000</ele>
        <time>2019-01-19T19:39:29Z</time>
        <name>WPT.986</name>
      </trkpt>
      <trkpt lat="17.312866070" lon="-96.445679070">
        <ele>2090.000</ele>
        <time>2019-01-19T19:39:34Z</time>
        <name>WPT.987</name>
      </trkpt>
      <trkpt lat="17.312832640" lon="-96.445695600">
        <ele>2090.000</ele>
        <time>2019-01-19T19:39:38Z</time>
        <name>WPT.988</name>
      </trkpt>
      <trkpt lat="17.312801700" lon="-96.445728290">
        <ele>2089.000</ele>
        <time>2019-01-19T19:39:43Z</time>
        <name>WPT.989</name>
      </trkpt>
      <trkpt lat="17.312772070" lon="-96.445758910">
        <ele>2088.000</ele>
        <time>2019-01-19T19:39:47Z</time>
        <name>WPT.990</name>
      </trkpt>
      <trkpt lat="17.312739550" lon="-96.445790100">
        <ele>2087.000</ele>
        <time>2019-01-19T19:39:51Z</time>
        <name>WPT.991</name>
      </trkpt>
      <trkpt lat="17.312728290" lon="-96.445829350">
        <ele>2087.000</ele>
        <time>2019-01-19T19:39:56Z</time>
        <name>WPT.992</name>
      </trkpt>
      <trkpt lat="17.312762930" lon="-96.445849710">
        <ele>2086.000</ele>
        <time>2019-01-19T19:40:01Z</time>
        <name>WPT.993</name>
      </trkpt>
      <trkpt lat="17.312800100" lon="-96.445855250">
        <ele>2087.000</ele>
        <time>2019-01-19T19:40:05Z</time>
        <name>WPT.994</name>
      </trkpt>
      <trkpt lat="17.312841620" lon="-96.445860070">
        <ele>2087.000</ele>
        <time>2019-01-19T19:40:09Z</time>
        <name>WPT.995</name>
      </trkpt>
      <trkpt lat="17.312879610" lon="-96.445867650">
        <ele>2087.000</ele>
        <time>2019-01-19T19:40:13Z</time>
        <name>WPT.996</name>
      </trkpt>
      <trkpt lat="17.312920170" lon="-96.445871540">
        <ele>2087.000</ele>
        <time>2019-01-19T19:40:17Z</time>
        <name>WPT.997</name>
      </trkpt>
      <trkpt lat="17.312962050" lon="-96.445865820">
        <ele>2086.000</ele>
        <time>2019-01-19T19:40:21Z</time>
        <name>WPT.998</name>
      </trkpt>
      <trkpt lat="17.313006030" lon="-96.445865190">
        <ele>2087.000</ele>
        <time>2019-01-19T19:40:26Z</time>
        <name>WPT.999</name>
      </trkpt>
      <trkpt lat="17.313044730" lon="-96.445865600">
        <ele>2087.000</ele>
        <time>2019-01-19T19:40:30Z</time>
        <name>WPT.1000</name>
      </trkpt>
      <trkpt lat="17.313083130" lon="-96.445866990">
        <ele>2087.000</ele>
        <time>2019-01-19T19:40:34Z</time>
        <name>WPT.1001</name>
      </trkpt>
      <trkpt lat="17.313122580" lon="-96.445876550">
        <ele>2087.000</ele>
        <time>2019-01-19T19:40:38Z</time>
        <name>WPT.1002</name>
      </trkpt>
      <trkpt lat="17.313166720" lon="-96.445878450">
        <ele>2086.000</ele>
        <time>2019-01-19T19:40:42Z</time>
        <name>WPT.1003</name>
      </trkpt>
      <trkpt lat="17.313208320" lon="-96.445884640">
        <ele>2087.000</ele>
        <time>2019-01-19T19:40:46Z</time>
        <name>WPT.1004</name>
      </trkpt>
      <trkpt lat="17.313248900" lon="-96.445882640">
        <ele>2086.000</ele>
        <time>2019-01-19T19:40:50Z</time>
        <name>WPT.1005</name>
      </trkpt>
      <trkpt lat="17.313286910" lon="-96.445879070">
        <ele>2086.000</ele>
        <time>2019-01-19T19:40:54Z</time>
        <name>WPT.1006</name>
      </trkpt>
      <trkpt lat="17.313325480" lon="-96.445872720">
        <ele>2086.000</ele>
        <time>2019-01-19T19:40:59Z</time>
        <name>WPT.1007</name>
      </trkpt>
      <trkpt lat="17.313365830" lon="-96.445869950">
        <ele>2086.000</ele>
        <time>2019-01-19T19:41:05Z</time>
        <name>WPT.1008</name>
      </trkpt>
      <trkpt lat="17.313407080" lon="-96.445876050">
        <ele>2085.000</ele>
        <time>2019-01-19T19:41:10Z</time>
        <name>WPT.1009</name>
      </trkpt>
      <trkpt lat="17.313446620" lon="-96.445875430">
        <ele>2085.000</ele>
        <time>2019-01-19T19:41:16Z</time>
        <name>WPT.1010</name>
      </trkpt>
      <trkpt lat="17.313483290" lon="-96.445875110">
        <ele>2085.000</ele>
        <time>2019-01-19T19:41:21Z</time>
        <name>WPT.1011</name>
      </trkpt>
      <trkpt lat="17.313518700" lon="-96.445866210">
        <ele>2085.000</ele>
        <time>2019-01-19T19:41:26Z</time>
        <name>WPT.1012</name>
      </trkpt>
      <trkpt lat="17.313556390" lon="-96.445864500">
        <ele>2084.000</ele>
        <time>2019-01-19T19:41:34Z</time>
        <name>WPT.1013</name>
      </trkpt>
      <trkpt lat="17.313592450" lon="-96.445856860">
        <ele>2084.000</ele>
        <time>2019-01-19T19:41:38Z</time>
        <name>WPT.1014</name>
      </trkpt>
      <trkpt lat="17.313637990" lon="-96.445854920">
        <ele>2084.000</ele>
        <time>2019-01-19T19:41:43Z</time>
        <name>WPT.1015</name>
      </trkpt>
      <trkpt lat="17.313673680" lon="-96.445844220">
        <ele>2084.000</ele>
        <time>2019-01-19T19:41:48Z</time>
        <name>WPT.1016</name>
      </trkpt>
      <trkpt lat="17.313710460" lon="-96.445835220">
        <ele>2084.000</ele>
        <time>2019-01-19T19:41:52Z</time>
        <name>WPT.1017</name>
      </trkpt>
      <trkpt lat="17.313746320" lon="-96.445841040">
        <ele>2084.000</ele>
        <time>2019-01-19T19:41:58Z</time>
        <name>WPT.1018</name>
      </trkpt>
      <trkpt lat="17.313788250" lon="-96.445838290">
        <ele>2084.000</ele>
        <time>2019-01-19T19:42:12Z</time>
        <name>WPT.1019</name>
      </trkpt>
      <trkpt lat="17.313829750" lon="-96.445847410">
        <ele>2084.000</ele>
        <time>2019-01-19T19:42:17Z</time>
        <name>WPT.1020</name>
      </trkpt>
      <trkpt lat="17.313865930" lon="-96.445849180">
        <ele>2083.000</ele>
        <time>2019-01-19T19:42:23Z</time>
        <name>WPT.1021</name>
      </trkpt>
      <trkpt lat="17.313902040" lon="-96.445860550">
        <ele>2082.000</ele>
        <time>2019-01-19T19:42:27Z</time>
        <name>WPT.1022</name>
      </trkpt>
      <trkpt lat="17.313931840" lon="-96.445888680">
        <ele>2082.000</ele>
        <time>2019-01-19T19:42:33Z</time>
        <name>WPT.1023</name>
      </trkpt>
      <trkpt lat="17.313963590" lon="-96.445908070">
        <ele>2082.000</ele>
        <time>2019-01-19T19:42:39Z</time>
        <name>WPT.1024</name>
      </trkpt>
      <trkpt lat="17.313996500" lon="-96.445924970">
        <ele>2082.000</ele>
        <time>2019-01-19T19:42:44Z</time>
        <name>WPT.1025</name>
      </trkpt>
      <trkpt lat="17.314030910" lon="-96.445940870">
        <ele>2081.000</ele>
        <time>2019-01-19T19:42:48Z</time>
        <name>WPT.1026</name>
      </trkpt>
      <trkpt lat="17.314069400" lon="-96.445968080">
        <ele>2081.000</ele>
        <time>2019-01-19T19:42:52Z</time>
        <name>WPT.1027</name>
      </trkpt>
      <trkpt lat="17.314105390" lon="-96.445993540">
        <ele>2080.000</ele>
        <time>2019-01-19T19:42:57Z</time>
        <name>WPT.1028</name>
      </trkpt>
      <trkpt lat="17.314138600" lon="-96.446023910">
        <ele>2080.000</ele>
        <time>2019-01-19T19:43:02Z</time>
        <name>WPT.1029</name>
      </trkpt>
      <trkpt lat="17.314172030" lon="-96.446055820">
        <ele>2081.000</ele>
        <time>2019-01-19T19:43:07Z</time>
        <name>WPT.1030</name>
      </trkpt>
      <trkpt lat="17.314202980" lon="-96.446083130">
        <ele>2082.000</ele>
        <time>2019-01-19T19:43:11Z</time>
        <name>WPT.1031</name>
      </trkpt>
      <trkpt lat="17.314238970" lon="-96.446106140">
        <ele>2081.000</ele>
        <time>2019-01-19T19:43:15Z</time>
        <name>WPT.1032</name>
      </trkpt>
      <trkpt lat="17.314278420" lon="-96.446124560">
        <ele>2081.000</ele>
        <time>2019-01-19T19:43:20Z</time>
        <name>WPT.1033</name>
      </trkpt>
      <trkpt lat="17.314313570" lon="-96.446145050">
        <ele>2080.000</ele>
        <time>2019-01-19T19:43:25Z</time>
        <name>WPT.1034</name>
      </trkpt>
      <trkpt lat="17.314344940" lon="-96.446179140">
        <ele>2079.000</ele>
        <time>2019-01-19T19:43:30Z</time>
        <name>WPT.1035</name>
      </trkpt>
      <trkpt lat="17.314379330" lon="-96.446204450">
        <ele>2079.000</ele>
        <time>2019-01-19T19:43:34Z</time>
        <name>WPT.1036</name>
      </trkpt>
      <trkpt lat="17.314413990" lon="-96.446230500">
        <ele>2078.000</ele>
        <time>2019-01-19T19:43:38Z</time>
        <name>WPT.1037</name>
      </trkpt>
      <trkpt lat="17.314446620" lon="-96.446251020">
        <ele>2078.000</ele>
        <time>2019-01-19T19:43:42Z</time>
        <name>WPT.1038</name>
      </trkpt>
      <trkpt lat="17.314480880" lon="-96.446271380">
        <ele>2077.000</ele>
        <time>2019-01-19T19:43:46Z</time>
        <name>WPT.1039</name>
      </trkpt>
      <trkpt lat="17.314518790" lon="-96.446289630">
        <ele>2077.000</ele>
        <time>2019-01-19T19:43:51Z</time>
        <name>WPT.1040</name>
      </trkpt>
      <trkpt lat="17.314552850" lon="-96.446309840">
        <ele>2074.000</ele>
        <time>2019-01-19T19:43:56Z</time>
        <name>WPT.1041</name>
      </trkpt>
      <trkpt lat="17.314584410" lon="-96.446332760">
        <ele>2073.000</ele>
        <time>2019-01-19T19:44:01Z</time>
        <name>WPT.1042</name>
      </trkpt>
      <trkpt lat="17.314608980" lon="-96.446361300">
        <ele>2074.000</ele>
        <time>2019-01-19T19:44:20Z</time>
        <name>WPT.1043</name>
      </trkpt>
      <trkpt lat="17.314642870" lon="-96.446385750">
        <ele>2073.000</ele>
        <time>2019-01-19T19:44:24Z</time>
        <name>WPT.1044</name>
      </trkpt>
      <trkpt lat="17.314669150" lon="-96.446418790">
        <ele>2074.000</ele>
        <time>2019-01-19T19:44:28Z</time>
        <name>WPT.1045</name>
      </trkpt>
      <trkpt lat="17.314694600" lon="-96.446446040">
        <ele>2074.000</ele>
        <time>2019-01-19T19:44:32Z</time>
        <name>WPT.1046</name>
      </trkpt>
      <trkpt lat="17.314730470" lon="-96.446478940">
        <ele>2074.000</ele>
        <time>2019-01-19T19:44:36Z</time>
        <name>WPT.1047</name>
      </trkpt>
      <trkpt lat="17.314772180" lon="-96.446502990">
        <ele>2074.000</ele>
        <time>2019-01-19T19:44:40Z</time>
        <name>WPT.1048</name>
      </trkpt>
      <trkpt lat="17.314804980" lon="-96.446528630">
        <ele>2074.000</ele>
        <time>2019-01-19T19:44:44Z</time>
        <name>WPT.1049</name>
      </trkpt>
      <trkpt lat="17.314837400" lon="-96.446559640">
        <ele>2073.000</ele>
        <time>2019-01-19T19:44:49Z</time>
        <name>WPT.1050</name>
      </trkpt>
      <trkpt lat="17.314862240" lon="-96.446594340">
        <ele>2073.000</ele>
        <time>2019-01-19T19:44:54Z</time>
        <name>WPT.1051</name>
      </trkpt>
      <trkpt lat="17.314873420" lon="-96.446630200">
        <ele>2073.000</ele>
        <time>2019-01-19T19:44:57Z</time>
        <name>WPT.1052</name>
      </trkpt>
      <trkpt lat="17.314900490" lon="-96.446662920">
        <ele>2072.000</ele>
        <time>2019-01-19T19:45:01Z</time>
        <name>WPT.1053</name>
      </trkpt>
      <trkpt lat="17.314927070" lon="-96.446698990">
        <ele>2074.000</ele>
        <time>2019-01-19T19:45:06Z</time>
        <name>WPT.1054</name>
      </trkpt>
      <trkpt lat="17.314945910" lon="-96.446734880">
        <ele>2074.000</ele>
        <time>2019-01-19T19:45:12Z</time>
        <name>WPT.1055</name>
      </trkpt>
      <trkpt lat="17.314959940" lon="-96.446769590">
        <ele>2072.000</ele>
        <time>2019-01-19T19:45:16Z</time>
        <name>WPT.1056</name>
      </trkpt>
      <trkpt lat="17.314974270" lon="-96.446813450">
        <ele>2071.000</ele>
        <time>2019-01-19T19:45:21Z</time>
        <name>WPT.1057</name>
      </trkpt>
      <trkpt lat="17.314993160" lon="-96.446851520">
        <ele>2070.000</ele>
        <time>2019-01-19T19:45:27Z</time>
        <name>WPT.1058</name>
      </trkpt>
      <trkpt lat="17.315024170" lon="-96.446886020">
        <ele>2068.000</ele>
        <time>2019-01-19T19:45:41Z</time>
        <name>WPT.1059</name>
      </trkpt>
      <trkpt lat="17.315052030" lon="-96.446921450">
        <ele>2069.000</ele>
        <time>2019-01-19T19:45:45Z</time>
        <name>WPT.1060</name>
      </trkpt>
      <trkpt lat="17.315085790" lon="-96.446953620">
        <ele>2069.000</ele>
        <time>2019-01-19T19:45:49Z</time>
        <name>WPT.1061</name>
      </trkpt>
      <trkpt lat="17.315123230" lon="-96.446980730">
        <ele>2069.000</ele>
        <time>2019-01-19T19:45:53Z</time>
        <name>WPT.1062</name>
      </trkpt>
      <trkpt lat="17.315159870" lon="-96.447002640">
        <ele>2070.000</ele>
        <time>2019-01-19T19:45:59Z</time>
        <name>WPT.1063</name>
      </trkpt>
      <trkpt lat="17.315161700" lon="-96.447044670">
        <ele>2069.000</ele>
        <time>2019-01-19T19:46:13Z</time>
        <name>WPT.1064</name>
      </trkpt>
      <trkpt lat="17.315132240" lon="-96.447074680">
        <ele>2069.000</ele>
        <time>2019-01-19T19:46:34Z</time>
        <name>WPT.1065</name>
      </trkpt>
      <trkpt lat="17.315168300" lon="-96.447091050">
        <ele>2064.000</ele>
        <time>2019-01-19T19:46:58Z</time>
        <name>WPT.1066</name>
      </trkpt>
      <trkpt lat="17.315206780" lon="-96.447083510">
        <ele>2064.000</ele>
        <time>2019-01-19T19:48:40Z</time>
        <name>WPT.1067</name>
      </trkpt>
      <trkpt lat="17.315178140" lon="-96.447055020">
        <ele>2063.000</ele>
        <time>2019-01-19T19:51:18Z</time>
        <name>WPT.1068</name>
      </trkpt>
      <trkpt lat="17.315148860" lon="-96.447029640">
        <ele>2064.000</ele>
        <time>2019-01-19T19:51:23Z</time>
        <name>WPT.1069</name>
      </trkpt>
      <trkpt lat="17.315110460" lon="-96.447011190">
        <ele>2067.000</ele>
        <time>2019-01-19T19:51:31Z</time>
        <name>WPT.1070</name>
      </trkpt>
      <trkpt lat="17.315070450" lon="-96.447035140">
        <ele>2070.000</ele>
        <time>2019-01-19T19:51:41Z</time>
        <name>WPT.1071</name>
      </trkpt>
      <trkpt lat="17.315106910" lon="-96.447037070">
        <ele>2072.000</ele>
        <time>2019-01-19T19:51:43Z</time>
        <name>WPT.1072</name>
      </trkpt>
      <trkpt lat="17.315147880" lon="-96.447027770">
        <ele>2071.000</ele>
        <time>2019-01-19T19:51:46Z</time>
        <name>WPT.1073</name>
      </trkpt>
      <trkpt lat="17.315114130" lon="-96.447001240">
        <ele>2072.000</ele>
        <time>2019-01-19T19:51:50Z</time>
        <name>WPT.1074</name>
      </trkpt>
      <trkpt lat="17.315158710" lon="-96.447054740">
        <ele>2069.000</ele>
        <time>2019-01-19T19:52:00Z</time>
        <name>WPT.1075</name>
      </trkpt>
      <trkpt lat="17.315121570" lon="-96.447060980">
        <ele>2069.000</ele>
        <time>2019-01-19T19:52:04Z</time>
        <name>WPT.1076</name>
      </trkpt>
      <trkpt lat="17.315154480" lon="-96.447076870">
        <ele>2072.000</ele>
        <time>2019-01-19T19:53:14Z</time>
        <name>WPT.1077</name>
      </trkpt>
      <trkpt lat="17.315120040" lon="-96.447063490">
        <ele>2068.000</ele>
        <time>2019-01-19T19:53:58Z</time>
        <name>WPT.1078</name>
      </trkpt>
      <trkpt lat="17.315123180" lon="-96.447060160">
        <ele>2069.000</ele>
        <time>2019-01-19T19:54:58Z</time>
        <name>WPT.1079</name>
      </trkpt>
    </trkseg>
  </trk>
</gpx>
